Darstellungsparameter: Aktuell verwendete Einstellungen:
Skalierung der Graphiken ... ?
xyx+y,   Skalierungsfaktor:      Skalierung: Modus: x, Faktor: 1
Darstellungszeitraum ... ?
Vom - - bis: - -   Zeitraum: 11.01.2021 - 17.01.2021
Min/Max/Avg-Anzeige ... ?
Zeige MMA aktuell
Zeige MMA Monat
Zeige MMA alles
Zeige --A aktuell
Zeige --A Monat
Zeige --A alles
Keine MMA-Anzeige
MMA:
Minimum Maximum Average (ber die Originaldaten)
MMA-Basis: 23.03.2019 - 25.04.2019
Quicknavigation für Darstellung... ?
Tage:      1T, 2T, 3T, 5T -1T -2T -3T -5T +1T +2T +3T +5T
Wochen: 1W, 2W, 3W -1W -2W -3W +1W +2W +3W
Monate: 1M, 3M, 6M -1M -3M -6M +1M +3M +6M
Jahre:    1J, 3J, 5J, 10J -1J -3J -5J -10J +1J +3J +5J +10J
Nutze für die Darstellung ... ?
Originaldaten oder Mittelwerte auf ...
Stundenbasis Tagesbasis Wochenbasis
Monatsbasis Jahresbasis      Datenbasis: Original-Daten
Darstellen als:
Statistik (Auto) Statistik J:M      Darstellung:
Zur Graphik,    zurück zur Übersicht aller Sensoren.
 
Tabellarische Datenbersicht: ?
 
Sensor: Nr:Datum:Temp:Abs-Feuchte:Windchill:Wind:
Aussen-T/F 1 11-01-2021 00:00:00 -2.9 C 3.76 g/m*3 -2.9 C 0 km/h
2 11-01-2021 00:05:00 -3 C 3.73 g/m*3 -3 C 0 km/h
3 11-01-2021 00:10:00 -3 C 3.73 g/m*3 -3 C 1.6 km/h
4 11-01-2021 00:15:00 -3 C 3.73 g/m*3 -3 C 0 km/h
5 11-01-2021 00:20:00 -3 C 3.73 g/m*3 -3 C 0 km/h
6 11-01-2021 00:25:00 -3 C 3.73 g/m*3 -3 C 0 km/h
7 11-01-2021 00:30:00 -3 C 3.73 g/m*3 -3 C 0 km/h
8 11-01-2021 00:35:00 -2.9 C 3.76 g/m*3 -2.9 C 0 km/h
9 11-01-2021 00:40:00 -2.9 C 3.76 g/m*3 -2.9 C 0 km/h
10 11-01-2021 00:45:00 -2.9 C 3.76 g/m*3 -2.9 C 0 km/h
11 11-01-2021 00:50:00 -3 C 3.73 g/m*3 -3 C 0 km/h
12 11-01-2021 00:55:00 -3.1 C 3.71 g/m*3 -3.1 C 0 km/h
13 11-01-2021 01:00:00 -3.2 C 3.68 g/m*3 -3.2 C 0 km/h
14 11-01-2021 01:05:00 -3.2 C 3.68 g/m*3 -3.2 C 0 km/h
15 11-01-2021 01:10:00 -3.2 C 3.68 g/m*3 -3.2 C 0 km/h
16 11-01-2021 01:15:00 -3.3 C 3.65 g/m*3 -3.3 C 0 km/h
17 11-01-2021 01:20:00 -3.3 C 3.65 g/m*3 -3.3 C 0 km/h
18 11-01-2021 01:25:00 -3.3 C 3.65 g/m*3 -3.3 C 1.6 km/h
19 11-01-2021 01:30:00 -3.4 C 3.63 g/m*3 -3.4 C 0 km/h
20 11-01-2021 01:35:00 -3.4 C 3.63 g/m*3 -3.4 C 0 km/h
21 11-01-2021 01:40:00 -3.4 C 3.63 g/m*3 -3.4 C 0 km/h
22 11-01-2021 01:45:00 -3.4 C 3.63 g/m*3 -3.4 C 0 km/h
23 11-01-2021 01:50:00 -3.3 C 3.65 g/m*3 -3.3 C 0 km/h
24 11-01-2021 01:55:00 -3.3 C 3.65 g/m*3 -3.3 C 0 km/h
25 11-01-2021 02:00:00 -3.2 C 3.68 g/m*3 -3.2 C 0 km/h
Sensor: Nr:Datum:Temp:Abs-Feuchte:Windchill:Wind:
Aussen-T/F 26 11-01-2021 02:05:00 -3.2 C 3.68 g/m*3 -3.2 C 0 km/h
27 11-01-2021 02:10:00 -3.1 C 3.74 g/m*3 -3.1 C 0 km/h
28 11-01-2021 02:15:00 -3 C 3.77 g/m*3 -3 C 0 km/h
29 11-01-2021 02:20:00 -2.9 C 3.8 g/m*3 -2.9 C 0 km/h
30 11-01-2021 02:25:00 -2.9 C 3.8 g/m*3 -2.9 C 0 km/h
31 11-01-2021 02:30:00 -2.8 C 3.82 g/m*3 -2.8 C 0 km/h
32 11-01-2021 02:35:00 -2.8 C 3.82 g/m*3 -2.8 C 0 km/h
33 11-01-2021 02:40:00 -2.8 C 3.82 g/m*3 -2.8 C 0 km/h
34 11-01-2021 02:45:00 -2.8 C 3.78 g/m*3 -2.8 C 0 km/h
35 11-01-2021 02:50:00 -2.9 C 3.76 g/m*3 -2.9 C 1.6 km/h
36 11-01-2021 02:55:00 -2.9 C 3.76 g/m*3 -2.9 C 0 km/h
37 11-01-2021 03:00:00 -3.1 C 3.71 g/m*3 -3.1 C 0 km/h
38 11-01-2021 03:05:00 -3.1 C 3.71 g/m*3 -3.1 C 0 km/h
39 11-01-2021 03:10:00 -3.2 C 3.68 g/m*3 -3.2 C 0 km/h
40 11-01-2021 03:15:00 -3.2 C 3.68 g/m*3 -3.2 C 0 km/h
41 11-01-2021 03:20:00 -3.3 C 3.65 g/m*3 -3.3 C 0 km/h
42 11-01-2021 03:25:00 -3.4 C 3.63 g/m*3 -3.4 C 0 km/h
43 11-01-2021 03:30:00 -3.4 C 3.63 g/m*3 -3.4 C 0 km/h
44 11-01-2021 03:35:00 -3.4 C 3.63 g/m*3 -3.4 C 0 km/h
45 11-01-2021 03:40:00 -3.4 C 3.63 g/m*3 -3.4 C 0 km/h
46 11-01-2021 03:45:00 -3.4 C 3.63 g/m*3 -3.4 C 0 km/h
47 11-01-2021 03:50:00 -3.4 C 3.63 g/m*3 -3.4 C 0 km/h
48 11-01-2021 03:55:00 -3.4 C 3.63 g/m*3 -3.4 C 0 km/h
49 11-01-2021 04:00:00 -3.4 C 3.63 g/m*3 -3.4 C 0 km/h
50 11-01-2021 04:05:00 -3.4 C 3.63 g/m*3 -3.4 C 0 km/h
Sensor: Nr:Datum:Temp:Abs-Feuchte:Windchill:Wind:
Aussen-T/F 51 11-01-2021 04:10:00 -3.5 C 3.6 g/m*3 -3.5 C 0 km/h
52 11-01-2021 04:15:00 -3.6 C 3.58 g/m*3 -3.6 C 0 km/h
53 11-01-2021 04:20:00 -3.6 C 3.58 g/m*3 -3.6 C 0 km/h
54 11-01-2021 04:25:00 -3.6 C 3.58 g/m*3 -3.6 C 0 km/h
55 11-01-2021 04:30:00 -3.6 C 3.58 g/m*3 -3.6 C 0 km/h
56 11-01-2021 04:35:00 -3.6 C 3.58 g/m*3 -3.6 C 0 km/h
57 11-01-2021 04:40:00 -3.7 C 3.55 g/m*3 -3.7 C 0 km/h
58 11-01-2021 04:45:00 -3.7 C 3.55 g/m*3 -3.7 C 0 km/h
59 11-01-2021 04:50:00 -3.7 C 3.55 g/m*3 -3.7 C 0 km/h
60 11-01-2021 04:55:00 -3.7 C 3.55 g/m*3 -3.7 C 0 km/h
61 11-01-2021 05:00:00 -3.7 C 3.55 g/m*3 -3.7 C 0 km/h
62 11-01-2021 05:05:00 -3.7 C 3.55 g/m*3 -3.7 C 0 km/h
63 11-01-2021 05:10:00 -3.8 C 3.53 g/m*3 -3.8 C 0 km/h
64 11-01-2021 05:15:00 -3.8 C 3.53 g/m*3 -3.8 C 0 km/h
65 11-01-2021 05:20:00 -3.8 C 3.53 g/m*3 -3.8 C 0 km/h
66 11-01-2021 05:25:00 -3.8 C 3.53 g/m*3 -3.8 C 0 km/h
67 11-01-2021 05:30:00 -3.9 C 3.5 g/m*3 -3.9 C 0 km/h
68 11-01-2021 05:35:00 -3.9 C 3.5 g/m*3 -3.9 C 0 km/h
69 11-01-2021 05:40:00 -4 C 3.48 g/m*3 -4 C 0 km/h
70 11-01-2021 05:45:00 -4 C 3.48 g/m*3 -4 C 0 km/h
71 11-01-2021 05:50:00 -4 C 3.48 g/m*3 -4 C 0 km/h
72 11-01-2021 05:55:00 -4 C 3.48 g/m*3 -4 C 0 km/h
73 11-01-2021 06:00:00 -4 C 3.48 g/m*3 -4 C 0 km/h
74 11-01-2021 06:05:00 -4.1 C 3.45 g/m*3 -4.1 C 0 km/h
75 11-01-2021 06:10:00 -4.1 C 3.45 g/m*3 -4.1 C 0 km/h
Sensor: Nr:Datum:Temp:Abs-Feuchte:Windchill:Wind:
Aussen-T/F 76 11-01-2021 06:15:00 -4.1 C 3.45 g/m*3 -4.1 C 0 km/h
77 11-01-2021 06:20:00 -4.2 C 3.43 g/m*3 -4.2 C 0 km/h
78 11-01-2021 06:25:00 -4.2 C 3.43 g/m*3 -4.2 C 0 km/h
79 11-01-2021 06:30:00 -4.2 C 3.43 g/m*3 -4.2 C 0 km/h
80 11-01-2021 06:35:00 -4.2 C 3.43 g/m*3 -4.2 C 0 km/h
81 11-01-2021 06:40:00 -4.2 C 3.46 g/m*3 -4.2 C 0 km/h
82 11-01-2021 06:45:00 -4.1 C 3.49 g/m*3 -4.1 C 0 km/h
83 11-01-2021 06:50:00 -4.1 C 3.49 g/m*3 -4.1 C 0 km/h
84 11-01-2021 06:55:00 -4 C 3.51 g/m*3 -4 C 0 km/h
85 11-01-2021 07:00:00 -4.1 C 3.49 g/m*3 -4.1 C 0 km/h
86 11-01-2021 07:05:00 -4.1 C 3.49 g/m*3 -4.1 C 0 km/h
87 11-01-2021 07:10:00 -4 C 3.51 g/m*3 -4 C 0 km/h
88 11-01-2021 07:15:00 -3.9 C 3.54 g/m*3 -3.9 C 0 km/h
89 11-01-2021 07:20:00 -3.9 C 3.54 g/m*3 -3.9 C 0 km/h
90 11-01-2021 07:25:00 -3.9 C 3.54 g/m*3 -3.9 C 0 km/h
91 11-01-2021 07:30:00 -3.9 C 3.54 g/m*3 -3.9 C 0 km/h
92 11-01-2021 07:35:00 -3.9 C 3.54 g/m*3 -3.9 C 1.6 km/h
93 11-01-2021 07:40:00 -3.9 C 3.54 g/m*3 -3.9 C 0 km/h
94 11-01-2021 07:45:00 -3.9 C 3.54 g/m*3 -3.9 C 0 km/h
95 11-01-2021 07:50:00 -3.8 C 3.56 g/m*3 -3.8 C 4.8 km/h
96 11-01-2021 07:55:00 -3.8 C 3.56 g/m*3 -3.8 C 1.6 km/h
97 11-01-2021 08:00:00 -3.7 C 3.59 g/m*3 -3.7 C 3.2 km/h
98 11-01-2021 08:05:00 -3.6 C 3.61 g/m*3 -3.6 C 1.6 km/h
99 11-01-2021 08:10:00 -3.5 C 3.64 g/m*3 -3.5 C 3.2 km/h
100 11-01-2021 08:15:00 -3.4 C 3.67 g/m*3 -3.4 C 4.8 km/h
Sensor: Nr:Datum:Temp:Abs-Feuchte:Windchill:Wind:
Aussen-T/F 101 11-01-2021 08:20:00 -3.3 C 3.69 g/m*3 -3.3 C 1.6 km/h
102 11-01-2021 08:25:00 -3.3 C 3.69 g/m*3 -3.3 C 0 km/h
103 11-01-2021 08:30:00 -3.3 C 3.69 g/m*3 -3.3 C 0 km/h
104 11-01-2021 08:35:00 -3.3 C 3.69 g/m*3 -3.3 C 0 km/h
105 11-01-2021 08:40:00 -3.3 C 3.69 g/m*3 -3.3 C 0 km/h
106 11-01-2021 08:45:00 -3.3 C 3.69 g/m*3 -3.3 C 0 km/h
107 11-01-2021 08:50:00 -3.2 C 3.72 g/m*3 -3.2 C 0 km/h
108 11-01-2021 08:55:00 -3.2 C 3.72 g/m*3 -3.2 C 0 km/h
109 11-01-2021 09:00:00 -3.1 C 3.74 g/m*3 -3.1 C 0 km/h
110 11-01-2021 09:05:00 -2.9 C 3.8 g/m*3 -2.9 C 3.2 km/h
111 11-01-2021 09:10:00 -2.9 C 3.8 g/m*3 -2.9 C 0 km/h
112 11-01-2021 09:15:00 -2.8 C 3.82 g/m*3 -2.8 C 4.8 km/h
113 11-01-2021 09:20:00 -2.7 C 3.85 g/m*3 -2.7 C 0 km/h
114 11-01-2021 09:25:00 -2.6 C 3.88 g/m*3 -2.6 C 1.6 km/h
115 11-01-2021 09:30:00 -2.6 C 3.88 g/m*3 -2.6 C 0 km/h
116 11-01-2021 09:35:00 -2.5 C 3.91 g/m*3 -2.5 C 1.6 km/h
117 11-01-2021 09:40:00 -2.4 C 3.93 g/m*3 -2.4 C 0 km/h
118 11-01-2021 09:45:00 -2.3 C 3.96 g/m*3 -2.3 C 0 km/h
119 11-01-2021 09:50:00 -2.2 C 3.99 g/m*3 -2.2 C 0 km/h
120 11-01-2021 09:55:00 -2.2 C 3.99 g/m*3 -2.2 C 0 km/h
121 11-01-2021 10:00:00 -2.1 C 3.98 g/m*3 -2.1 C 0 km/h
122 11-01-2021 10:05:00 -1.9 C 4.03 g/m*3 -1.9 C 0 km/h
123 11-01-2021 10:10:00 -1.8 C 4.1 g/m*3 -4.26 C 6.4 km/h
124 11-01-2021 10:15:00 -1.6 C 4.16 g/m*3 -4.03 C 6.4 km/h
125 11-01-2021 10:20:00 -1.5 C 4.15 g/m*3 -1.5 C 4.8 km/h
Sensor: Nr:Datum:Temp:Abs-Feuchte:Windchill:Wind:
Aussen-T/F 126 11-01-2021 10:25:00 -1.3 C 4.21 g/m*3 -1.3 C 3.2 km/h
127 11-01-2021 10:30:00 -1.3 C 4.21 g/m*3 -3.68 C 6.4 km/h
128 11-01-2021 10:35:00 -1.2 C 4.19 g/m*3 -3.57 C 6.4 km/h
129 11-01-2021 10:40:00 -1 C 4.25 g/m*3 -3.34 C 6.4 km/h
130 11-01-2021 10:45:00 -0.8 C 4.31 g/m*3 -0.8 C 4.8 km/h
131 11-01-2021 10:50:00 -0.7 C 4.29 g/m*3 -4.07 C 9.7 km/h
132 11-01-2021 10:55:00 -0.5 C 4.31 g/m*3 -3.83 C 9.7 km/h
133 11-01-2021 11:00:00 -0.3 C 4.37 g/m*3 -2.53 C 6.4 km/h
134 11-01-2021 11:05:00 -0.2 C 4.35 g/m*3 -3 C 8.1 km/h
135 11-01-2021 11:10:00 -0.1 C 4.38 g/m*3 -2.3 C 6.4 km/h
136 11-01-2021 11:15:00 0 C 4.36 g/m*3 -2.18 C 6.4 km/h
137 11-01-2021 11:20:00 0.1 C 4.34 g/m*3 -2.65 C 8.1 km/h
138 11-01-2021 11:25:00 0.1 C 4.34 g/m*3 -2.07 C 6.4 km/h
139 11-01-2021 11:30:00 0.1 C 4.29 g/m*3 -2.07 C 6.4 km/h
140 11-01-2021 11:35:00 0.2 C 4.32 g/m*3 0.2 C 4.8 km/h
141 11-01-2021 11:40:00 0.2 C 4.32 g/m*3 -3.4 C 11.3 km/h
142 11-01-2021 11:45:00 0.2 C 4.27 g/m*3 -3.4 C 11.3 km/h
143 11-01-2021 11:50:00 0.3 C 4.25 g/m*3 -2.88 C 9.7 km/h
144 11-01-2021 11:55:00 0.4 C 4.28 g/m*3 -3.16 C 11.3 km/h
145 11-01-2021 12:00:00 0.4 C 4.28 g/m*3 -1.72 C 6.4 km/h
146 11-01-2021 12:05:00 0.6 C 4.34 g/m*3 -3.27 C 12.9 km/h
147 11-01-2021 12:10:00 0.6 C 4.29 g/m*3 -2.92 C 11.3 km/h
148 11-01-2021 12:15:00 0.7 C 4.32 g/m*3 -2.8 C 11.3 km/h
149 11-01-2021 12:20:00 0.8 C 4.35 g/m*3 -2.28 C 9.7 km/h
150 11-01-2021 12:25:00 1 C 4.36 g/m*3 -2.43 C 11.3 km/h
Sensor: Nr:Datum:Temp:Abs-Feuchte:Windchill:Wind:
Aussen-T/F 151 11-01-2021 12:30:00 1.1 C 4.39 g/m*3 -1.48 C 8.1 km/h
152 11-01-2021 12:35:00 1.2 C 4.31 g/m*3 -3.63 C 19.3 km/h
153 11-01-2021 12:40:00 1.3 C 4.4 g/m*3 -1.24 C 8.1 km/h
154 11-01-2021 12:45:00 1.4 C 4.37 g/m*3 -2.29 C 12.9 km/h
155 11-01-2021 12:50:00 1.5 C 4.4 g/m*3 -0.45 C 6.4 km/h
156 11-01-2021 12:55:00 1.6 C 4.38 g/m*3 -2.05 C 12.9 km/h
157 11-01-2021 13:00:00 1.6 C 4.38 g/m*3 -1.71 C 11.3 km/h
158 11-01-2021 13:05:00 1.6 C 4.38 g/m*3 -0.89 C 8.1 km/h
159 11-01-2021 13:10:00 1.6 C 4.38 g/m*3 -0.33 C 6.4 km/h
160 11-01-2021 13:15:00 1.7 C 4.41 g/m*3 -1.59 C 11.3 km/h
161 11-01-2021 13:20:00 1.7 C 4.41 g/m*3 -0.22 C 6.4 km/h
162 11-01-2021 13:25:00 1.8 C 4.44 g/m*3 -1.09 C 9.7 km/h
163 11-01-2021 13:30:00 1.9 C 4.47 g/m*3 -1.35 C 11.3 km/h
164 11-01-2021 13:35:00 1.9 C 4.47 g/m*3 -1.35 C 11.3 km/h
165 11-01-2021 13:40:00 1.9 C 4.42 g/m*3 -1.98 C 14.5 km/h
166 11-01-2021 13:45:00 2 C 4.45 g/m*3 -1.86 C 14.5 km/h
167 11-01-2021 13:50:00 2.1 C 4.48 g/m*3 -0.73 C 9.7 km/h
168 11-01-2021 13:55:00 2.1 C 4.48 g/m*3 -0.73 C 9.7 km/h
169 11-01-2021 14:00:00 2.2 C 4.51 g/m*3 -0.61 C 9.7 km/h
170 11-01-2021 14:05:00 2.2 C 4.51 g/m*3 -0.61 C 9.7 km/h
171 11-01-2021 14:10:00 2.2 C 4.51 g/m*3 0.36 C 6.4 km/h
172 11-01-2021 14:15:00 2.2 C 4.51 g/m*3 0.36 C 6.4 km/h
173 11-01-2021 14:20:00 2.3 C 4.54 g/m*3 -0.49 C 9.7 km/h
174 11-01-2021 14:25:00 2.3 C 4.59 g/m*3 -0.07 C 8.1 km/h
175 11-01-2021 14:30:00 2.3 C 4.59 g/m*3 -0.49 C 9.7 km/h
Sensor: Nr:Datum:Temp:Abs-Feuchte:Windchill:Wind:
Aussen-T/F 176 11-01-2021 14:35:00 2.3 C 4.54 g/m*3 -0.07 C 8.1 km/h
177 11-01-2021 14:40:00 2.3 C 4.54 g/m*3 2.3 C 4.8 km/h
178 11-01-2021 14:45:00 2.3 C 4.59 g/m*3 2.3 C 4.8 km/h
179 11-01-2021 14:50:00 2.3 C 4.59 g/m*3 2.3 C 4.8 km/h
180 11-01-2021 14:55:00 2.3 C 4.59 g/m*3 -0.07 C 8.1 km/h
181 11-01-2021 15:00:00 2.3 C 4.59 g/m*3 0.47 C 6.4 km/h
182 11-01-2021 15:05:00 2.3 C 4.59 g/m*3 2.3 C 4.8 km/h
183 11-01-2021 15:10:00 2.3 C 4.65 g/m*3 2.3 C 0 km/h
184 11-01-2021 15:15:00 2.4 C 4.68 g/m*3 2.4 C 0 km/h
185 11-01-2021 15:20:00 2.4 C 4.68 g/m*3 2.4 C 0 km/h
186 11-01-2021 15:25:00 2.4 C 4.68 g/m*3 -0.37 C 9.7 km/h
187 11-01-2021 15:30:00 2.4 C 4.68 g/m*3 2.4 C 4.8 km/h
188 11-01-2021 15:35:00 2.4 C 4.68 g/m*3 2.4 C 4.8 km/h
189 11-01-2021 15:40:00 2.4 C 4.68 g/m*3 2.4 C 1.6 km/h
190 11-01-2021 15:45:00 2.4 C 4.74 g/m*3 2.4 C 3.2 km/h
191 11-01-2021 15:50:00 2.4 C 4.74 g/m*3 0.59 C 6.4 km/h
192 11-01-2021 15:55:00 2.4 C 4.8 g/m*3 2.4 C 3.2 km/h
193 11-01-2021 16:00:00 2.5 C 4.83 g/m*3 2.5 C 0 km/h
194 11-01-2021 16:05:00 2.5 C 4.83 g/m*3 2.5 C 0 km/h
195 11-01-2021 16:10:00 2.4 C 4.8 g/m*3 2.4 C 0 km/h
196 11-01-2021 16:15:00 2.4 C 4.85 g/m*3 2.4 C 1.6 km/h
197 11-01-2021 16:20:00 2.4 C 4.85 g/m*3 2.4 C 0 km/h
198 11-01-2021 16:25:00 2.4 C 4.85 g/m*3 2.4 C 0 km/h
199 11-01-2021 16:30:00 2.3 C 4.88 g/m*3 2.3 C 1.6 km/h
200 11-01-2021 16:35:00 2.3 C 4.88 g/m*3 2.3 C 0 km/h
Sensor: Nr:Datum:Temp:Abs-Feuchte:Windchill:Wind:
Aussen-T/F 201 11-01-2021 16:40:00 2.3 C 4.88 g/m*3 2.3 C 1.6 km/h
202 11-01-2021 16:45:00 2.2 C 4.9 g/m*3 2.2 C 1.6 km/h
203 11-01-2021 16:50:00 2.2 C 4.9 g/m*3 2.2 C 0 km/h
204 11-01-2021 16:55:00 2.1 C 4.87 g/m*3 2.1 C 0 km/h
205 11-01-2021 17:00:00 2 C 4.83 g/m*3 2 C 3.2 km/h
206 11-01-2021 17:05:00 1.9 C 4.86 g/m*3 1.9 C 3.2 km/h
207 11-01-2021 17:10:00 1.9 C 4.86 g/m*3 1.9 C 0 km/h
208 11-01-2021 17:15:00 1.8 C 4.82 g/m*3 1.8 C 3.2 km/h
209 11-01-2021 17:20:00 1.8 C 4.82 g/m*3 1.8 C 3.2 km/h
210 11-01-2021 17:25:00 1.8 C 4.88 g/m*3 1.8 C 1.6 km/h
211 11-01-2021 17:30:00 1.8 C 4.88 g/m*3 1.8 C 3.2 km/h
212 11-01-2021 17:35:00 1.7 C 4.85 g/m*3 1.7 C 1.6 km/h
213 11-01-2021 17:40:00 1.7 C 4.85 g/m*3 1.7 C 0 km/h
214 11-01-2021 17:45:00 1.7 C 4.85 g/m*3 1.7 C 1.6 km/h
215 11-01-2021 17:50:00 1.7 C 4.85 g/m*3 1.7 C 3.2 km/h
216 11-01-2021 17:55:00 1.7 C 4.85 g/m*3 1.7 C 0 km/h
217 11-01-2021 18:00:00 1.6 C 4.81 g/m*3 1.6 C 0 km/h
218 11-01-2021 18:05:00 1.6 C 4.81 g/m*3 1.6 C 0 km/h
219 11-01-2021 18:10:00 1.6 C 4.81 g/m*3 1.6 C 4.8 km/h
220 11-01-2021 18:15:00 1.6 C 4.76 g/m*3 1.6 C 0 km/h
221 11-01-2021 18:20:00 1.7 C 4.79 g/m*3 1.7 C 1.6 km/h
222 11-01-2021 18:25:00 1.7 C 4.79 g/m*3 1.7 C 0 km/h
223 11-01-2021 18:30:00 1.7 C 4.85 g/m*3 1.7 C 1.6 km/h
224 11-01-2021 18:35:00 1.7 C 4.85 g/m*3 1.7 C 3.2 km/h
225 11-01-2021 18:40:00 1.7 C 4.85 g/m*3 1.7 C 3.2 km/h
Sensor: Nr:Datum:Temp:Abs-Feuchte:Windchill:Wind:
Aussen-T/F 226 11-01-2021 18:45:00 1.7 C 4.85 g/m*3 1.7 C 1.6 km/h
227 11-01-2021 18:50:00 1.7 C 4.85 g/m*3 -0.22 C 6.4 km/h
228 11-01-2021 18:55:00 1.7 C 4.85 g/m*3 1.7 C 0 km/h
229 11-01-2021 19:00:00 1.7 C 4.79 g/m*3 1.7 C 0 km/h
230 11-01-2021 19:05:00 1.7 C 4.79 g/m*3 1.7 C 0 km/h
231 11-01-2021 19:10:00 1.7 C 4.85 g/m*3 1.7 C 1.6 km/h
232 11-01-2021 19:15:00 1.7 C 4.79 g/m*3 1.7 C 3.2 km/h
233 11-01-2021 19:20:00 1.8 C 4.82 g/m*3 1.8 C 3.2 km/h
234 11-01-2021 19:25:00 1.8 C 4.82 g/m*3 -0.1 C 6.4 km/h
235 11-01-2021 19:30:00 1.8 C 4.82 g/m*3 1.8 C 4.8 km/h
236 11-01-2021 19:35:00 1.8 C 4.82 g/m*3 1.8 C 3.2 km/h
237 11-01-2021 19:40:00 1.8 C 4.82 g/m*3 1.8 C 1.6 km/h
238 11-01-2021 19:45:00 1.8 C 4.82 g/m*3 -0.65 C 8.1 km/h
239 11-01-2021 19:50:00 1.8 C 4.82 g/m*3 1.8 C 3.2 km/h
240 11-01-2021 19:55:00 1.8 C 4.82 g/m*3 1.8 C 4.8 km/h
241 11-01-2021 20:00:00 1.8 C 4.82 g/m*3 -0.1 C 6.4 km/h
242 11-01-2021 20:05:00 1.9 C 4.86 g/m*3 -0.54 C 8.1 km/h
243 11-01-2021 20:10:00 1.9 C 4.86 g/m*3 1.9 C 0 km/h
244 11-01-2021 20:15:00 1.9 C 4.86 g/m*3 1.9 C 4.8 km/h
245 11-01-2021 20:20:00 1.9 C 4.86 g/m*3 0.01 C 6.4 km/h
246 11-01-2021 20:25:00 2 C 4.83 g/m*3 2 C 1.6 km/h
247 11-01-2021 20:30:00 2 C 4.83 g/m*3 2 C 1.6 km/h
248 11-01-2021 20:35:00 2.1 C 4.92 g/m*3 0.24 C 6.4 km/h
249 11-01-2021 20:40:00 2.1 C 4.92 g/m*3 2.1 C 1.6 km/h
250 11-01-2021 20:45:00 2.1 C 4.92 g/m*3 2.1 C 3.2 km/h
Sensor: Nr:Datum:Temp:Abs-Feuchte:Windchill:Wind:
Aussen-T/F 251 11-01-2021 20:50:00 2.1 C 4.92 g/m*3 2.1 C 3.2 km/h
252 11-01-2021 20:55:00 2.2 C 4.96 g/m*3 0.36 C 6.4 km/h
253 11-01-2021 21:00:00 2.2 C 4.9 g/m*3 2.2 C 3.2 km/h
254 11-01-2021 21:05:00 2.2 C 4.9 g/m*3 0.36 C 6.4 km/h
255 11-01-2021 21:10:00 2.2 C 4.9 g/m*3 0.36 C 6.4 km/h
256 11-01-2021 21:15:00 2.3 C 4.93 g/m*3 -0.07 C 8.1 km/h
257 11-01-2021 21:20:00 2.3 C 4.93 g/m*3 2.3 C 4.8 km/h
258 11-01-2021 21:25:00 2.3 C 4.93 g/m*3 -0.07 C 8.1 km/h
259 11-01-2021 21:30:00 2.4 C 4.91 g/m*3 0.05 C 8.1 km/h
260 11-01-2021 21:35:00 2.4 C 4.91 g/m*3 2.4 C 1.6 km/h
261 11-01-2021 21:40:00 2.4 C 4.91 g/m*3 2.4 C 1.6 km/h
262 11-01-2021 21:45:00 2.4 C 4.97 g/m*3 0.59 C 6.4 km/h
263 11-01-2021 21:50:00 2.4 C 4.97 g/m*3 2.4 C 4.8 km/h
264 11-01-2021 21:55:00 2.4 C 4.97 g/m*3 2.4 C 4.8 km/h
265 11-01-2021 22:00:00 2.4 C 4.97 g/m*3 2.4 C 1.6 km/h
266 11-01-2021 22:05:00 2.4 C 4.97 g/m*3 2.4 C 3.2 km/h
267 11-01-2021 22:10:00 2.4 C 4.97 g/m*3 2.4 C 3.2 km/h
268 11-01-2021 22:15:00 2.4 C 4.97 g/m*3 2.4 C 0 km/h
269 11-01-2021 22:20:00 2.4 C 4.97 g/m*3 2.4 C 3.2 km/h
270 11-01-2021 22:25:00 2.4 C 4.97 g/m*3 2.4 C 3.2 km/h
271 11-01-2021 22:30:00 2.4 C 5.02 g/m*3 0.59 C 6.4 km/h
272 11-01-2021 22:35:00 2.5 C 5.06 g/m*3 2.5 C 4.8 km/h
273 11-01-2021 22:40:00 2.6 C 5.03 g/m*3 0.29 C 8.1 km/h
274 11-01-2021 22:45:00 2.6 C 5.03 g/m*3 -0.83 C 12.9 km/h
275 11-01-2021 22:50:00 2.7 C 5.07 g/m*3 -1 C 14.5 km/h
Sensor: Nr:Datum:Temp:Abs-Feuchte:Windchill:Wind:
Aussen-T/F 276 11-01-2021 22:55:00 2.7 C 5.07 g/m*3 -1 C 14.5 km/h
277 11-01-2021 23:00:00 2.8 C 5.1 g/m*3 -1.61 C 19.3 km/h
278 11-01-2021 23:05:00 2.8 C 5.1 g/m*3 -0.59 C 12.9 km/h
279 11-01-2021 23:10:00 2.8 C 5.1 g/m*3 -0.26 C 11.3 km/h
280 11-01-2021 23:15:00 2.8 C 5.1 g/m*3 0.1 C 9.7 km/h
281 11-01-2021 23:20:00 2.8 C 5.1 g/m*3 0.1 C 9.7 km/h
282 11-01-2021 23:25:00 2.8 C 5.1 g/m*3 0.52 C 8.1 km/h
283 11-01-2021 23:30:00 2.8 C 5.1 g/m*3 0.1 C 9.7 km/h
284 11-01-2021 23:35:00 2.8 C 5.1 g/m*3 2.8 C 4.8 km/h
285 11-01-2021 23:40:00 2.8 C 5.1 g/m*3 0.1 C 9.7 km/h
286 11-01-2021 23:45:00 2.8 C 5.1 g/m*3 0.1 C 9.7 km/h
287 11-01-2021 23:50:00 2.8 C 5.1 g/m*3 2.8 C 4.8 km/h
288 11-01-2021 23:55:00 2.8 C 5.16 g/m*3 0.52 C 8.1 km/h
289 12-01-2021 00:00:00 2.8 C 5.16 g/m*3 0.1 C 9.7 km/h
290 12-01-2021 00:05:00 2.8 C 5.16 g/m*3 2.8 C 3.2 km/h
291 12-01-2021 00:10:00 2.8 C 5.16 g/m*3 0.52 C 8.1 km/h
292 12-01-2021 00:15:00 2.8 C 5.16 g/m*3 -0.26 C 11.3 km/h
293 12-01-2021 00:20:00 2.9 C 5.2 g/m*3 -0.14 C 11.3 km/h
294 12-01-2021 00:25:00 2.9 C 5.2 g/m*3 -0.14 C 11.3 km/h
295 12-01-2021 00:30:00 3.1 C 5.27 g/m*3 -0.22 C 12.9 km/h
296 12-01-2021 00:35:00 3.1 C 5.27 g/m*3 0.1 C 11.3 km/h
297 12-01-2021 00:40:00 3.2 C 5.3 g/m*3 -0.89 C 17.7 km/h
298 12-01-2021 00:45:00 3.2 C 5.3 g/m*3 -0.39 C 14.5 km/h
299 12-01-2021 00:50:00 3.2 C 5.3 g/m*3 -0.89 C 17.7 km/h
300 12-01-2021 00:55:00 3.2 C 5.36 g/m*3 -1.11 C 19.3 km/h
Sensor: Nr:Datum:Temp:Abs-Feuchte:Windchill:Wind:
Aussen-T/F 301 12-01-2021 01:00:00 3.2 C 5.3 g/m*3 -1.11 C 19.3 km/h
302 12-01-2021 01:05:00 3.2 C 5.36 g/m*3 -1.11 C 19.3 km/h
303 12-01-2021 01:10:00 3.2 C 5.36 g/m*3 -0.1 C 12.9 km/h
304 12-01-2021 01:15:00 3.2 C 5.36 g/m*3 -0.89 C 17.7 km/h
305 12-01-2021 01:20:00 3.2 C 5.36 g/m*3 -0.39 C 14.5 km/h
306 12-01-2021 01:25:00 3.2 C 5.36 g/m*3 -1.51 C 22.5 km/h
307 12-01-2021 01:30:00 3.3 C 5.4 g/m*3 -1.39 C 22.5 km/h
308 12-01-2021 01:35:00 3.3 C 5.4 g/m*3 -0.52 C 16.1 km/h
309 12-01-2021 01:40:00 3.3 C 5.4 g/m*3 -0.52 C 16.1 km/h
310 12-01-2021 01:45:00 3.3 C 5.4 g/m*3 0.02 C 12.9 km/h
311 12-01-2021 01:50:00 3.4 C 5.44 g/m*3 -0.4 C 16.1 km/h
312 12-01-2021 01:55:00 3.4 C 5.44 g/m*3 0.82 C 9.7 km/h
313 12-01-2021 02:00:00 3.3 C 5.4 g/m*3 0.34 C 11.3 km/h
314 12-01-2021 02:05:00 3.3 C 5.4 g/m*3 -0.26 C 14.5 km/h
315 12-01-2021 02:10:00 3.3 C 5.4 g/m*3 -0.26 C 14.5 km/h
316 12-01-2021 02:15:00 3.3 C 5.4 g/m*3 0.02 C 12.9 km/h
317 12-01-2021 02:20:00 3.3 C 5.4 g/m*3 0.02 C 12.9 km/h
318 12-01-2021 02:25:00 3.3 C 5.4 g/m*3 -0.26 C 14.5 km/h
319 12-01-2021 02:30:00 3.3 C 5.4 g/m*3 -0.26 C 14.5 km/h
320 12-01-2021 02:35:00 3.4 C 5.44 g/m*3 -0.4 C 16.1 km/h
321 12-01-2021 02:40:00 3.4 C 5.44 g/m*3 -0.4 C 16.1 km/h
322 12-01-2021 02:45:00 3.4 C 5.5 g/m*3 0.82 C 9.7 km/h
323 12-01-2021 02:50:00 3.4 C 5.5 g/m*3 -0.86 C 19.3 km/h
324 12-01-2021 02:55:00 3.4 C 5.44 g/m*3 -0.86 C 19.3 km/h
325 12-01-2021 03:00:00 3.4 C 5.5 g/m*3 -0.4 C 16.1 km/h
Sensor: Nr:Datum:Temp:Abs-Feuchte:Windchill:Wind:
Aussen-T/F 326 12-01-2021 03:05:00 3.4 C 5.5 g/m*3 0.46 C 11.3 km/h
327 12-01-2021 03:10:00 3.4 C 5.5 g/m*3 1.23 C 8.1 km/h
328 12-01-2021 03:15:00 3.4 C 5.5 g/m*3 -0.64 C 17.7 km/h
329 12-01-2021 03:20:00 3.5 C 5.53 g/m*3 -0.51 C 17.7 km/h
330 12-01-2021 03:25:00 3.5 C 5.53 g/m*3 -0.02 C 14.5 km/h
331 12-01-2021 03:30:00 3.6 C 5.57 g/m*3 -0.61 C 19.3 km/h
332 12-01-2021 03:35:00 3.6 C 5.57 g/m*3 -0.15 C 16.1 km/h
333 12-01-2021 03:40:00 3.6 C 5.57 g/m*3 0.11 C 14.5 km/h
334 12-01-2021 03:45:00 3.6 C 5.57 g/m*3 0.39 C 12.9 km/h
335 12-01-2021 03:50:00 3.6 C 5.57 g/m*3 0.11 C 14.5 km/h
336 12-01-2021 03:55:00 3.6 C 5.57 g/m*3 0.39 C 12.9 km/h
337 12-01-2021 04:00:00 3.6 C 5.57 g/m*3 -0.15 C 16.1 km/h
338 12-01-2021 04:05:00 3.6 C 5.57 g/m*3 0.11 C 14.5 km/h
339 12-01-2021 04:10:00 3.7 C 5.61 g/m*3 0.23 C 14.5 km/h
340 12-01-2021 04:15:00 3.7 C 5.61 g/m*3 -0.03 C 16.1 km/h
341 12-01-2021 04:20:00 3.7 C 5.61 g/m*3 -0.26 C 17.7 km/h
342 12-01-2021 04:25:00 3.7 C 5.61 g/m*3 0.23 C 14.5 km/h
343 12-01-2021 04:30:00 3.7 C 5.55 g/m*3 0.23 C 14.5 km/h
344 12-01-2021 04:35:00 3.8 C 5.65 g/m*3 -0.56 C 20.9 km/h
345 12-01-2021 04:40:00 3.8 C 5.58 g/m*3 -0.14 C 17.7 km/h
346 12-01-2021 04:45:00 3.8 C 5.58 g/m*3 -1.57 C 30.6 km/h
347 12-01-2021 04:50:00 3.8 C 5.58 g/m*3 -0.56 C 20.9 km/h
348 12-01-2021 04:55:00 3.8 C 5.58 g/m*3 -1.97 C 35.4 km/h
349 12-01-2021 05:00:00 3.8 C 5.58 g/m*3 -0.14 C 17.7 km/h
350 12-01-2021 05:05:00 3.8 C 5.58 g/m*3 -0.56 C 20.9 km/h
Sensor: Nr:Datum:Temp:Abs-Feuchte:Windchill:Wind:
Aussen-T/F 351 12-01-2021 05:10:00 3.8 C 5.58 g/m*3 -0.56 C 20.9 km/h
352 12-01-2021 05:15:00 3.9 C 5.62 g/m*3 -1.44 C 30.6 km/h
353 12-01-2021 05:20:00 3.9 C 5.62 g/m*3 -1.58 C 32.2 km/h
354 12-01-2021 05:25:00 3.9 C 5.62 g/m*3 -1.44 C 30.6 km/h
355 12-01-2021 05:30:00 3.9 C 5.62 g/m*3 -0.43 C 20.9 km/h
356 12-01-2021 05:35:00 3.9 C 5.62 g/m*3 0.47 C 14.5 km/h
357 12-01-2021 05:40:00 3.9 C 5.62 g/m*3 -0.8 C 24.1 km/h
358 12-01-2021 05:45:00 3.9 C 5.68 g/m*3 -0.23 C 19.3 km/h
359 12-01-2021 05:50:00 3.9 C 5.68 g/m*3 -0.8 C 24.1 km/h
360 12-01-2021 05:55:00 3.9 C 5.68 g/m*3 -1.14 C 27.4 km/h
361 12-01-2021 06:00:00 3.9 C 5.68 g/m*3 -0.97 C 25.7 km/h
362 12-01-2021 06:05:00 3.9 C 5.62 g/m*3 -0.01 C 17.7 km/h
363 12-01-2021 06:10:00 3.9 C 5.62 g/m*3 -0.43 C 20.9 km/h
364 12-01-2021 06:15:00 3.9 C 5.62 g/m*3 -0.97 C 25.7 km/h
365 12-01-2021 06:20:00 3.9 C 5.68 g/m*3 -0.62 C 22.5 km/h
366 12-01-2021 06:25:00 3.9 C 5.68 g/m*3 -1.58 C 32.2 km/h
367 12-01-2021 06:30:00 3.9 C 5.68 g/m*3 -0.43 C 20.9 km/h
368 12-01-2021 06:35:00 3.8 C 5.65 g/m*3 -0.56 C 20.9 km/h
369 12-01-2021 06:40:00 3.8 C 5.65 g/m*3 -0.93 C 24.1 km/h
370 12-01-2021 06:45:00 3.8 C 5.71 g/m*3 -0.56 C 20.9 km/h
371 12-01-2021 06:50:00 3.8 C 5.71 g/m*3 -1.1 C 25.7 km/h
372 12-01-2021 06:55:00 3.8 C 5.71 g/m*3 -0.36 C 19.3 km/h
373 12-01-2021 07:00:00 3.7 C 5.67 g/m*3 -0.88 C 22.5 km/h
374 12-01-2021 07:05:00 3.8 C 5.71 g/m*3 -0.56 C 20.9 km/h
375 12-01-2021 07:10:00 3.8 C 5.71 g/m*3 -0.93 C 24.1 km/h
Sensor: Nr:Datum:Temp:Abs-Feuchte:Windchill:Wind:
Aussen-T/F 376 12-01-2021 07:15:00 3.8 C 5.65 g/m*3 -1.1 C 25.7 km/h
377 12-01-2021 07:20:00 3.8 C 5.65 g/m*3 -0.56 C 20.9 km/h
378 12-01-2021 07:25:00 3.8 C 5.65 g/m*3 -1.27 C 27.4 km/h
379 12-01-2021 07:30:00 3.8 C 5.65 g/m*3 -0.56 C 20.9 km/h
380 12-01-2021 07:35:00 3.8 C 5.65 g/m*3 -0.56 C 20.9 km/h
381 12-01-2021 07:40:00 3.8 C 5.65 g/m*3 -0.93 C 24.1 km/h
382 12-01-2021 07:45:00 3.8 C 5.65 g/m*3 -0.36 C 19.3 km/h
383 12-01-2021 07:50:00 3.8 C 5.65 g/m*3 -0.36 C 19.3 km/h
384 12-01-2021 07:55:00 3.8 C 5.65 g/m*3 -1.1 C 25.7 km/h
385 12-01-2021 08:00:00 3.9 C 5.68 g/m*3 -0.8 C 24.1 km/h
386 12-01-2021 08:05:00 3.9 C 5.68 g/m*3 -0.43 C 20.9 km/h
387 12-01-2021 08:10:00 3.9 C 5.68 g/m*3 -1.84 C 35.4 km/h
388 12-01-2021 08:15:00 3.9 C 5.62 g/m*3 -0.8 C 24.1 km/h
389 12-01-2021 08:20:00 3.9 C 5.62 g/m*3 -0.62 C 22.5 km/h
390 12-01-2021 08:25:00 4 C 5.66 g/m*3 -1.01 C 27.4 km/h
391 12-01-2021 08:30:00 4 C 5.66 g/m*3 -0.67 C 24.1 km/h
392 12-01-2021 08:35:00 4 C 5.66 g/m*3 -0.84 C 25.7 km/h
393 12-01-2021 08:40:00 4 C 5.66 g/m*3 -0.5 C 22.5 km/h
394 12-01-2021 08:45:00 4 C 5.66 g/m*3 -1.16 C 29 km/h
395 12-01-2021 08:50:00 4 C 5.66 g/m*3 -1.16 C 29 km/h
396 12-01-2021 08:55:00 4 C 5.66 g/m*3 -0.84 C 25.7 km/h
397 12-01-2021 09:00:00 4.1 C 5.7 g/m*3 -1.18 C 30.6 km/h
398 12-01-2021 09:05:00 4.1 C 5.7 g/m*3 -0.88 C 27.4 km/h
399 12-01-2021 09:10:00 4.1 C 5.7 g/m*3 -0.71 C 25.7 km/h
400 12-01-2021 09:15:00 4.1 C 5.7 g/m*3 -0.37 C 22.5 km/h
Sensor: Nr:Datum:Temp:Abs-Feuchte:Windchill:Wind:
Aussen-T/F 401 12-01-2021 09:20:00 4.1 C 5.7 g/m*3 -1.03 C 29 km/h
402 12-01-2021 09:25:00 4.1 C 5.7 g/m*3 -1.03 C 29 km/h
403 12-01-2021 09:30:00 4.1 C 5.7 g/m*3 -1.03 C 29 km/h
404 12-01-2021 09:35:00 4.2 C 5.67 g/m*3 -0.42 C 24.1 km/h
405 12-01-2021 09:40:00 4.2 C 5.67 g/m*3 -0.42 C 24.1 km/h
406 12-01-2021 09:45:00 4.2 C 5.67 g/m*3 -0.9 C 29 km/h
407 12-01-2021 09:50:00 4.2 C 5.67 g/m*3 -0.75 C 27.4 km/h
408 12-01-2021 09:55:00 4.2 C 5.67 g/m*3 -0.24 C 22.5 km/h
409 12-01-2021 10:00:00 4.3 C 5.77 g/m*3 -0.62 C 27.4 km/h
410 12-01-2021 10:05:00 4.3 C 5.77 g/m*3 -0.11 C 22.5 km/h
411 12-01-2021 10:10:00 4.3 C 5.71 g/m*3 -0.11 C 22.5 km/h
412 12-01-2021 10:15:00 4.4 C 5.75 g/m*3 -1.41 C 38.6 km/h
413 12-01-2021 10:20:00 4.4 C 5.75 g/m*3 -0.49 C 27.4 km/h
414 12-01-2021 10:25:00 4.4 C 5.75 g/m*3 0.4 C 19.3 km/h
415 12-01-2021 10:30:00 4.4 C 5.81 g/m*3 0.4 C 19.3 km/h
416 12-01-2021 10:35:00 4.4 C 5.81 g/m*3 0.4 C 19.3 km/h
417 12-01-2021 10:40:00 4.5 C 5.85 g/m*3 0.14 C 22.5 km/h
418 12-01-2021 10:45:00 4.5 C 5.85 g/m*3 -0.03 C 24.1 km/h
419 12-01-2021 10:50:00 4.5 C 5.85 g/m*3 -0.03 C 24.1 km/h
420 12-01-2021 10:55:00 4.6 C 5.89 g/m*3 -0.38 C 29 km/h
421 12-01-2021 11:00:00 4.6 C 5.89 g/m*3 0.1 C 24.1 km/h
422 12-01-2021 11:05:00 4.6 C 5.89 g/m*3 -0.07 C 25.7 km/h
423 12-01-2021 11:10:00 4.7 C 5.93 g/m*3 0.22 C 24.1 km/h
424 12-01-2021 11:15:00 4.7 C 5.93 g/m*3 0.99 C 17.7 km/h
425 12-01-2021 11:20:00 4.7 C 5.93 g/m*3 0.4 C 22.5 km/h
Sensor: Nr:Datum:Temp:Abs-Feuchte:Windchill:Wind:
Aussen-T/F 426 12-01-2021 11:25:00 4.7 C 5.93 g/m*3 0.4 C 22.5 km/h
427 12-01-2021 11:30:00 4.7 C 6 g/m*3 0.99 C 17.7 km/h
428 12-01-2021 11:35:00 4.7 C 6 g/m*3 0.78 C 19.3 km/h
429 12-01-2021 11:40:00 4.7 C 6 g/m*3 1.21 C 16.1 km/h
430 12-01-2021 11:45:00 4.7 C 6 g/m*3 0.99 C 17.7 km/h
431 12-01-2021 11:50:00 4.7 C 6 g/m*3 1.21 C 16.1 km/h
432 12-01-2021 11:55:00 4.7 C 6.06 g/m*3 1.46 C 14.5 km/h
433 12-01-2021 12:00:00 4.8 C 6.1 g/m*3 0.52 C 22.5 km/h
434 12-01-2021 12:05:00 4.8 C 6.1 g/m*3 0.71 C 20.9 km/h
435 12-01-2021 12:10:00 4.9 C 6.14 g/m*3 1.7 C 14.5 km/h
436 12-01-2021 12:15:00 4.9 C 6.08 g/m*3 1.03 C 19.3 km/h
437 12-01-2021 12:20:00 5 C 6.12 g/m*3 1.58 C 16.1 km/h
438 12-01-2021 12:25:00 5.1 C 6.16 g/m*3 1.49 C 17.7 km/h
439 12-01-2021 12:30:00 5.2 C 6.2 g/m*3 1.61 C 17.7 km/h
440 12-01-2021 12:35:00 5.2 C 6.2 g/m*3 2.07 C 14.5 km/h
441 12-01-2021 12:40:00 5.2 C 6.2 g/m*3 1.4 C 19.3 km/h
442 12-01-2021 12:45:00 5.1 C 6.16 g/m*3 0.74 C 24.1 km/h
443 12-01-2021 12:50:00 5.2 C 6.2 g/m*3 2.34 C 12.9 km/h
444 12-01-2021 12:55:00 5.2 C 6.2 g/m*3 1.4 C 19.3 km/h
445 12-01-2021 13:00:00 5.2 C 6.2 g/m*3 1.4 C 19.3 km/h
446 12-01-2021 13:05:00 5.2 C 6.2 g/m*3 1.21 C 20.9 km/h
447 12-01-2021 13:10:00 5.3 C 6.24 g/m*3 1.53 C 19.3 km/h
448 12-01-2021 13:15:00 5.3 C 6.24 g/m*3 1.74 C 17.7 km/h
449 12-01-2021 13:20:00 5.3 C 6.31 g/m*3 0.99 C 24.1 km/h
450 12-01-2021 13:25:00 5.3 C 6.31 g/m*3 2.2 C 14.5 km/h
Sensor: Nr:Datum:Temp:Abs-Feuchte:Windchill:Wind:
Aussen-T/F 451 12-01-2021 13:30:00 5.3 C 6.31 g/m*3 1.74 C 17.7 km/h
452 12-01-2021 13:35:00 5.2 C 6.33 g/m*3 1.83 C 16.1 km/h
453 12-01-2021 13:40:00 5.2 C 6.33 g/m*3 2.34 C 12.9 km/h
454 12-01-2021 13:45:00 5.2 C 6.4 g/m*3 2.34 C 12.9 km/h
455 12-01-2021 13:50:00 5.1 C 6.36 g/m*3 2.51 C 11.3 km/h
456 12-01-2021 13:55:00 5.1 C 6.36 g/m*3 2.84 C 9.7 km/h
457 12-01-2021 14:00:00 5.1 C 6.43 g/m*3 2.22 C 12.9 km/h
458 12-01-2021 14:05:00 5.1 C 6.43 g/m*3 2.51 C 11.3 km/h
459 12-01-2021 14:10:00 5.2 C 6.47 g/m*3 2.34 C 12.9 km/h
460 12-01-2021 14:15:00 5.2 C 6.47 g/m*3 2.07 C 14.5 km/h
461 12-01-2021 14:20:00 5.2 C 6.47 g/m*3 2.96 C 9.7 km/h
462 12-01-2021 14:25:00 5.2 C 6.47 g/m*3 2.63 C 11.3 km/h
463 12-01-2021 14:30:00 5.2 C 6.47 g/m*3 2.63 C 11.3 km/h
464 12-01-2021 14:35:00 5.2 C 6.47 g/m*3 2.63 C 11.3 km/h
465 12-01-2021 14:40:00 5.2 C 6.47 g/m*3 3.82 C 6.4 km/h
466 12-01-2021 14:45:00 5.2 C 6.47 g/m*3 2.96 C 9.7 km/h
467 12-01-2021 14:50:00 5.2 C 6.47 g/m*3 2.96 C 9.7 km/h
468 12-01-2021 14:55:00 5.2 C 6.47 g/m*3 3.82 C 6.4 km/h
469 12-01-2021 15:00:00 5.2 C 6.54 g/m*3 2.96 C 9.7 km/h
470 12-01-2021 15:05:00 5.3 C 6.58 g/m*3 3.08 C 9.7 km/h
471 12-01-2021 15:10:00 5.3 C 6.58 g/m*3 2.2 C 14.5 km/h
472 12-01-2021 15:15:00 5.3 C 6.58 g/m*3 3.94 C 6.4 km/h
473 12-01-2021 15:20:00 5.3 C 6.58 g/m*3 2.46 C 12.9 km/h
474 12-01-2021 15:25:00 5.4 C 6.63 g/m*3 2.58 C 12.9 km/h
475 12-01-2021 15:30:00 5.4 C 6.63 g/m*3 5.4 C 3.2 km/h
Sensor: Nr:Datum:Temp:Abs-Feuchte:Windchill:Wind:
Aussen-T/F 476 12-01-2021 15:35:00 5.4 C 6.63 g/m*3 2.87 C 11.3 km/h
477 12-01-2021 15:40:00 5.5 C 6.67 g/m*3 2.2 C 16.1 km/h
478 12-01-2021 15:45:00 5.6 C 6.72 g/m*3 1.91 C 19.3 km/h
479 12-01-2021 15:50:00 5.6 C 6.72 g/m*3 2.83 C 12.9 km/h
480 12-01-2021 15:55:00 5.6 C 6.72 g/m*3 3.81 C 8.1 km/h
481 12-01-2021 16:00:00 5.7 C 6.76 g/m*3 3.23 C 11.3 km/h
482 12-01-2021 16:05:00 5.7 C 6.76 g/m*3 2.69 C 14.5 km/h
483 12-01-2021 16:10:00 5.7 C 6.69 g/m*3 3.93 C 8.1 km/h
484 12-01-2021 16:15:00 5.6 C 6.65 g/m*3 4.29 C 6.4 km/h
485 12-01-2021 16:20:00 5.6 C 6.65 g/m*3 4.29 C 6.4 km/h
486 12-01-2021 16:25:00 5.5 C 6.6 g/m*3 3.7 C 8.1 km/h
487 12-01-2021 16:30:00 5.4 C 6.56 g/m*3 3.58 C 8.1 km/h
488 12-01-2021 16:35:00 5.4 C 6.56 g/m*3 3.2 C 9.7 km/h
489 12-01-2021 16:40:00 5.4 C 6.56 g/m*3 2.32 C 14.5 km/h
490 12-01-2021 16:45:00 5.3 C 6.52 g/m*3 3.46 C 8.1 km/h
491 12-01-2021 16:50:00 5.1 C 6.36 g/m*3 2.84 C 9.7 km/h
492 12-01-2021 16:55:00 5 C 6.32 g/m*3 5 C 3.2 km/h
493 12-01-2021 17:00:00 4.9 C 6.28 g/m*3 1.97 C 12.9 km/h
494 12-01-2021 17:05:00 4.8 C 6.24 g/m*3 3.36 C 6.4 km/h
495 12-01-2021 17:10:00 4.8 C 6.24 g/m*3 3.36 C 6.4 km/h
496 12-01-2021 17:15:00 4.8 C 6.24 g/m*3 2.87 C 8.1 km/h
497 12-01-2021 17:20:00 4.7 C 6.19 g/m*3 2.37 C 9.7 km/h
498 12-01-2021 17:25:00 4.7 C 6.19 g/m*3 3.25 C 6.4 km/h
499 12-01-2021 17:30:00 4.6 C 6.15 g/m*3 1.91 C 11.3 km/h
500 12-01-2021 17:35:00 4.5 C 6.05 g/m*3 3.02 C 6.4 km/h
Sensor: Nr:Datum:Temp:Abs-Feuchte:Windchill:Wind:
Aussen-T/F 501 12-01-2021 17:40:00 4.3 C 5.97 g/m*3 2.29 C 8.1 km/h
502 12-01-2021 17:45:00 4.3 C 5.97 g/m*3 4.3 C 1.6 km/h
503 12-01-2021 17:50:00 4.2 C 5.99 g/m*3 4.2 C 3.2 km/h
504 12-01-2021 17:55:00 4.2 C 5.99 g/m*3 4.2 C 4.8 km/h
505 12-01-2021 18:00:00 4.1 C 5.95 g/m*3 4.1 C 3.2 km/h
506 12-01-2021 18:05:00 3.9 C 5.87 g/m*3 3.9 C 1.6 km/h
507 12-01-2021 18:10:00 3.7 C 5.8 g/m*3 3.7 C 3.2 km/h
508 12-01-2021 18:15:00 3.4 C 5.68 g/m*3 3.4 C 4.8 km/h
509 12-01-2021 18:20:00 3.2 C 5.6 g/m*3 3.2 C 3.2 km/h
510 12-01-2021 18:25:00 3.1 C 5.57 g/m*3 3.1 C 3.2 km/h
511 12-01-2021 18:30:00 2.9 C 5.49 g/m*3 1.17 C 6.4 km/h
512 12-01-2021 18:35:00 3 C 5.59 g/m*3 0.76 C 8.1 km/h
513 12-01-2021 18:40:00 3.1 C 5.63 g/m*3 -0.22 C 12.9 km/h
514 12-01-2021 18:45:00 3.1 C 5.63 g/m*3 3.1 C 3.2 km/h
515 12-01-2021 18:50:00 2.9 C 5.55 g/m*3 2.9 C 4.8 km/h
516 12-01-2021 18:55:00 2.7 C 5.42 g/m*3 2.7 C 4.8 km/h
517 12-01-2021 19:00:00 2.6 C 5.44 g/m*3 2.6 C 4.8 km/h
518 12-01-2021 19:05:00 2.4 C 5.31 g/m*3 2.4 C 4.8 km/h
519 12-01-2021 19:10:00 2.3 C 5.33 g/m*3 -0.49 C 9.7 km/h
520 12-01-2021 19:15:00 2.3 C 5.33 g/m*3 2.3 C 3.2 km/h
521 12-01-2021 19:20:00 2.3 C 5.33 g/m*3 0.47 C 6.4 km/h
522 12-01-2021 19:25:00 2.4 C 5.37 g/m*3 2.4 C 0 km/h
523 12-01-2021 19:30:00 2.4 C 5.37 g/m*3 0.59 C 6.4 km/h
524 12-01-2021 19:35:00 2.5 C 5.46 g/m*3 2.5 C 4.8 km/h
525 12-01-2021 19:40:00 2.5 C 5.46 g/m*3 2.5 C 4.8 km/h
Sensor: Nr:Datum:Temp:Abs-Feuchte:Windchill:Wind:
Aussen-T/F 526 12-01-2021 19:45:00 2.6 C 5.5 g/m*3 2.6 C 3.2 km/h
527 12-01-2021 19:50:00 2.6 C 5.5 g/m*3 2.6 C 4.8 km/h
528 12-01-2021 19:55:00 2.6 C 5.5 g/m*3 2.6 C 4.8 km/h
529 12-01-2021 20:00:00 2.6 C 5.5 g/m*3 2.6 C 4.8 km/h
530 12-01-2021 20:05:00 2.6 C 5.5 g/m*3 0.82 C 6.4 km/h
531 12-01-2021 20:10:00 2.7 C 5.48 g/m*3 -0.38 C 11.3 km/h
532 12-01-2021 20:15:00 2.7 C 5.48 g/m*3 2.7 C 4.8 km/h
533 12-01-2021 20:20:00 2.8 C 5.51 g/m*3 2.8 C 4.8 km/h
534 12-01-2021 20:25:00 2.8 C 5.46 g/m*3 2.8 C 0 km/h
535 12-01-2021 20:30:00 2.8 C 5.46 g/m*3 1.05 C 6.4 km/h
536 12-01-2021 20:35:00 2.8 C 5.46 g/m*3 1.05 C 6.4 km/h
537 12-01-2021 20:40:00 2.8 C 5.46 g/m*3 2.8 C 4.8 km/h
538 12-01-2021 20:45:00 2.8 C 5.46 g/m*3 2.8 C 4.8 km/h
539 12-01-2021 20:50:00 2.8 C 5.46 g/m*3 2.8 C 3.2 km/h
540 12-01-2021 20:55:00 2.8 C 5.4 g/m*3 2.8 C 3.2 km/h
541 12-01-2021 21:00:00 2.8 C 5.4 g/m*3 1.05 C 6.4 km/h
542 12-01-2021 21:05:00 2.8 C 5.4 g/m*3 2.8 C 1.6 km/h
543 12-01-2021 21:10:00 2.8 C 5.4 g/m*3 2.8 C 1.6 km/h
544 12-01-2021 21:15:00 2.8 C 5.4 g/m*3 2.8 C 0 km/h
545 12-01-2021 21:20:00 2.9 C 5.43 g/m*3 2.9 C 3.2 km/h
546 12-01-2021 21:25:00 2.9 C 5.43 g/m*3 0.64 C 8.1 km/h
547 12-01-2021 21:30:00 3 C 5.47 g/m*3 0.34 C 9.7 km/h
548 12-01-2021 21:35:00 3.2 C 5.48 g/m*3 0.99 C 8.1 km/h
549 12-01-2021 21:40:00 3.3 C 5.52 g/m*3 0.34 C 11.3 km/h
550 12-01-2021 21:45:00 3.3 C 5.46 g/m*3 1.11 C 8.1 km/h
Sensor: Nr:Datum:Temp:Abs-Feuchte:Windchill:Wind:
Aussen-T/F 551 12-01-2021 21:50:00 3.4 C 5.5 g/m*3 3.4 C 4.8 km/h
552 12-01-2021 21:55:00 3.4 C 5.5 g/m*3 3.4 C 4.8 km/h
553 12-01-2021 22:00:00 3.3 C 5.46 g/m*3 3.3 C 4.8 km/h
554 12-01-2021 22:05:00 3.3 C 5.46 g/m*3 3.3 C 4.8 km/h
555 12-01-2021 22:10:00 3.2 C 5.42 g/m*3 3.2 C 4.8 km/h
556 12-01-2021 22:15:00 3.2 C 5.42 g/m*3 3.2 C 4.8 km/h
557 12-01-2021 22:20:00 3.1 C 5.45 g/m*3 1.4 C 6.4 km/h
558 12-01-2021 22:25:00 3 C 5.41 g/m*3 3 C 0 km/h
559 12-01-2021 22:30:00 2.9 C 5.37 g/m*3 2.9 C 3.2 km/h
560 12-01-2021 22:35:00 2.8 C 5.34 g/m*3 2.8 C 1.6 km/h
561 12-01-2021 22:40:00 2.8 C 5.34 g/m*3 2.8 C 3.2 km/h
562 12-01-2021 22:45:00 2.8 C 5.34 g/m*3 2.8 C 3.2 km/h
563 12-01-2021 22:50:00 2.7 C 5.3 g/m*3 2.7 C 3.2 km/h
564 12-01-2021 22:55:00 2.5 C 5.23 g/m*3 2.5 C 1.6 km/h
565 12-01-2021 23:00:00 2.3 C 5.16 g/m*3 2.3 C 3.2 km/h
566 12-01-2021 23:05:00 2.3 C 5.22 g/m*3 2.3 C 1.6 km/h
567 12-01-2021 23:10:00 2.2 C 5.18 g/m*3 2.2 C 1.6 km/h
568 12-01-2021 23:15:00 2.1 C 5.15 g/m*3 2.1 C 0 km/h
569 12-01-2021 23:20:00 2 C 5.17 g/m*3 2 C 3.2 km/h
570 12-01-2021 23:25:00 2 C 5.17 g/m*3 2 C 3.2 km/h
571 12-01-2021 23:30:00 2 C 5.17 g/m*3 2 C 4.8 km/h
572 12-01-2021 23:35:00 2.1 C 5.2 g/m*3 2.1 C 4.8 km/h
573 12-01-2021 23:40:00 2.1 C 5.26 g/m*3 2.1 C 3.2 km/h
574 12-01-2021 23:45:00 2.2 C 5.29 g/m*3 2.2 C 4.8 km/h
575 12-01-2021 23:50:00 2.2 C 5.29 g/m*3 2.2 C 3.2 km/h
Sensor: Nr:Datum:Temp:Abs-Feuchte:Windchill:Wind:
Aussen-T/F 576 12-01-2021 23:55:00 2.2 C 5.29 g/m*3 2.2 C 0 km/h
577 13-01-2021 00:00:00 2.2 C 5.29 g/m*3 2.2 C 0 km/h
578 13-01-2021 00:05:00 2.1 C 5.26 g/m*3 2.1 C 3.2 km/h
579 13-01-2021 00:10:00 2.1 C 5.26 g/m*3 2.1 C 1.6 km/h
580 13-01-2021 00:15:00 2.1 C 5.26 g/m*3 2.1 C 3.2 km/h
581 13-01-2021 00:20:00 2.1 C 5.26 g/m*3 2.1 C 3.2 km/h
582 13-01-2021 00:25:00 1.9 C 5.19 g/m*3 1.9 C 1.6 km/h
583 13-01-2021 00:30:00 1.9 C 5.19 g/m*3 1.9 C 3.2 km/h
584 13-01-2021 00:35:00 1.8 C 5.15 g/m*3 1.8 C 4.8 km/h
585 13-01-2021 00:40:00 1.8 C 5.15 g/m*3 1.8 C 1.6 km/h
586 13-01-2021 00:45:00 1.8 C 5.15 g/m*3 1.8 C 4.8 km/h
587 13-01-2021 00:50:00 1.7 C 5.12 g/m*3 1.7 C 3.2 km/h
588 13-01-2021 00:55:00 1.7 C 5.12 g/m*3 1.7 C 3.2 km/h
589 13-01-2021 01:00:00 1.7 C 5.12 g/m*3 1.7 C 3.2 km/h
590 13-01-2021 01:05:00 1.7 C 5.12 g/m*3 -0.22 C 6.4 km/h
591 13-01-2021 01:10:00 1.7 C 5.17 g/m*3 1.7 C 4.8 km/h
592 13-01-2021 01:15:00 1.7 C 5.12 g/m*3 1.7 C 1.6 km/h
593 13-01-2021 01:20:00 1.6 C 5.08 g/m*3 1.6 C 4.8 km/h
594 13-01-2021 01:25:00 1.4 C 5.01 g/m*3 -0.56 C 6.4 km/h
595 13-01-2021 01:30:00 1.5 C 5.05 g/m*3 -1.01 C 8.1 km/h
596 13-01-2021 01:35:00 1.5 C 5.05 g/m*3 1.5 C 3.2 km/h
597 13-01-2021 01:40:00 1.5 C 5.05 g/m*3 1.5 C 3.2 km/h
598 13-01-2021 01:45:00 1.6 C 5.14 g/m*3 1.6 C 3.2 km/h
599 13-01-2021 01:50:00 1.6 C 5.14 g/m*3 1.6 C 3.2 km/h
600 13-01-2021 01:55:00 1.6 C 5.14 g/m*3 1.6 C 3.2 km/h
Sensor: Nr:Datum:Temp:Abs-Feuchte:Windchill:Wind:
Aussen-T/F 601 13-01-2021 02:00:00 1.6 C 5.14 g/m*3 1.6 C 4.8 km/h
602 13-01-2021 02:05:00 1.7 C 5.12 g/m*3 1.7 C 3.2 km/h
603 13-01-2021 02:10:00 1.7 C 5.12 g/m*3 1.7 C 4.8 km/h
604 13-01-2021 02:15:00 1.7 C 5.12 g/m*3 -0.77 C 8.1 km/h
605 13-01-2021 02:20:00 1.7 C 5.12 g/m*3 -0.77 C 8.1 km/h
606 13-01-2021 02:25:00 1.7 C 5.12 g/m*3 -0.22 C 6.4 km/h
607 13-01-2021 02:30:00 1.7 C 5.12 g/m*3 -1.59 C 11.3 km/h
608 13-01-2021 02:35:00 1.7 C 5.06 g/m*3 -1.59 C 11.3 km/h
609 13-01-2021 02:40:00 1.7 C 5.06 g/m*3 -1.21 C 9.7 km/h
610 13-01-2021 02:45:00 1.7 C 5.06 g/m*3 -1.59 C 11.3 km/h
611 13-01-2021 02:50:00 1.7 C 5.06 g/m*3 -1.21 C 9.7 km/h
612 13-01-2021 02:55:00 1.8 C 5.1 g/m*3 -1.09 C 9.7 km/h
613 13-01-2021 03:00:00 1.8 C 5.04 g/m*3 -0.65 C 8.1 km/h
614 13-01-2021 03:05:00 1.8 C 5.04 g/m*3 -1.09 C 9.7 km/h
615 13-01-2021 03:10:00 1.8 C 5.04 g/m*3 -1.09 C 9.7 km/h
616 13-01-2021 03:15:00 1.8 C 5.04 g/m*3 -1.09 C 9.7 km/h
617 13-01-2021 03:20:00 1.7 C 5.01 g/m*3 -0.77 C 8.1 km/h
618 13-01-2021 03:25:00 1.7 C 5.01 g/m*3 1.7 C 4.8 km/h
619 13-01-2021 03:30:00 1.6 C 4.97 g/m*3 -1.33 C 9.7 km/h
620 13-01-2021 03:35:00 1.7 C 5.01 g/m*3 -1.21 C 9.7 km/h
621 13-01-2021 03:40:00 1.8 C 4.99 g/m*3 -1.09 C 9.7 km/h
622 13-01-2021 03:45:00 1.7 C 4.95 g/m*3 -1.21 C 9.7 km/h
623 13-01-2021 03:50:00 1.7 C 4.95 g/m*3 -0.77 C 8.1 km/h
624 13-01-2021 03:55:00 1.7 C 4.95 g/m*3 -0.77 C 8.1 km/h
625 13-01-2021 04:00:00 1.7 C 4.95 g/m*3 1.7 C 4.8 km/h
Sensor: Nr:Datum:Temp:Abs-Feuchte:Windchill:Wind:
Aussen-T/F 626 13-01-2021 04:05:00 1.6 C 4.92 g/m*3 -1.33 C 9.7 km/h
627 13-01-2021 04:10:00 1.6 C 4.92 g/m*3 -0.89 C 8.1 km/h
628 13-01-2021 04:15:00 1.6 C 4.92 g/m*3 -1.33 C 9.7 km/h
629 13-01-2021 04:20:00 1.6 C 4.92 g/m*3 -0.89 C 8.1 km/h
630 13-01-2021 04:25:00 1.7 C 4.95 g/m*3 -0.77 C 8.1 km/h
631 13-01-2021 04:30:00 1.7 C 4.95 g/m*3 -1.59 C 11.3 km/h
632 13-01-2021 04:35:00 1.7 C 4.9 g/m*3 -0.22 C 6.4 km/h
633 13-01-2021 04:40:00 1.6 C 4.87 g/m*3 -1.33 C 9.7 km/h
634 13-01-2021 04:45:00 1.6 C 4.87 g/m*3 -1.33 C 9.7 km/h
635 13-01-2021 04:50:00 1.6 C 4.87 g/m*3 -1.33 C 9.7 km/h
636 13-01-2021 04:55:00 1.6 C 4.87 g/m*3 -0.33 C 6.4 km/h
637 13-01-2021 05:00:00 1.6 C 4.87 g/m*3 -1.33 C 9.7 km/h
638 13-01-2021 05:05:00 1.6 C 4.87 g/m*3 1.6 C 4.8 km/h
639 13-01-2021 05:10:00 1.6 C 4.87 g/m*3 -0.89 C 8.1 km/h
640 13-01-2021 05:15:00 1.7 C 4.9 g/m*3 -1.59 C 11.3 km/h
641 13-01-2021 05:20:00 1.7 C 4.9 g/m*3 -0.77 C 8.1 km/h
642 13-01-2021 05:25:00 1.6 C 4.87 g/m*3 -1.33 C 9.7 km/h
643 13-01-2021 05:30:00 1.7 C 4.9 g/m*3 -1.59 C 11.3 km/h
644 13-01-2021 05:35:00 1.7 C 4.9 g/m*3 -1.59 C 11.3 km/h
645 13-01-2021 05:40:00 1.7 C 4.9 g/m*3 -0.77 C 8.1 km/h
646 13-01-2021 05:45:00 1.7 C 4.9 g/m*3 -1.21 C 9.7 km/h
647 13-01-2021 05:50:00 1.7 C 4.9 g/m*3 -1.21 C 9.7 km/h
648 13-01-2021 05:55:00 1.7 C 4.9 g/m*3 -0.22 C 6.4 km/h
649 13-01-2021 06:00:00 1.7 C 4.9 g/m*3 -1.21 C 9.7 km/h
650 13-01-2021 06:05:00 1.7 C 4.9 g/m*3 -1.21 C 9.7 km/h
Sensor: Nr:Datum:Temp:Abs-Feuchte:Windchill:Wind:
Aussen-T/F 651 13-01-2021 06:10:00 1.7 C 4.9 g/m*3 -0.22 C 6.4 km/h
652 13-01-2021 06:15:00 1.7 C 4.9 g/m*3 -1.21 C 9.7 km/h
653 13-01-2021 06:20:00 1.8 C 4.93 g/m*3 -1.09 C 9.7 km/h
654 13-01-2021 06:25:00 1.8 C 4.93 g/m*3 -0.1 C 6.4 km/h
655 13-01-2021 06:30:00 1.8 C 4.93 g/m*3 -0.1 C 6.4 km/h
656 13-01-2021 06:35:00 1.8 C 4.93 g/m*3 -0.1 C 6.4 km/h
657 13-01-2021 06:40:00 1.8 C 4.93 g/m*3 -0.1 C 6.4 km/h
658 13-01-2021 06:45:00 1.8 C 4.93 g/m*3 -2.38 C 16.1 km/h
659 13-01-2021 06:50:00 1.8 C 4.88 g/m*3 -1.47 C 11.3 km/h
660 13-01-2021 06:55:00 1.9 C 4.91 g/m*3 -1.98 C 14.5 km/h
661 13-01-2021 07:00:00 1.9 C 4.91 g/m*3 -0.54 C 8.1 km/h
662 13-01-2021 07:05:00 1.9 C 4.91 g/m*3 -0.54 C 8.1 km/h
663 13-01-2021 07:10:00 1.9 C 4.91 g/m*3 -0.97 C 9.7 km/h
664 13-01-2021 07:15:00 1.9 C 4.91 g/m*3 -0.97 C 9.7 km/h
665 13-01-2021 07:20:00 1.9 C 4.91 g/m*3 -0.54 C 8.1 km/h
666 13-01-2021 07:25:00 1.9 C 4.91 g/m*3 -0.97 C 9.7 km/h
667 13-01-2021 07:30:00 1.9 C 4.97 g/m*3 -1.35 C 11.3 km/h
668 13-01-2021 07:35:00 1.9 C 4.91 g/m*3 -1.35 C 11.3 km/h
669 13-01-2021 07:40:00 1.9 C 4.91 g/m*3 -0.54 C 8.1 km/h
670 13-01-2021 07:45:00 2 C 4.95 g/m*3 -0.85 C 9.7 km/h
671 13-01-2021 07:50:00 2 C 4.95 g/m*3 -0.85 C 9.7 km/h
672 13-01-2021 07:55:00 1.9 C 4.91 g/m*3 -1.35 C 11.3 km/h
673 13-01-2021 08:00:00 1.9 C 4.91 g/m*3 -1.68 C 12.9 km/h
674 13-01-2021 08:05:00 1.9 C 4.91 g/m*3 0.01 C 6.4 km/h
675 13-01-2021 08:10:00 1.9 C 4.97 g/m*3 -0.54 C 8.1 km/h
Sensor: Nr:Datum:Temp:Abs-Feuchte:Windchill:Wind:
Aussen-T/F 676 13-01-2021 08:15:00 1.9 C 4.97 g/m*3 0.01 C 6.4 km/h
677 13-01-2021 08:20:00 1.9 C 4.97 g/m*3 -0.54 C 8.1 km/h
678 13-01-2021 08:25:00 1.8 C 4.93 g/m*3 -0.1 C 6.4 km/h
679 13-01-2021 08:30:00 1.8 C 4.93 g/m*3 -1.09 C 9.7 km/h
680 13-01-2021 08:35:00 1.7 C 4.95 g/m*3 -0.77 C 8.1 km/h
681 13-01-2021 08:40:00 1.7 C 4.95 g/m*3 -0.22 C 6.4 km/h
682 13-01-2021 08:45:00 1.6 C 4.92 g/m*3 -0.33 C 6.4 km/h
683 13-01-2021 08:50:00 1.5 C 4.89 g/m*3 -0.45 C 6.4 km/h
684 13-01-2021 08:55:00 1.5 C 4.89 g/m*3 -1.01 C 8.1 km/h
685 13-01-2021 09:00:00 1.4 C 4.85 g/m*3 -1.12 C 8.1 km/h
686 13-01-2021 09:05:00 1.3 C 4.87 g/m*3 -1.24 C 8.1 km/h
687 13-01-2021 09:10:00 1.3 C 4.87 g/m*3 1.3 C 4.8 km/h
688 13-01-2021 09:15:00 1.3 C 4.87 g/m*3 -2.07 C 11.3 km/h
689 13-01-2021 09:20:00 1.3 C 4.87 g/m*3 -1.69 C 9.7 km/h
690 13-01-2021 09:25:00 1.3 C 4.87 g/m*3 -1.24 C 8.1 km/h
691 13-01-2021 09:30:00 1.3 C 4.87 g/m*3 -2.07 C 11.3 km/h
692 13-01-2021 09:35:00 1.3 C 4.93 g/m*3 -2.07 C 11.3 km/h
693 13-01-2021 09:40:00 1.3 C 4.93 g/m*3 -2.72 C 14.5 km/h
694 13-01-2021 09:45:00 1.3 C 4.93 g/m*3 -1.69 C 9.7 km/h
695 13-01-2021 09:50:00 1.3 C 4.93 g/m*3 -1.69 C 9.7 km/h
696 13-01-2021 09:55:00 1.4 C 4.96 g/m*3 -1.57 C 9.7 km/h
697 13-01-2021 10:00:00 1.6 C 5.03 g/m*3 -2.05 C 12.9 km/h
698 13-01-2021 10:05:00 1.6 C 5.03 g/m*3 -0.89 C 8.1 km/h
699 13-01-2021 10:10:00 1.7 C 5.06 g/m*3 -0.22 C 6.4 km/h
700 13-01-2021 10:15:00 1.8 C 5.1 g/m*3 -0.65 C 8.1 km/h
Sensor: Nr:Datum:Temp:Abs-Feuchte:Windchill:Wind:
Aussen-T/F 701 13-01-2021 10:20:00 1.8 C 5.1 g/m*3 -1.47 C 11.3 km/h
702 13-01-2021 10:25:00 1.8 C 5.1 g/m*3 -0.65 C 8.1 km/h
703 13-01-2021 10:30:00 1.9 C 5.13 g/m*3 -0.97 C 9.7 km/h
704 13-01-2021 10:35:00 2 C 5.17 g/m*3 -0.42 C 8.1 km/h
705 13-01-2021 10:40:00 2.1 C 5.2 g/m*3 0.24 C 6.4 km/h
706 13-01-2021 10:45:00 2.2 C 5.24 g/m*3 -0.18 C 8.1 km/h
707 13-01-2021 10:50:00 2.4 C 5.25 g/m*3 0.05 C 8.1 km/h
708 13-01-2021 10:55:00 2.4 C 5.25 g/m*3 0.05 C 8.1 km/h
709 13-01-2021 11:00:00 2.6 C 5.32 g/m*3 0.29 C 8.1 km/h
710 13-01-2021 11:05:00 2.6 C 5.32 g/m*3 0.82 C 6.4 km/h
711 13-01-2021 11:10:00 2.7 C 5.3 g/m*3 -0.02 C 9.7 km/h
712 13-01-2021 11:15:00 2.7 C 5.3 g/m*3 0.4 C 8.1 km/h
713 13-01-2021 11:20:00 2.9 C 5.37 g/m*3 -0.14 C 11.3 km/h
714 13-01-2021 11:25:00 3 C 5.35 g/m*3 -0.34 C 12.9 km/h
715 13-01-2021 11:30:00 3.1 C 5.39 g/m*3 0.1 C 11.3 km/h
716 13-01-2021 11:35:00 3.1 C 5.39 g/m*3 0.46 C 9.7 km/h
717 13-01-2021 11:40:00 3.1 C 5.39 g/m*3 0.1 C 11.3 km/h
718 13-01-2021 11:45:00 3.1 C 5.33 g/m*3 0.1 C 11.3 km/h
719 13-01-2021 11:50:00 3.2 C 5.36 g/m*3 0.22 C 11.3 km/h
720 13-01-2021 11:55:00 3.3 C 5.4 g/m*3 -0.76 C 17.7 km/h
721 13-01-2021 12:00:00 3.4 C 5.37 g/m*3 0.14 C 12.9 km/h
722 13-01-2021 12:05:00 3.6 C 5.45 g/m*3 -0.39 C 17.7 km/h
723 13-01-2021 12:10:00 3.7 C 5.48 g/m*3 0.82 C 11.3 km/h
724 13-01-2021 12:15:00 3.7 C 5.48 g/m*3 1.58 C 8.1 km/h
725 13-01-2021 12:20:00 3.8 C 5.46 g/m*3 0.63 C 12.9 km/h
Sensor: Nr:Datum:Temp:Abs-Feuchte:Windchill:Wind:
Aussen-T/F 726 13-01-2021 12:25:00 3.8 C 5.46 g/m*3 0.94 C 11.3 km/h
727 13-01-2021 12:30:00 3.8 C 5.46 g/m*3 0.63 C 12.9 km/h
728 13-01-2021 12:35:00 3.8 C 5.46 g/m*3 0.1 C 16.1 km/h
729 13-01-2021 12:40:00 3.8 C 5.46 g/m*3 0.94 C 11.3 km/h
730 13-01-2021 12:45:00 3.8 C 5.46 g/m*3 0.94 C 11.3 km/h
731 13-01-2021 12:50:00 3.8 C 5.4 g/m*3 0.94 C 11.3 km/h
732 13-01-2021 12:55:00 3.9 C 5.43 g/m*3 0.22 C 16.1 km/h
733 13-01-2021 13:00:00 4 C 5.47 g/m*3 1.53 C 9.7 km/h
734 13-01-2021 13:05:00 4 C 5.47 g/m*3 1.18 C 11.3 km/h
735 13-01-2021 13:10:00 4.1 C 5.5 g/m*3 2.55 C 6.4 km/h
736 13-01-2021 13:15:00 4.1 C 5.44 g/m*3 0.24 C 17.7 km/h
737 13-01-2021 13:20:00 4.2 C 5.48 g/m*3 0.59 C 16.1 km/h
738 13-01-2021 13:25:00 4.2 C 5.41 g/m*3 1.12 C 12.9 km/h
739 13-01-2021 13:30:00 4.2 C 5.41 g/m*3 1.12 C 12.9 km/h
740 13-01-2021 13:35:00 4.2 C 5.41 g/m*3 0.84 C 14.5 km/h
741 13-01-2021 13:40:00 4.2 C 5.41 g/m*3 1.77 C 9.7 km/h
742 13-01-2021 13:45:00 4.2 C 5.41 g/m*3 1.77 C 9.7 km/h
743 13-01-2021 13:50:00 4.2 C 5.41 g/m*3 2.67 C 6.4 km/h
744 13-01-2021 13:55:00 4.3 C 5.38 g/m*3 1.24 C 12.9 km/h
745 13-01-2021 14:00:00 4.4 C 5.35 g/m*3 1.67 C 11.3 km/h
746 13-01-2021 14:05:00 4.5 C 5.39 g/m*3 4.5 C 4.8 km/h
747 13-01-2021 14:10:00 4.6 C 5.29 g/m*3 1.61 C 12.9 km/h
748 13-01-2021 14:15:00 4.6 C 5.29 g/m*3 1.91 C 11.3 km/h
749 13-01-2021 14:20:00 4.7 C 5.26 g/m*3 2.03 C 11.3 km/h
750 13-01-2021 14:25:00 4.7 C 5.26 g/m*3 1.46 C 14.5 km/h
Sensor: Nr:Datum:Temp:Abs-Feuchte:Windchill:Wind:
Aussen-T/F 751 13-01-2021 14:30:00 4.7 C 5.33 g/m*3 2.37 C 9.7 km/h
752 13-01-2021 14:35:00 4.7 C 5.33 g/m*3 2.76 C 8.1 km/h
753 13-01-2021 14:40:00 4.7 C 5.33 g/m*3 1.46 C 14.5 km/h
754 13-01-2021 14:45:00 4.7 C 5.26 g/m*3 1.73 C 12.9 km/h
755 13-01-2021 14:50:00 4.7 C 5.26 g/m*3 2.37 C 9.7 km/h
756 13-01-2021 14:55:00 4.6 C 5.23 g/m*3 1.61 C 12.9 km/h
757 13-01-2021 15:00:00 4.4 C 5.16 g/m*3 1.67 C 11.3 km/h
758 13-01-2021 15:05:00 4.3 C 5.12 g/m*3 1.24 C 12.9 km/h
759 13-01-2021 15:10:00 4.2 C 5.15 g/m*3 1.12 C 12.9 km/h
760 13-01-2021 15:15:00 4.1 C 5.12 g/m*3 1 C 12.9 km/h
761 13-01-2021 15:20:00 4.1 C 5.12 g/m*3 0.72 C 14.5 km/h
762 13-01-2021 15:25:00 4.1 C 5.12 g/m*3 1.65 C 9.7 km/h
763 13-01-2021 15:30:00 4.1 C 5.12 g/m*3 1.31 C 11.3 km/h
764 13-01-2021 15:35:00 4.1 C 5.12 g/m*3 1.31 C 11.3 km/h
765 13-01-2021 15:40:00 3.9 C 5.12 g/m*3 1.82 C 8.1 km/h
766 13-01-2021 15:45:00 3.9 C 5.12 g/m*3 1.82 C 8.1 km/h
767 13-01-2021 15:50:00 3.8 C 5.08 g/m*3 1.7 C 8.1 km/h
768 13-01-2021 15:55:00 3.7 C 5.11 g/m*3 1.58 C 8.1 km/h
769 13-01-2021 16:00:00 3.5 C 5.1 g/m*3 1.34 C 8.1 km/h
770 13-01-2021 16:05:00 3.4 C 5.07 g/m*3 1.23 C 8.1 km/h
771 13-01-2021 16:10:00 3.3 C 5.04 g/m*3 0.7 C 9.7 km/h
772 13-01-2021 16:15:00 3.2 C 5.06 g/m*3 0.58 C 9.7 km/h
773 13-01-2021 16:20:00 3.1 C 5.03 g/m*3 1.4 C 6.4 km/h
774 13-01-2021 16:25:00 3 C 4.99 g/m*3 0.76 C 8.1 km/h
775 13-01-2021 16:30:00 2.9 C 4.96 g/m*3 -0.14 C 11.3 km/h
Sensor: Nr:Datum:Temp:Abs-Feuchte:Windchill:Wind:
Aussen-T/F 776 13-01-2021 16:35:00 2.8 C 4.99 g/m*3 0.52 C 8.1 km/h
777 13-01-2021 16:40:00 2.8 C 4.99 g/m*3 0.1 C 9.7 km/h
778 13-01-2021 16:45:00 2.7 C 4.95 g/m*3 0.4 C 8.1 km/h
779 13-01-2021 16:50:00 2.6 C 4.92 g/m*3 -0.14 C 9.7 km/h
780 13-01-2021 16:55:00 2.6 C 4.98 g/m*3 0.29 C 8.1 km/h
781 13-01-2021 17:00:00 2.6 C 4.98 g/m*3 0.29 C 8.1 km/h
782 13-01-2021 17:05:00 2.5 C 4.94 g/m*3 0.17 C 8.1 km/h
783 13-01-2021 17:10:00 2.5 C 4.94 g/m*3 0.17 C 8.1 km/h
784 13-01-2021 17:15:00 2.5 C 4.94 g/m*3 -0.26 C 9.7 km/h
785 13-01-2021 17:20:00 2.4 C 4.97 g/m*3 2.4 C 4.8 km/h
786 13-01-2021 17:25:00 2.4 C 4.97 g/m*3 2.4 C 4.8 km/h
787 13-01-2021 17:30:00 2.3 C 4.93 g/m*3 0.47 C 6.4 km/h
788 13-01-2021 17:35:00 2.3 C 4.93 g/m*3 -0.07 C 8.1 km/h
789 13-01-2021 17:40:00 2.3 C 4.99 g/m*3 0.47 C 6.4 km/h
790 13-01-2021 17:45:00 2.3 C 4.99 g/m*3 2.3 C 4.8 km/h
791 13-01-2021 17:50:00 2.3 C 4.99 g/m*3 2.3 C 3.2 km/h
792 13-01-2021 17:55:00 2.3 C 4.99 g/m*3 2.3 C 0 km/h
793 13-01-2021 18:00:00 2.2 C 4.96 g/m*3 2.2 C 1.6 km/h
794 13-01-2021 18:05:00 2.1 C 4.98 g/m*3 2.1 C 0 km/h
795 13-01-2021 18:10:00 2.1 C 4.98 g/m*3 2.1 C 0 km/h
796 13-01-2021 18:15:00 2 C 4.95 g/m*3 2 C 4.8 km/h
797 13-01-2021 18:20:00 1.9 C 4.91 g/m*3 1.9 C 3.2 km/h
798 13-01-2021 18:25:00 1.9 C 4.91 g/m*3 1.9 C 4.8 km/h
799 13-01-2021 18:30:00 1.8 C 4.93 g/m*3 1.8 C 1.6 km/h
800 13-01-2021 18:35:00 1.8 C 4.93 g/m*3 1.8 C 1.6 km/h
Sensor: Nr:Datum:Temp:Abs-Feuchte:Windchill:Wind:
Aussen-T/F 801 13-01-2021 18:40:00 1.8 C 4.93 g/m*3 1.8 C 3.2 km/h
802 13-01-2021 18:45:00 1.8 C 4.93 g/m*3 1.8 C 4.8 km/h
803 13-01-2021 18:50:00 1.8 C 4.99 g/m*3 1.8 C 3.2 km/h
804 13-01-2021 18:55:00 1.8 C 4.99 g/m*3 1.8 C 1.6 km/h
805 13-01-2021 19:00:00 1.8 C 4.99 g/m*3 1.8 C 3.2 km/h
806 13-01-2021 19:05:00 1.8 C 4.99 g/m*3 1.8 C 3.2 km/h
807 13-01-2021 19:10:00 1.8 C 4.99 g/m*3 1.8 C 3.2 km/h
808 13-01-2021 19:15:00 1.7 C 4.95 g/m*3 1.7 C 1.6 km/h
809 13-01-2021 19:20:00 1.7 C 4.95 g/m*3 1.7 C 4.8 km/h
810 13-01-2021 19:25:00 1.7 C 4.95 g/m*3 1.7 C 3.2 km/h
811 13-01-2021 19:30:00 1.8 C 4.99 g/m*3 1.8 C 4.8 km/h
812 13-01-2021 19:35:00 1.8 C 4.99 g/m*3 1.8 C 4.8 km/h
813 13-01-2021 19:40:00 1.8 C 4.99 g/m*3 -0.1 C 6.4 km/h
814 13-01-2021 19:45:00 1.8 C 5.04 g/m*3 -0.1 C 6.4 km/h
815 13-01-2021 19:50:00 1.9 C 5.08 g/m*3 1.9 C 4.8 km/h
816 13-01-2021 19:55:00 2 C 5.11 g/m*3 2 C 4.8 km/h
817 13-01-2021 20:00:00 2 C 5.11 g/m*3 0.13 C 6.4 km/h
818 13-01-2021 20:05:00 2.1 C 5.15 g/m*3 2.1 C 4.8 km/h
819 13-01-2021 20:10:00 2.1 C 5.15 g/m*3 2.1 C 0 km/h
820 13-01-2021 20:15:00 2.1 C 5.15 g/m*3 2.1 C 4.8 km/h
821 13-01-2021 20:20:00 2 C 5.11 g/m*3 0.13 C 6.4 km/h
822 13-01-2021 20:25:00 2.1 C 5.15 g/m*3 2.1 C 4.8 km/h
823 13-01-2021 20:30:00 2.1 C 5.15 g/m*3 2.1 C 4.8 km/h
824 13-01-2021 20:35:00 2 C 5.11 g/m*3 2 C 3.2 km/h
825 13-01-2021 20:40:00 2 C 5.11 g/m*3 2 C 4.8 km/h
Sensor: Nr:Datum:Temp:Abs-Feuchte:Windchill:Wind:
Aussen-T/F 826 13-01-2021 20:45:00 2 C 5.11 g/m*3 2 C 3.2 km/h
827 13-01-2021 20:50:00 1.9 C 5.08 g/m*3 1.9 C 3.2 km/h
828 13-01-2021 20:55:00 2 C 5.11 g/m*3 0.13 C 6.4 km/h
829 13-01-2021 21:00:00 2 C 5.17 g/m*3 2 C 4.8 km/h
830 13-01-2021 21:05:00 2.1 C 5.2 g/m*3 -0.73 C 9.7 km/h
831 13-01-2021 21:10:00 2.2 C 5.24 g/m*3 -0.18 C 8.1 km/h
832 13-01-2021 21:15:00 2.3 C 5.27 g/m*3 -0.07 C 8.1 km/h
833 13-01-2021 21:20:00 2.3 C 5.22 g/m*3 -0.07 C 8.1 km/h
834 13-01-2021 21:25:00 2.5 C 5.23 g/m*3 0.71 C 6.4 km/h
835 13-01-2021 21:30:00 2.6 C 5.21 g/m*3 0.82 C 6.4 km/h
836 13-01-2021 21:35:00 2.7 C 5.24 g/m*3 0.94 C 6.4 km/h
837 13-01-2021 21:40:00 2.7 C 5.19 g/m*3 2.7 C 4.8 km/h
838 13-01-2021 21:45:00 2.8 C 5.22 g/m*3 0.52 C 8.1 km/h
839 13-01-2021 21:50:00 2.8 C 5.16 g/m*3 0.52 C 8.1 km/h
840 13-01-2021 21:55:00 2.9 C 5.2 g/m*3 2.9 C 4.8 km/h
841 13-01-2021 22:00:00 2.9 C 5.2 g/m*3 2.9 C 3.2 km/h
842 13-01-2021 22:05:00 3 C 5.17 g/m*3 1.28 C 6.4 km/h
843 13-01-2021 22:10:00 3.1 C 5.15 g/m*3 0.87 C 8.1 km/h
844 13-01-2021 22:15:00 3.2 C 5.18 g/m*3 0.99 C 8.1 km/h
845 13-01-2021 22:20:00 3.3 C 5.16 g/m*3 1.63 C 6.4 km/h
846 13-01-2021 22:25:00 3.4 C 5.19 g/m*3 1.75 C 6.4 km/h
847 13-01-2021 22:30:00 3.5 C 5.23 g/m*3 3.5 C 4.8 km/h
848 13-01-2021 22:35:00 3.6 C 5.2 g/m*3 1.46 C 8.1 km/h
849 13-01-2021 22:40:00 3.6 C 5.2 g/m*3 1.98 C 6.4 km/h
850 13-01-2021 22:45:00 3.7 C 5.17 g/m*3 0.82 C 11.3 km/h
Sensor: Nr:Datum:Temp:Abs-Feuchte:Windchill:Wind:
Aussen-T/F 851 13-01-2021 22:50:00 3.7 C 5.17 g/m*3 1.58 C 8.1 km/h
852 13-01-2021 22:55:00 3.7 C 5.17 g/m*3 1.58 C 8.1 km/h
853 13-01-2021 23:00:00 3.7 C 5.17 g/m*3 1.58 C 8.1 km/h
854 13-01-2021 23:05:00 3.7 C 5.17 g/m*3 1.58 C 8.1 km/h
855 13-01-2021 23:10:00 3.8 C 5.21 g/m*3 1.7 C 8.1 km/h
856 13-01-2021 23:15:00 3.8 C 5.21 g/m*3 2.21 C 6.4 km/h
857 13-01-2021 23:20:00 3.7 C 5.17 g/m*3 0.82 C 11.3 km/h
858 13-01-2021 23:25:00 3.7 C 5.17 g/m*3 3.7 C 4.8 km/h
859 13-01-2021 23:30:00 3.7 C 5.17 g/m*3 1.58 C 8.1 km/h
860 13-01-2021 23:35:00 3.7 C 5.17 g/m*3 1.18 C 9.7 km/h
861 13-01-2021 23:40:00 3.7 C 5.17 g/m*3 3.7 C 4.8 km/h
862 13-01-2021 23:45:00 3.7 C 5.23 g/m*3 2.09 C 6.4 km/h
863 13-01-2021 23:50:00 3.7 C 5.23 g/m*3 1.58 C 8.1 km/h
864 13-01-2021 23:55:00 3.8 C 5.27 g/m*3 1.29 C 9.7 km/h
865 14-01-2021 00:00:00 3.8 C 5.27 g/m*3 1.7 C 8.1 km/h
866 14-01-2021 00:05:00 3.9 C 5.31 g/m*3 1.41 C 9.7 km/h
867 14-01-2021 00:10:00 4 C 5.34 g/m*3 1.53 C 9.7 km/h
868 14-01-2021 00:15:00 4.1 C 5.38 g/m*3 1 C 12.9 km/h
869 14-01-2021 00:20:00 4.1 C 5.38 g/m*3 2.05 C 8.1 km/h
870 14-01-2021 00:25:00 4.2 C 5.41 g/m*3 2.17 C 8.1 km/h
871 14-01-2021 00:30:00 4.2 C 5.41 g/m*3 1.77 C 9.7 km/h
872 14-01-2021 00:35:00 4.2 C 5.48 g/m*3 2.17 C 8.1 km/h
873 14-01-2021 00:40:00 4.2 C 5.54 g/m*3 4.2 C 3.2 km/h
874 14-01-2021 00:45:00 4.2 C 5.61 g/m*3 2.67 C 6.4 km/h
875 14-01-2021 00:50:00 4.2 C 5.67 g/m*3 0.59 C 16.1 km/h
Sensor: Nr:Datum:Temp:Abs-Feuchte:Windchill:Wind:
Aussen-T/F 876 14-01-2021 00:55:00 4.2 C 5.67 g/m*3 0.59 C 16.1 km/h
877 14-01-2021 01:00:00 4.2 C 5.73 g/m*3 2.67 C 6.4 km/h
878 14-01-2021 01:05:00 4.2 C 5.73 g/m*3 2.67 C 6.4 km/h
879 14-01-2021 01:10:00 4.2 C 5.8 g/m*3 4.2 C 4.8 km/h
880 14-01-2021 01:15:00 4.1 C 5.76 g/m*3 2.05 C 8.1 km/h
881 14-01-2021 01:20:00 4.1 C 5.82 g/m*3 1 C 12.9 km/h
882 14-01-2021 01:25:00 4.1 C 5.82 g/m*3 1 C 12.9 km/h
883 14-01-2021 01:30:00 4.1 C 5.89 g/m*3 1.65 C 9.7 km/h
884 14-01-2021 01:35:00 4 C 5.79 g/m*3 1.18 C 11.3 km/h
885 14-01-2021 01:40:00 4 C 5.85 g/m*3 1.53 C 9.7 km/h
886 14-01-2021 01:45:00 3.9 C 5.81 g/m*3 1.82 C 8.1 km/h
887 14-01-2021 01:50:00 3.9 C 5.81 g/m*3 1.41 C 9.7 km/h
888 14-01-2021 01:55:00 3.8 C 5.77 g/m*3 2.21 C 6.4 km/h
889 14-01-2021 02:00:00 3.8 C 5.83 g/m*3 2.21 C 6.4 km/h
890 14-01-2021 02:05:00 3.8 C 5.83 g/m*3 2.21 C 6.4 km/h
891 14-01-2021 02:10:00 3.8 C 5.83 g/m*3 1.7 C 8.1 km/h
892 14-01-2021 02:15:00 3.8 C 5.83 g/m*3 2.21 C 6.4 km/h
893 14-01-2021 02:20:00 3.8 C 5.83 g/m*3 1.7 C 8.1 km/h
894 14-01-2021 02:25:00 3.8 C 5.83 g/m*3 1.29 C 9.7 km/h
895 14-01-2021 02:30:00 3.8 C 5.77 g/m*3 1.29 C 9.7 km/h
896 14-01-2021 02:35:00 3.8 C 5.77 g/m*3 0.94 C 11.3 km/h
897 14-01-2021 02:40:00 3.7 C 5.73 g/m*3 2.09 C 6.4 km/h
898 14-01-2021 02:45:00 3.7 C 5.67 g/m*3 1.58 C 8.1 km/h
899 14-01-2021 02:50:00 3.7 C 5.67 g/m*3 2.09 C 6.4 km/h
900 14-01-2021 02:55:00 3.7 C 5.67 g/m*3 1.58 C 8.1 km/h
Sensor: Nr:Datum:Temp:Abs-Feuchte:Windchill:Wind:
Aussen-T/F 901 14-01-2021 03:00:00 3.7 C 5.67 g/m*3 2.09 C 6.4 km/h
902 14-01-2021 03:05:00 3.6 C 5.63 g/m*3 1.46 C 8.1 km/h
903 14-01-2021 03:10:00 3.6 C 5.57 g/m*3 3.6 C 4.8 km/h
904 14-01-2021 03:15:00 3.6 C 5.57 g/m*3 1.46 C 8.1 km/h
905 14-01-2021 03:20:00 3.6 C 5.57 g/m*3 1.06 C 9.7 km/h
906 14-01-2021 03:25:00 3.6 C 5.51 g/m*3 1.46 C 8.1 km/h
907 14-01-2021 03:30:00 3.6 C 5.51 g/m*3 1.98 C 6.4 km/h
908 14-01-2021 03:35:00 3.6 C 5.51 g/m*3 3.6 C 4.8 km/h
909 14-01-2021 03:40:00 3.6 C 5.51 g/m*3 3.6 C 0 km/h
910 14-01-2021 03:45:00 3.5 C 5.47 g/m*3 1.34 C 8.1 km/h
911 14-01-2021 03:50:00 3.4 C 5.37 g/m*3 3.4 C 4.8 km/h
912 14-01-2021 03:55:00 3.4 C 5.37 g/m*3 3.4 C 4.8 km/h
913 14-01-2021 04:00:00 3.4 C 5.37 g/m*3 3.4 C 4.8 km/h
914 14-01-2021 04:05:00 3.4 C 5.37 g/m*3 3.4 C 3.2 km/h
915 14-01-2021 04:10:00 3.4 C 5.37 g/m*3 3.4 C 1.6 km/h
916 14-01-2021 04:15:00 3.4 C 5.37 g/m*3 1.75 C 6.4 km/h
917 14-01-2021 04:20:00 3.4 C 5.37 g/m*3 3.4 C 3.2 km/h
918 14-01-2021 04:25:00 3.4 C 5.37 g/m*3 1.23 C 8.1 km/h
919 14-01-2021 04:30:00 3.3 C 5.28 g/m*3 1.11 C 8.1 km/h
920 14-01-2021 04:35:00 3.2 C 5.12 g/m*3 0.99 C 8.1 km/h
921 14-01-2021 04:40:00 3.2 C 5 g/m*3 0.22 C 11.3 km/h
922 14-01-2021 04:45:00 3.1 C 4.91 g/m*3 0.46 C 9.7 km/h
923 14-01-2021 04:50:00 3.1 C 4.91 g/m*3 1.4 C 6.4 km/h
924 14-01-2021 04:55:00 3 C 4.88 g/m*3 1.28 C 6.4 km/h
925 14-01-2021 05:00:00 2.9 C 4.84 g/m*3 1.17 C 6.4 km/h
Sensor: Nr:Datum:Temp:Abs-Feuchte:Windchill:Wind:
Aussen-T/F 926 14-01-2021 05:05:00 2.9 C 4.84 g/m*3 2.9 C 3.2 km/h
927 14-01-2021 05:10:00 2.8 C 4.75 g/m*3 2.8 C 4.8 km/h
928 14-01-2021 05:15:00 2.7 C 4.78 g/m*3 2.7 C 1.6 km/h
929 14-01-2021 05:20:00 2.7 C 4.78 g/m*3 2.7 C 1.6 km/h
930 14-01-2021 05:25:00 2.6 C 4.69 g/m*3 0.82 C 6.4 km/h
931 14-01-2021 05:30:00 2.5 C 4.6 g/m*3 0.17 C 8.1 km/h
932 14-01-2021 05:35:00 2.6 C 4.69 g/m*3 2.6 C 4.8 km/h
933 14-01-2021 05:40:00 2.5 C 4.66 g/m*3 2.5 C 1.6 km/h
934 14-01-2021 05:45:00 2.4 C 4.62 g/m*3 2.4 C 3.2 km/h
935 14-01-2021 05:50:00 2.4 C 4.62 g/m*3 2.4 C 3.2 km/h
936 14-01-2021 05:55:00 2.4 C 4.68 g/m*3 2.4 C 0 km/h
937 14-01-2021 06:00:00 2.4 C 4.68 g/m*3 2.4 C 0 km/h
938 14-01-2021 06:05:00 2.4 C 4.74 g/m*3 2.4 C 0 km/h
939 14-01-2021 06:10:00 2.3 C 4.71 g/m*3 2.3 C 0 km/h
940 14-01-2021 06:15:00 2.3 C 4.76 g/m*3 2.3 C 1.6 km/h
941 14-01-2021 06:20:00 2.2 C 4.73 g/m*3 2.2 C 1.6 km/h
942 14-01-2021 06:25:00 2.1 C 4.76 g/m*3 2.1 C 0 km/h
943 14-01-2021 06:30:00 2 C 4.78 g/m*3 2 C 0 km/h
944 14-01-2021 06:35:00 1.9 C 4.75 g/m*3 1.9 C 0 km/h
945 14-01-2021 06:40:00 1.8 C 4.71 g/m*3 1.8 C 1.6 km/h
946 14-01-2021 06:45:00 1.8 C 4.66 g/m*3 1.8 C 1.6 km/h
947 14-01-2021 06:50:00 1.7 C 4.68 g/m*3 1.7 C 1.6 km/h
948 14-01-2021 06:55:00 1.7 C 4.63 g/m*3 1.7 C 0 km/h
949 14-01-2021 07:00:00 1.7 C 4.63 g/m*3 1.7 C 4.8 km/h
950 14-01-2021 07:05:00 1.7 C 4.63 g/m*3 1.7 C 0 km/h
Sensor: Nr:Datum:Temp:Abs-Feuchte:Windchill:Wind:
Aussen-T/F 951 14-01-2021 07:10:00 1.7 C 4.68 g/m*3 1.7 C 1.6 km/h
952 14-01-2021 07:15:00 1.6 C 4.65 g/m*3 1.6 C 0 km/h
953 14-01-2021 07:20:00 1.6 C 4.65 g/m*3 1.6 C 0 km/h
954 14-01-2021 07:25:00 1.5 C 4.62 g/m*3 1.5 C 0 km/h
955 14-01-2021 07:30:00 1.4 C 4.59 g/m*3 1.4 C 0 km/h
956 14-01-2021 07:35:00 1.4 C 4.64 g/m*3 1.4 C 0 km/h
957 14-01-2021 07:40:00 1.4 C 4.59 g/m*3 1.4 C 0 km/h
958 14-01-2021 07:45:00 1.4 C 4.64 g/m*3 1.4 C 0 km/h
959 14-01-2021 07:50:00 1.4 C 4.64 g/m*3 1.4 C 1.6 km/h
960 14-01-2021 07:55:00 1.4 C 4.59 g/m*3 1.4 C 0 km/h
961 14-01-2021 08:00:00 1.4 C 4.59 g/m*3 1.4 C 4.8 km/h
962 14-01-2021 08:05:00 1.4 C 4.59 g/m*3 1.4 C 1.6 km/h
963 14-01-2021 08:10:00 1.4 C 4.59 g/m*3 1.4 C 0 km/h
964 14-01-2021 08:15:00 1.4 C 4.59 g/m*3 1.4 C 0 km/h
965 14-01-2021 08:20:00 1.4 C 4.59 g/m*3 1.4 C 0 km/h
966 14-01-2021 08:25:00 1.4 C 4.64 g/m*3 1.4 C 0 km/h
967 14-01-2021 08:30:00 1.4 C 4.64 g/m*3 1.4 C 0 km/h
968 14-01-2021 08:35:00 1.4 C 4.64 g/m*3 1.4 C 0 km/h
969 14-01-2021 08:40:00 1.3 C 4.61 g/m*3 1.3 C 1.6 km/h
970 14-01-2021 08:45:00 1.3 C 4.61 g/m*3 1.3 C 0 km/h
971 14-01-2021 08:50:00 1.3 C 4.61 g/m*3 1.3 C 3.2 km/h
972 14-01-2021 08:55:00 1.3 C 4.61 g/m*3 1.3 C 0 km/h
973 14-01-2021 09:00:00 1.3 C 4.66 g/m*3 1.3 C 0 km/h
974 14-01-2021 09:05:00 1.3 C 4.66 g/m*3 1.3 C 0 km/h
975 14-01-2021 09:10:00 1.3 C 4.66 g/m*3 1.3 C 0 km/h
Sensor: Nr:Datum:Temp:Abs-Feuchte:Windchill:Wind:
Aussen-T/F 976 14-01-2021 09:15:00 1.3 C 4.66 g/m*3 1.3 C 0 km/h
977 14-01-2021 09:20:00 1.3 C 4.66 g/m*3 1.3 C 0 km/h
978 14-01-2021 09:25:00 1.3 C 4.72 g/m*3 1.3 C 0 km/h
979 14-01-2021 09:30:00 1.4 C 4.75 g/m*3 1.4 C 0 km/h
980 14-01-2021 09:35:00 1.4 C 4.75 g/m*3 1.4 C 1.6 km/h
981 14-01-2021 09:40:00 1.4 C 4.75 g/m*3 1.4 C 0 km/h
982 14-01-2021 09:45:00 1.4 C 4.75 g/m*3 1.4 C 0 km/h
983 14-01-2021 09:50:00 1.5 C 4.78 g/m*3 1.5 C 0 km/h
984 14-01-2021 09:55:00 1.6 C 4.81 g/m*3 1.6 C 0 km/h
985 14-01-2021 10:00:00 1.6 C 4.81 g/m*3 1.6 C 0 km/h
986 14-01-2021 10:05:00 1.6 C 4.81 g/m*3 1.6 C 0 km/h
987 14-01-2021 10:10:00 1.7 C 4.85 g/m*3 1.7 C 0 km/h
988 14-01-2021 10:15:00 1.8 C 4.88 g/m*3 1.8 C 0 km/h
989 14-01-2021 10:20:00 1.8 C 4.82 g/m*3 1.8 C 0 km/h
990 14-01-2021 10:25:00 1.8 C 4.82 g/m*3 1.8 C 0 km/h
991 14-01-2021 10:30:00 1.9 C 4.8 g/m*3 1.9 C 0 km/h
992 14-01-2021 10:35:00 2 C 4.78 g/m*3 2 C 0 km/h
993 14-01-2021 10:40:00 2.1 C 4.76 g/m*3 2.1 C 1.6 km/h
994 14-01-2021 10:45:00 2.1 C 4.76 g/m*3 2.1 C 1.6 km/h
995 14-01-2021 10:50:00 2.2 C 4.73 g/m*3 2.2 C 1.6 km/h
996 14-01-2021 10:55:00 2.3 C 4.76 g/m*3 2.3 C 1.6 km/h
997 14-01-2021 11:00:00 2.3 C 4.76 g/m*3 2.3 C 1.6 km/h
998 14-01-2021 11:05:00 2.3 C 4.71 g/m*3 0.47 C 6.4 km/h
999 14-01-2021 11:10:00 2.3 C 4.71 g/m*3 0.47 C 6.4 km/h
1000 14-01-2021 11:15:00 2.4 C 4.74 g/m*3 2.4 C 4.8 km/h
Sensor: Nr:Datum:Temp:Abs-Feuchte:Windchill:Wind:
Aussen-T/F 1001 14-01-2021 11:20:00 2.4 C 4.74 g/m*3 2.4 C 3.2 km/h
1002 14-01-2021 11:25:00 2.4 C 4.68 g/m*3 2.4 C 4.8 km/h
1003 14-01-2021 11:30:00 2.4 C 4.68 g/m*3 0.59 C 6.4 km/h
1004 14-01-2021 11:35:00 2.5 C 4.71 g/m*3 2.5 C 4.8 km/h
1005 14-01-2021 11:40:00 2.4 C 4.68 g/m*3 2.4 C 4.8 km/h
1006 14-01-2021 11:45:00 2.5 C 4.71 g/m*3 0.71 C 6.4 km/h
1007 14-01-2021 11:50:00 2.6 C 4.75 g/m*3 0.82 C 6.4 km/h
1008 14-01-2021 11:55:00 2.6 C 4.75 g/m*3 0.29 C 8.1 km/h
1009 14-01-2021 12:00:00 2.5 C 4.6 g/m*3 0.71 C 6.4 km/h
1010 14-01-2021 12:05:00 2.5 C 4.66 g/m*3 0.71 C 6.4 km/h
1011 14-01-2021 12:10:00 2.6 C 4.69 g/m*3 2.6 C 4.8 km/h
1012 14-01-2021 12:15:00 2.6 C 4.63 g/m*3 0.82 C 6.4 km/h
1013 14-01-2021 12:20:00 2.6 C 4.63 g/m*3 0.29 C 8.1 km/h
1014 14-01-2021 12:25:00 2.6 C 4.63 g/m*3 0.82 C 6.4 km/h
1015 14-01-2021 12:30:00 2.6 C 4.63 g/m*3 0.82 C 6.4 km/h
1016 14-01-2021 12:35:00 2.6 C 4.63 g/m*3 0.29 C 8.1 km/h
1017 14-01-2021 12:40:00 2.7 C 4.66 g/m*3 2.7 C 4.8 km/h
1018 14-01-2021 12:45:00 2.7 C 4.66 g/m*3 2.7 C 4.8 km/h
1019 14-01-2021 12:50:00 2.7 C 4.72 g/m*3 2.7 C 4.8 km/h
1020 14-01-2021 12:55:00 2.8 C 4.69 g/m*3 1.05 C 6.4 km/h
1021 14-01-2021 13:00:00 2.8 C 4.69 g/m*3 2.8 C 3.2 km/h
1022 14-01-2021 13:05:00 2.8 C 4.69 g/m*3 1.05 C 6.4 km/h
1023 14-01-2021 13:10:00 2.8 C 4.69 g/m*3 1.05 C 6.4 km/h
1024 14-01-2021 13:15:00 2.9 C 4.72 g/m*3 2.9 C 3.2 km/h
1025 14-01-2021 13:20:00 2.9 C 4.67 g/m*3 0.64 C 8.1 km/h
Sensor: Nr:Datum:Temp:Abs-Feuchte:Windchill:Wind:
Aussen-T/F 1026 14-01-2021 13:25:00 2.9 C 4.67 g/m*3 0.64 C 8.1 km/h
1027 14-01-2021 13:30:00 2.9 C 4.67 g/m*3 1.17 C 6.4 km/h
1028 14-01-2021 13:35:00 3 C 4.7 g/m*3 0.76 C 8.1 km/h
1029 14-01-2021 13:40:00 3.1 C 4.73 g/m*3 3.1 C 4.8 km/h
1030 14-01-2021 13:45:00 3.1 C 4.67 g/m*3 0.87 C 8.1 km/h
1031 14-01-2021 13:50:00 3.1 C 4.67 g/m*3 1.4 C 6.4 km/h
1032 14-01-2021 13:55:00 3.1 C 4.67 g/m*3 1.4 C 6.4 km/h
1033 14-01-2021 14:00:00 3.1 C 4.67 g/m*3 1.4 C 6.4 km/h
1034 14-01-2021 14:05:00 3.1 C 4.67 g/m*3 3.1 C 4.8 km/h
1035 14-01-2021 14:10:00 3.1 C 4.67 g/m*3 3.1 C 3.2 km/h
1036 14-01-2021 14:15:00 3.1 C 4.73 g/m*3 3.1 C 4.8 km/h
1037 14-01-2021 14:20:00 3.1 C 4.67 g/m*3 3.1 C 3.2 km/h
1038 14-01-2021 14:25:00 3.1 C 4.67 g/m*3 3.1 C 1.6 km/h
1039 14-01-2021 14:30:00 3.1 C 4.67 g/m*3 3.1 C 3.2 km/h
1040 14-01-2021 14:35:00 3.1 C 4.67 g/m*3 3.1 C 0 km/h
1041 14-01-2021 14:40:00 3.2 C 4.7 g/m*3 3.2 C 1.6 km/h
1042 14-01-2021 14:45:00 3.1 C 4.61 g/m*3 3.1 C 4.8 km/h
1043 14-01-2021 14:50:00 3.1 C 4.61 g/m*3 3.1 C 4.8 km/h
1044 14-01-2021 14:55:00 3.2 C 4.7 g/m*3 3.2 C 1.6 km/h
1045 14-01-2021 15:00:00 3.2 C 4.7 g/m*3 3.2 C 0 km/h
1046 14-01-2021 15:05:00 3.2 C 4.7 g/m*3 1.51 C 6.4 km/h
1047 14-01-2021 15:10:00 3.1 C 4.67 g/m*3 3.1 C 3.2 km/h
1048 14-01-2021 15:15:00 3.1 C 4.67 g/m*3 3.1 C 1.6 km/h
1049 14-01-2021 15:20:00 3.1 C 4.67 g/m*3 3.1 C 1.6 km/h
1050 14-01-2021 15:25:00 3.1 C 4.73 g/m*3 3.1 C 1.6 km/h
Sensor: Nr:Datum:Temp:Abs-Feuchte:Windchill:Wind:
Aussen-T/F 1051 14-01-2021 15:30:00 3.1 C 4.67 g/m*3 3.1 C 1.6 km/h
1052 14-01-2021 15:35:00 3.1 C 4.73 g/m*3 3.1 C 3.2 km/h
1053 14-01-2021 15:40:00 3.1 C 4.73 g/m*3 3.1 C 4.8 km/h
1054 14-01-2021 15:45:00 3 C 4.7 g/m*3 3 C 1.6 km/h
1055 14-01-2021 15:50:00 3 C 4.7 g/m*3 3 C 0 km/h
1056 14-01-2021 15:55:00 3 C 4.76 g/m*3 3 C 0 km/h
1057 14-01-2021 16:00:00 3 C 4.76 g/m*3 3 C 0 km/h
1058 14-01-2021 16:05:00 3 C 4.82 g/m*3 3 C 0 km/h
1059 14-01-2021 16:10:00 2.9 C 4.84 g/m*3 2.9 C 0 km/h
1060 14-01-2021 16:15:00 2.9 C 4.78 g/m*3 2.9 C 1.6 km/h
1061 14-01-2021 16:20:00 2.8 C 4.81 g/m*3 2.8 C 0 km/h
1062 14-01-2021 16:25:00 2.7 C 4.78 g/m*3 2.7 C 0 km/h
1063 14-01-2021 16:30:00 2.7 C 4.78 g/m*3 2.7 C 0 km/h
1064 14-01-2021 16:35:00 2.6 C 4.8 g/m*3 2.6 C 0 km/h
1065 14-01-2021 16:40:00 2.4 C 4.74 g/m*3 2.4 C 0 km/h
1066 14-01-2021 16:45:00 2.3 C 4.71 g/m*3 2.3 C 0 km/h
1067 14-01-2021 16:50:00 2.2 C 4.68 g/m*3 2.2 C 0 km/h
1068 14-01-2021 16:55:00 2.1 C 4.7 g/m*3 2.1 C 0 km/h
1069 14-01-2021 17:00:00 1.9 C 4.64 g/m*3 1.9 C 0 km/h
1070 14-01-2021 17:05:00 1.8 C 4.66 g/m*3 1.8 C 0 km/h
1071 14-01-2021 17:10:00 1.7 C 4.63 g/m*3 1.7 C 0 km/h
1072 14-01-2021 17:15:00 1.6 C 4.65 g/m*3 1.6 C 0 km/h
1073 14-01-2021 17:20:00 1.4 C 4.59 g/m*3 1.4 C 0 km/h
1074 14-01-2021 17:25:00 1.3 C 4.56 g/m*3 1.3 C 1.6 km/h
1075 14-01-2021 17:30:00 1.2 C 4.58 g/m*3 1.2 C 0 km/h
Sensor: Nr:Datum:Temp:Abs-Feuchte:Windchill:Wind:
Aussen-T/F 1076 14-01-2021 17:35:00 1.2 C 4.58 g/m*3 1.2 C 1.6 km/h
1077 14-01-2021 17:40:00 1.1 C 4.6 g/m*3 1.1 C 1.6 km/h
1078 14-01-2021 17:45:00 1.1 C 4.6 g/m*3 1.1 C 0 km/h
1079 14-01-2021 17:50:00 1.1 C 4.6 g/m*3 1.1 C 4.8 km/h
1080 14-01-2021 17:55:00 1 C 4.57 g/m*3 1 C 3.2 km/h
1081 14-01-2021 18:00:00 1 C 4.57 g/m*3 1 C 0 km/h
1082 14-01-2021 18:05:00 0.9 C 4.54 g/m*3 0.9 C 0 km/h
1083 14-01-2021 18:10:00 0.9 C 4.54 g/m*3 -1.14 C 6.4 km/h
1084 14-01-2021 18:15:00 1 C 4.57 g/m*3 1 C 3.2 km/h
1085 14-01-2021 18:20:00 1 C 4.57 g/m*3 1 C 4.8 km/h
1086 14-01-2021 18:25:00 1 C 4.57 g/m*3 1 C 1.6 km/h
1087 14-01-2021 18:30:00 1 C 4.57 g/m*3 1 C 0 km/h
1088 14-01-2021 18:35:00 0.9 C 4.54 g/m*3 0.9 C 0 km/h
1089 14-01-2021 18:40:00 0.9 C 4.54 g/m*3 0.9 C 0 km/h
1090 14-01-2021 18:45:00 0.8 C 4.51 g/m*3 0.8 C 0 km/h
1091 14-01-2021 18:50:00 0.7 C 4.47 g/m*3 0.7 C 1.6 km/h
1092 14-01-2021 18:55:00 0.6 C 4.44 g/m*3 0.6 C 3.2 km/h
1093 14-01-2021 19:00:00 0.5 C 4.41 g/m*3 0.5 C 4.8 km/h
1094 14-01-2021 19:05:00 0.4 C 4.38 g/m*3 0.4 C 0 km/h
1095 14-01-2021 19:10:00 0.4 C 4.43 g/m*3 0.4 C 0 km/h
1096 14-01-2021 19:15:00 0.3 C 4.4 g/m*3 0.3 C 0 km/h
1097 14-01-2021 19:20:00 0.3 C 4.4 g/m*3 0.3 C 0 km/h
1098 14-01-2021 19:25:00 0.2 C 4.42 g/m*3 0.2 C 0 km/h
1099 14-01-2021 19:30:00 0.2 C 4.42 g/m*3 0.2 C 0 km/h
1100 14-01-2021 19:35:00 0.2 C 4.42 g/m*3 0.2 C 1.6 km/h
Sensor: Nr:Datum:Temp:Abs-Feuchte:Windchill:Wind:
Aussen-T/F 1101 14-01-2021 19:40:00 0.2 C 4.42 g/m*3 0.2 C 0 km/h
1102 14-01-2021 19:45:00 0.2 C 4.42 g/m*3 0.2 C 1.6 km/h
1103 14-01-2021 19:50:00 0.2 C 4.42 g/m*3 0.2 C 3.2 km/h
1104 14-01-2021 19:55:00 0.2 C 4.42 g/m*3 0.2 C 1.6 km/h
1105 14-01-2021 20:00:00 0.2 C 4.47 g/m*3 0.2 C 1.6 km/h
1106 14-01-2021 20:05:00 0.2 C 4.47 g/m*3 0.2 C 0 km/h
1107 14-01-2021 20:10:00 0.2 C 4.47 g/m*3 0.2 C 1.6 km/h
1108 14-01-2021 20:15:00 0.2 C 4.47 g/m*3 0.2 C 1.6 km/h
1109 14-01-2021 20:20:00 0.2 C 4.47 g/m*3 0.2 C 0 km/h
1110 14-01-2021 20:25:00 0.2 C 4.47 g/m*3 0.2 C 0 km/h
1111 14-01-2021 20:30:00 0.1 C 4.44 g/m*3 0.1 C 0 km/h
1112 14-01-2021 20:35:00 0.1 C 4.44 g/m*3 0.1 C 1.6 km/h
1113 14-01-2021 20:40:00 0.1 C 4.44 g/m*3 0.1 C 3.2 km/h
1114 14-01-2021 20:45:00 0.1 C 4.44 g/m*3 0.1 C 0 km/h
1115 14-01-2021 20:50:00 0.1 C 4.44 g/m*3 -3.52 C 11.3 km/h
1116 14-01-2021 20:55:00 0.2 C 4.47 g/m*3 0.2 C 1.6 km/h
1117 14-01-2021 21:00:00 0.2 C 4.42 g/m*3 0.2 C 1.6 km/h
1118 14-01-2021 21:05:00 0.2 C 4.42 g/m*3 0.2 C 4.8 km/h
1119 14-01-2021 21:10:00 0.2 C 4.42 g/m*3 0.2 C 1.6 km/h
1120 14-01-2021 21:15:00 0.2 C 4.42 g/m*3 0.2 C 0 km/h
1121 14-01-2021 21:20:00 0.2 C 4.42 g/m*3 0.2 C 1.6 km/h
1122 14-01-2021 21:25:00 0.2 C 4.42 g/m*3 0.2 C 0 km/h
1123 14-01-2021 21:30:00 0.1 C 4.39 g/m*3 0.1 C 1.6 km/h
1124 14-01-2021 21:35:00 0.1 C 4.39 g/m*3 0.1 C 0 km/h
1125 14-01-2021 21:40:00 0 C 4.36 g/m*3 0 C 0 km/h
Sensor: Nr:Datum:Temp:Abs-Feuchte:Windchill:Wind:
Aussen-T/F 1126 14-01-2021 21:45:00 -0.1 C 4.33 g/m*3 -0.1 C 0 km/h
1127 14-01-2021 21:50:00 -0.1 C 4.33 g/m*3 -0.1 C 1.6 km/h
1128 14-01-2021 21:55:00 -0.2 C 4.3 g/m*3 -0.2 C 0 km/h
1129 14-01-2021 22:00:00 -0.2 C 4.3 g/m*3 -0.2 C 0 km/h
1130 14-01-2021 22:05:00 -0.3 C 4.27 g/m*3 -0.3 C 0 km/h
1131 14-01-2021 22:10:00 -0.3 C 4.27 g/m*3 -0.3 C 3.2 km/h
1132 14-01-2021 22:15:00 -0.3 C 4.27 g/m*3 -0.3 C 1.6 km/h
1133 14-01-2021 22:20:00 -0.3 C 4.27 g/m*3 -0.3 C 1.6 km/h
1134 14-01-2021 22:25:00 -0.3 C 4.27 g/m*3 -0.3 C 0 km/h
1135 14-01-2021 22:30:00 -0.3 C 4.27 g/m*3 -0.3 C 1.6 km/h
1136 14-01-2021 22:35:00 -0.4 C 4.24 g/m*3 -0.4 C 0 km/h
1137 14-01-2021 22:40:00 -0.4 C 4.24 g/m*3 -0.4 C 1.6 km/h
1138 14-01-2021 22:45:00 -0.5 C 4.21 g/m*3 -0.5 C 0 km/h
1139 14-01-2021 22:50:00 -0.6 C 4.18 g/m*3 -0.6 C 1.6 km/h
1140 14-01-2021 22:55:00 -0.6 C 4.18 g/m*3 -0.6 C 1.6 km/h
1141 14-01-2021 23:00:00 -0.6 C 4.18 g/m*3 -0.6 C 3.2 km/h
1142 14-01-2021 23:05:00 -0.7 C 4.15 g/m*3 -0.7 C 1.6 km/h
1143 14-01-2021 23:10:00 -0.7 C 4.15 g/m*3 -0.7 C 1.6 km/h
1144 14-01-2021 23:15:00 -0.7 C 4.15 g/m*3 -0.7 C 1.6 km/h
1145 14-01-2021 23:20:00 -0.7 C 4.15 g/m*3 -0.7 C 4.8 km/h
1146 14-01-2021 23:25:00 -0.7 C 4.15 g/m*3 -0.7 C 3.2 km/h
1147 14-01-2021 23:30:00 -0.7 C 4.15 g/m*3 -0.7 C 1.6 km/h
1148 14-01-2021 23:35:00 -0.7 C 4.15 g/m*3 -0.7 C 0 km/h
1149 14-01-2021 23:40:00 -0.7 C 4.15 g/m*3 -0.7 C 1.6 km/h
1150 14-01-2021 23:45:00 -0.7 C 4.15 g/m*3 -0.7 C 0 km/h
Sensor: Nr:Datum:Temp:Abs-Feuchte:Windchill:Wind:
Aussen-T/F 1151 14-01-2021 23:50:00 -0.8 C 4.13 g/m*3 -0.8 C 1.6 km/h
1152 14-01-2021 23:55:00 -0.8 C 4.13 g/m*3 -0.8 C 3.2 km/h
1153 15-01-2021 00:00:00 -0.9 C 4.1 g/m*3 -0.9 C 1.6 km/h
1154 15-01-2021 00:05:00 -0.9 C 4.1 g/m*3 -0.9 C 1.6 km/h
1155 15-01-2021 00:10:00 -0.9 C 4.1 g/m*3 -0.9 C 1.6 km/h
1156 15-01-2021 00:15:00 -0.9 C 4.1 g/m*3 -0.9 C 0 km/h
1157 15-01-2021 00:20:00 -0.9 C 4.1 g/m*3 -0.9 C 0 km/h
1158 15-01-2021 00:25:00 -1.1 C 4.04 g/m*3 -1.1 C 1.6 km/h
1159 15-01-2021 00:30:00 -1.1 C 4.04 g/m*3 -1.1 C 1.6 km/h
1160 15-01-2021 00:35:00 -1.1 C 4.04 g/m*3 -1.1 C 0 km/h
1161 15-01-2021 00:40:00 -1.2 C 4.01 g/m*3 -1.2 C 0 km/h
1162 15-01-2021 00:45:00 -1.2 C 4.01 g/m*3 -1.2 C 0 km/h
1163 15-01-2021 00:50:00 -1.2 C 4.06 g/m*3 -1.2 C 1.6 km/h
1164 15-01-2021 00:55:00 -1.3 C 4.03 g/m*3 -1.3 C 0 km/h
1165 15-01-2021 01:00:00 -1.3 C 4.03 g/m*3 -1.3 C 3.2 km/h
1166 15-01-2021 01:05:00 -1.3 C 4.03 g/m*3 -1.3 C 1.6 km/h
1167 15-01-2021 01:10:00 -1.4 C 4 g/m*3 -1.4 C 1.6 km/h
1168 15-01-2021 01:15:00 -1.4 C 3.96 g/m*3 -1.4 C 0 km/h
1169 15-01-2021 01:20:00 -1.5 C 3.97 g/m*3 -1.5 C 0 km/h
1170 15-01-2021 01:25:00 -1.6 C 3.94 g/m*3 -1.6 C 1.6 km/h
1171 15-01-2021 01:30:00 -1.6 C 3.94 g/m*3 -1.6 C 1.6 km/h
1172 15-01-2021 01:35:00 -1.6 C 3.94 g/m*3 -1.6 C 0 km/h
1173 15-01-2021 01:40:00 -1.7 C 3.92 g/m*3 -1.7 C 0 km/h
1174 15-01-2021 01:45:00 -1.7 C 3.92 g/m*3 -1.7 C 0 km/h
1175 15-01-2021 01:50:00 -1.7 C 3.92 g/m*3 -1.7 C 0 km/h
Sensor: Nr:Datum:Temp:Abs-Feuchte:Windchill:Wind:
Aussen-T/F 1176 15-01-2021 01:55:00 -1.8 C 3.89 g/m*3 -1.8 C 0 km/h
1177 15-01-2021 02:00:00 -1.8 C 3.89 g/m*3 -1.8 C 0 km/h
1178 15-01-2021 02:05:00 -1.8 C 3.89 g/m*3 -1.8 C 0 km/h
1179 15-01-2021 02:10:00 -1.9 C 3.86 g/m*3 -1.9 C 0 km/h
1180 15-01-2021 02:15:00 -1.9 C 3.86 g/m*3 -1.9 C 0 km/h
1181 15-01-2021 02:20:00 -2 C 3.84 g/m*3 -2 C 3.2 km/h
1182 15-01-2021 02:25:00 -2.1 C 3.81 g/m*3 -2.1 C 3.2 km/h
1183 15-01-2021 02:30:00 -2.1 C 3.81 g/m*3 -2.1 C 1.6 km/h
1184 15-01-2021 02:35:00 -2.1 C 3.81 g/m*3 -2.1 C 0 km/h
1185 15-01-2021 02:40:00 -2.1 C 3.81 g/m*3 -2.1 C 0 km/h
1186 15-01-2021 02:45:00 -2.2 C 3.78 g/m*3 -2.2 C 0 km/h
1187 15-01-2021 02:50:00 -2.2 C 3.78 g/m*3 -2.2 C 0 km/h
1188 15-01-2021 02:55:00 -2.3 C 3.76 g/m*3 -2.3 C 0 km/h
1189 15-01-2021 03:00:00 -2.3 C 3.8 g/m*3 -2.3 C 0 km/h
1190 15-01-2021 03:05:00 -2.2 C 3.82 g/m*3 -2.2 C 0 km/h
1191 15-01-2021 03:10:00 -2.3 C 3.8 g/m*3 -2.3 C 0 km/h
1192 15-01-2021 03:15:00 -2.3 C 3.8 g/m*3 -2.3 C 0 km/h
1193 15-01-2021 03:20:00 -2.3 C 3.8 g/m*3 -2.3 C 0 km/h
1194 15-01-2021 03:25:00 -2.4 C 3.77 g/m*3 -2.4 C 0 km/h
1195 15-01-2021 03:30:00 -2.4 C 3.77 g/m*3 -2.4 C 0 km/h
1196 15-01-2021 03:35:00 -2.5 C 3.74 g/m*3 -2.5 C 0 km/h
1197 15-01-2021 03:40:00 -2.6 C 3.72 g/m*3 -2.6 C 0 km/h
1198 15-01-2021 03:45:00 -2.6 C 3.72 g/m*3 -2.6 C 0 km/h
1199 15-01-2021 03:50:00 -2.6 C 3.72 g/m*3 -2.6 C 0 km/h
1200 15-01-2021 03:55:00 -2.6 C 3.76 g/m*3 -2.6 C 1.6 km/h
Sensor: Nr:Datum:Temp:Abs-Feuchte:Windchill:Wind:
Aussen-T/F 1201 15-01-2021 04:00:00 -2.6 C 3.76 g/m*3 -2.6 C 0 km/h
1202 15-01-2021 04:05:00 -2.5 C 3.78 g/m*3 -2.5 C 3.2 km/h
1203 15-01-2021 04:10:00 -2.4 C 3.81 g/m*3 -2.4 C 1.6 km/h
1204 15-01-2021 04:15:00 -2.4 C 3.81 g/m*3 -2.4 C 0 km/h
1205 15-01-2021 04:20:00 -2.3 C 3.84 g/m*3 -2.3 C 0 km/h
1206 15-01-2021 04:25:00 -2.3 C 3.84 g/m*3 -2.3 C 0 km/h
1207 15-01-2021 04:30:00 -2.3 C 3.84 g/m*3 -2.3 C 0 km/h
1208 15-01-2021 04:35:00 -2.2 C 3.87 g/m*3 -2.2 C 0 km/h
1209 15-01-2021 04:40:00 -2.2 C 3.87 g/m*3 -2.2 C 0 km/h
1210 15-01-2021 04:45:00 -2.1 C 3.89 g/m*3 -2.1 C 0 km/h
1211 15-01-2021 04:50:00 -2 C 3.92 g/m*3 -2 C 0 km/h
1212 15-01-2021 04:55:00 -1.9 C 3.95 g/m*3 -1.9 C 0 km/h
1213 15-01-2021 05:00:00 -1.9 C 3.95 g/m*3 -1.9 C 0 km/h
1214 15-01-2021 05:05:00 -1.8 C 3.98 g/m*3 -1.8 C 0 km/h
1215 15-01-2021 05:10:00 -1.8 C 3.98 g/m*3 -1.8 C 0 km/h
1216 15-01-2021 05:15:00 -1.7 C 4 g/m*3 -1.7 C 0 km/h
1217 15-01-2021 05:20:00 -1.7 C 4 g/m*3 -1.7 C 0 km/h
1218 15-01-2021 05:25:00 -1.7 C 4 g/m*3 -1.7 C 0 km/h
1219 15-01-2021 05:30:00 -1.6 C 4.03 g/m*3 -1.6 C 0 km/h
1220 15-01-2021 05:35:00 -1.6 C 4.03 g/m*3 -1.6 C 0 km/h
1221 15-01-2021 05:40:00 -1.6 C 4.03 g/m*3 -1.6 C 0 km/h
1222 15-01-2021 05:45:00 -1.6 C 3.99 g/m*3 -1.6 C 0 km/h
1223 15-01-2021 05:50:00 -1.5 C 4.02 g/m*3 -1.5 C 0 km/h
1224 15-01-2021 05:55:00 -1.4 C 4.04 g/m*3 -1.4 C 0 km/h
1225 15-01-2021 06:00:00 -1.4 C 4.04 g/m*3 -1.4 C 0 km/h
Sensor: Nr:Datum:Temp:Abs-Feuchte:Windchill:Wind:
Aussen-T/F 1226 15-01-2021 06:05:00 -1.4 C 4.04 g/m*3 -1.4 C 0 km/h
1227 15-01-2021 06:10:00 -1.3 C 4.07 g/m*3 -1.3 C 0 km/h
1228 15-01-2021 06:15:00 -1.3 C 4.07 g/m*3 -1.3 C 0 km/h
1229 15-01-2021 06:20:00 -1.2 C 4.1 g/m*3 -1.2 C 0 km/h
1230 15-01-2021 06:25:00 -1.2 C 4.1 g/m*3 -1.2 C 0 km/h
1231 15-01-2021 06:30:00 -1.2 C 4.1 g/m*3 -1.2 C 0 km/h
1232 15-01-2021 06:35:00 -1.1 C 4.13 g/m*3 -1.1 C 0 km/h
1233 15-01-2021 06:40:00 -1.1 C 4.09 g/m*3 -1.1 C 0 km/h
1234 15-01-2021 06:45:00 -1 C 4.16 g/m*3 -1 C 0 km/h
1235 15-01-2021 06:50:00 -0.9 C 4.14 g/m*3 -0.9 C 0 km/h
1236 15-01-2021 06:55:00 -0.9 C 4.14 g/m*3 -0.9 C 0 km/h
1237 15-01-2021 07:00:00 -0.9 C 4.14 g/m*3 -0.9 C 0 km/h
1238 15-01-2021 07:05:00 -0.9 C 4.14 g/m*3 -0.9 C 0 km/h
1239 15-01-2021 07:10:00 -0.8 C 4.17 g/m*3 -0.8 C 0 km/h
1240 15-01-2021 07:15:00 -0.8 C 4.17 g/m*3 -0.8 C 0 km/h
1241 15-01-2021 07:20:00 -0.8 C 4.17 g/m*3 -0.8 C 0 km/h
1242 15-01-2021 07:25:00 -0.8 C 4.17 g/m*3 -0.8 C 0 km/h
1243 15-01-2021 07:30:00 -0.8 C 4.17 g/m*3 -0.8 C 0 km/h
1244 15-01-2021 07:35:00 -0.8 C 4.17 g/m*3 -0.8 C 0 km/h
1245 15-01-2021 07:40:00 -0.8 C 4.17 g/m*3 -0.8 C 0 km/h
1246 15-01-2021 07:45:00 -0.8 C 4.17 g/m*3 -0.8 C 0 km/h
1247 15-01-2021 07:50:00 -0.8 C 4.17 g/m*3 -0.8 C 0 km/h
1248 15-01-2021 07:55:00 -0.8 C 4.17 g/m*3 -0.8 C 0 km/h
1249 15-01-2021 08:00:00 -0.7 C 4.2 g/m*3 -0.7 C 0 km/h
1250 15-01-2021 08:05:00 -0.7 C 4.2 g/m*3 -0.7 C 0 km/h
Sensor: Nr:Datum:Temp:Abs-Feuchte:Windchill:Wind:
Aussen-T/F 1251 15-01-2021 08:10:00 -0.7 C 4.2 g/m*3 -0.7 C 0 km/h
1252 15-01-2021 08:15:00 -0.7 C 4.2 g/m*3 -0.7 C 0 km/h
1253 15-01-2021 08:20:00 -0.7 C 4.2 g/m*3 -0.7 C 0 km/h
1254 15-01-2021 08:25:00 -0.7 C 4.2 g/m*3 -0.7 C 0 km/h
1255 15-01-2021 08:30:00 -0.7 C 4.2 g/m*3 -0.7 C 0 km/h
1256 15-01-2021 08:35:00 -0.7 C 4.2 g/m*3 -0.7 C 0 km/h
1257 15-01-2021 08:40:00 -0.6 C 4.23 g/m*3 -0.6 C 0 km/h
1258 15-01-2021 08:45:00 -0.6 C 4.23 g/m*3 -0.6 C 0 km/h
1259 15-01-2021 08:50:00 -0.6 C 4.18 g/m*3 -0.6 C 0 km/h
1260 15-01-2021 08:55:00 -0.6 C 4.18 g/m*3 -0.6 C 0 km/h
1261 15-01-2021 09:00:00 -0.6 C 4.18 g/m*3 -0.6 C 0 km/h
1262 15-01-2021 09:05:00 -0.4 C 4.24 g/m*3 -0.4 C 0 km/h
1263 15-01-2021 09:10:00 -0.4 C 4.24 g/m*3 -0.4 C 0 km/h
1264 15-01-2021 09:15:00 -0.4 C 4.29 g/m*3 -0.4 C 0 km/h
1265 15-01-2021 09:20:00 -0.3 C 4.32 g/m*3 -0.3 C 0 km/h
1266 15-01-2021 09:25:00 -0.3 C 4.27 g/m*3 -0.3 C 0 km/h
1267 15-01-2021 09:30:00 -0.3 C 4.27 g/m*3 -0.3 C 0 km/h
1268 15-01-2021 09:35:00 -0.3 C 4.27 g/m*3 -0.3 C 0 km/h
1269 15-01-2021 09:40:00 -0.2 C 4.3 g/m*3 -0.2 C 0 km/h
1270 15-01-2021 09:45:00 -0.1 C 4.38 g/m*3 -0.1 C 0 km/h
1271 15-01-2021 09:50:00 -0.1 C 4.33 g/m*3 -0.1 C 0 km/h
1272 15-01-2021 09:55:00 0 C 4.36 g/m*3 0 C 0 km/h
1273 15-01-2021 10:00:00 0.1 C 4.39 g/m*3 0.1 C 0 km/h
1274 15-01-2021 10:05:00 0 C 4.36 g/m*3 0 C 0 km/h
1275 15-01-2021 10:10:00 0 C 4.36 g/m*3 0 C 0 km/h
Sensor: Nr:Datum:Temp:Abs-Feuchte:Windchill:Wind:
Aussen-T/F 1276 15-01-2021 10:15:00 -0.1 C 4.33 g/m*3 -0.1 C 0 km/h
1277 15-01-2021 10:20:00 -0.1 C 4.33 g/m*3 -0.1 C 0 km/h
1278 15-01-2021 10:25:00 -0.1 C 4.33 g/m*3 -0.1 C 0 km/h
1279 15-01-2021 10:30:00 -0.2 C 4.25 g/m*3 -0.2 C 0 km/h
1280 15-01-2021 10:35:00 -0.3 C 4.22 g/m*3 -0.3 C 0 km/h
1281 15-01-2021 10:40:00 -0.3 C 4.22 g/m*3 -0.3 C 1.6 km/h
1282 15-01-2021 10:45:00 -0.4 C 4.19 g/m*3 -0.4 C 0 km/h
1283 15-01-2021 10:50:00 -0.4 C 4.19 g/m*3 -0.4 C 1.6 km/h
1284 15-01-2021 10:55:00 -0.4 C 4.15 g/m*3 -0.4 C 1.6 km/h
1285 15-01-2021 11:00:00 -0.4 C 4.15 g/m*3 -0.4 C 3.2 km/h
1286 15-01-2021 11:05:00 -0.4 C 4.15 g/m*3 -0.4 C 4.8 km/h
1287 15-01-2021 11:10:00 -0.3 C 4.18 g/m*3 -0.3 C 1.6 km/h
1288 15-01-2021 11:15:00 -0.2 C 4.16 g/m*3 -0.2 C 4.8 km/h
1289 15-01-2021 11:20:00 0 C 4.17 g/m*3 0 C 3.2 km/h
1290 15-01-2021 11:25:00 0.1 C 4.2 g/m*3 0.1 C 4.8 km/h
1291 15-01-2021 11:30:00 0.2 C 4.18 g/m*3 0.2 C 3.2 km/h
1292 15-01-2021 11:35:00 0.2 C 4.22 g/m*3 0.2 C 3.2 km/h
1293 15-01-2021 11:40:00 0.2 C 4.18 g/m*3 0.2 C 3.2 km/h
1294 15-01-2021 11:45:00 0.3 C 4.16 g/m*3 -2.42 C 8.1 km/h
1295 15-01-2021 11:50:00 0.7 C 4.12 g/m*3 -1.37 C 6.4 km/h
1296 15-01-2021 11:55:00 0.9 C 4.23 g/m*3 0.9 C 3.2 km/h
1297 15-01-2021 12:00:00 1.2 C 4.26 g/m*3 -0.8 C 6.4 km/h
1298 15-01-2021 12:05:00 1.3 C 4.19 g/m*3 -1.24 C 8.1 km/h
1299 15-01-2021 12:10:00 1.7 C 4.19 g/m*3 -0.77 C 8.1 km/h
1300 15-01-2021 12:15:00 1.9 C 4.25 g/m*3 -1.68 C 12.9 km/h
Sensor: Nr:Datum:Temp:Abs-Feuchte:Windchill:Wind:
Aussen-T/F 1301 15-01-2021 12:20:00 2.1 C 4.31 g/m*3 -1.44 C 12.9 km/h
1302 15-01-2021 12:25:00 2.2 C 4.28 g/m*3 -0.61 C 9.7 km/h
1303 15-01-2021 12:30:00 2.3 C 4.31 g/m*3 -1.2 C 12.9 km/h
1304 15-01-2021 12:35:00 2.3 C 4.31 g/m*3 -0.07 C 8.1 km/h
1305 15-01-2021 12:40:00 2.4 C 4.34 g/m*3 0.05 C 8.1 km/h
1306 15-01-2021 12:45:00 2.4 C 4.4 g/m*3 0.59 C 6.4 km/h
1307 15-01-2021 12:50:00 2.4 C 4.34 g/m*3 -0.74 C 11.3 km/h
1308 15-01-2021 12:55:00 2.4 C 4.34 g/m*3 -0.37 C 9.7 km/h
1309 15-01-2021 13:00:00 2.4 C 4.34 g/m*3 -0.74 C 11.3 km/h
1310 15-01-2021 13:05:00 2.4 C 4.4 g/m*3 -0.37 C 9.7 km/h
1311 15-01-2021 13:10:00 2.4 C 4.4 g/m*3 -1.07 C 12.9 km/h
1312 15-01-2021 13:15:00 2.4 C 4.4 g/m*3 -1.07 C 12.9 km/h
1313 15-01-2021 13:20:00 2.4 C 4.45 g/m*3 -0.74 C 11.3 km/h
1314 15-01-2021 13:25:00 2.4 C 4.45 g/m*3 -1.07 C 12.9 km/h
1315 15-01-2021 13:30:00 2.3 C 4.42 g/m*3 -0.07 C 8.1 km/h
1316 15-01-2021 13:35:00 2.3 C 4.42 g/m*3 -0.07 C 8.1 km/h
1317 15-01-2021 13:40:00 2.3 C 4.48 g/m*3 2.3 C 3.2 km/h
1318 15-01-2021 13:45:00 2.3 C 4.48 g/m*3 2.3 C 4.8 km/h
1319 15-01-2021 13:50:00 2.3 C 4.42 g/m*3 -0.07 C 8.1 km/h
1320 15-01-2021 13:55:00 2.3 C 4.48 g/m*3 2.3 C 4.8 km/h
1321 15-01-2021 14:00:00 2.4 C 4.51 g/m*3 0.59 C 6.4 km/h
1322 15-01-2021 14:05:00 2.4 C 4.51 g/m*3 -0.37 C 9.7 km/h
1323 15-01-2021 14:10:00 2.4 C 4.51 g/m*3 -0.37 C 9.7 km/h
1324 15-01-2021 14:15:00 2.4 C 4.51 g/m*3 0.59 C 6.4 km/h
1325 15-01-2021 14:20:00 2.4 C 4.51 g/m*3 -0.37 C 9.7 km/h
Sensor: Nr:Datum:Temp:Abs-Feuchte:Windchill:Wind:
Aussen-T/F 1326 15-01-2021 14:25:00 2.4 C 4.51 g/m*3 0.59 C 6.4 km/h
1327 15-01-2021 14:30:00 2.4 C 4.51 g/m*3 0.59 C 6.4 km/h
1328 15-01-2021 14:35:00 2.5 C 4.54 g/m*3 0.17 C 8.1 km/h
1329 15-01-2021 14:40:00 2.5 C 4.48 g/m*3 -0.26 C 9.7 km/h
1330 15-01-2021 14:45:00 2.5 C 4.48 g/m*3 0.17 C 8.1 km/h
1331 15-01-2021 14:50:00 2.5 C 4.54 g/m*3 0.71 C 6.4 km/h
1332 15-01-2021 14:55:00 2.6 C 4.57 g/m*3 2.6 C 4.8 km/h
1333 15-01-2021 15:00:00 2.6 C 4.57 g/m*3 2.6 C 4.8 km/h
1334 15-01-2021 15:05:00 2.6 C 4.57 g/m*3 0.82 C 6.4 km/h
1335 15-01-2021 15:10:00 2.6 C 4.57 g/m*3 -0.14 C 9.7 km/h
1336 15-01-2021 15:15:00 2.6 C 4.57 g/m*3 0.29 C 8.1 km/h
1337 15-01-2021 15:20:00 2.6 C 4.63 g/m*3 2.6 C 4.8 km/h
1338 15-01-2021 15:25:00 2.6 C 4.63 g/m*3 2.6 C 4.8 km/h
1339 15-01-2021 15:30:00 2.6 C 4.63 g/m*3 0.82 C 6.4 km/h
1340 15-01-2021 15:35:00 2.6 C 4.69 g/m*3 -0.14 C 9.7 km/h
1341 15-01-2021 15:40:00 2.5 C 4.66 g/m*3 0.17 C 8.1 km/h
1342 15-01-2021 15:45:00 2.5 C 4.66 g/m*3 2.5 C 4.8 km/h
1343 15-01-2021 15:50:00 2.5 C 4.66 g/m*3 2.5 C 4.8 km/h
1344 15-01-2021 15:55:00 2.4 C 4.68 g/m*3 -0.37 C 9.7 km/h
1345 15-01-2021 16:00:00 2.4 C 4.68 g/m*3 0.59 C 6.4 km/h
1346 15-01-2021 16:05:00 2.4 C 4.68 g/m*3 0.59 C 6.4 km/h
1347 15-01-2021 16:10:00 2.4 C 4.68 g/m*3 0.59 C 6.4 km/h
1348 15-01-2021 16:15:00 2.4 C 4.68 g/m*3 2.4 C 4.8 km/h
1349 15-01-2021 16:20:00 2.4 C 4.68 g/m*3 2.4 C 4.8 km/h
1350 15-01-2021 16:25:00 2.3 C 4.65 g/m*3 -0.07 C 8.1 km/h
Sensor: Nr:Datum:Temp:Abs-Feuchte:Windchill:Wind:
Aussen-T/F 1351 15-01-2021 16:30:00 2.3 C 4.65 g/m*3 2.3 C 4.8 km/h
1352 15-01-2021 16:35:00 2.3 C 4.65 g/m*3 -0.07 C 8.1 km/h
1353 15-01-2021 16:40:00 2.3 C 4.65 g/m*3 -0.07 C 8.1 km/h
1354 15-01-2021 16:45:00 2.3 C 4.65 g/m*3 0.47 C 6.4 km/h
1355 15-01-2021 16:50:00 2.2 C 4.62 g/m*3 -0.18 C 8.1 km/h
1356 15-01-2021 16:55:00 2.2 C 4.62 g/m*3 -0.61 C 9.7 km/h
1357 15-01-2021 17:00:00 2.2 C 4.62 g/m*3 2.2 C 4.8 km/h
1358 15-01-2021 17:05:00 2.2 C 4.62 g/m*3 2.2 C 3.2 km/h
1359 15-01-2021 17:10:00 2.1 C 4.59 g/m*3 2.1 C 4.8 km/h
1360 15-01-2021 17:15:00 2.1 C 4.59 g/m*3 2.1 C 3.2 km/h
1361 15-01-2021 17:20:00 2.1 C 4.59 g/m*3 2.1 C 3.2 km/h
1362 15-01-2021 17:25:00 2.1 C 4.59 g/m*3 2.1 C 1.6 km/h
1363 15-01-2021 17:30:00 2 C 4.56 g/m*3 2 C 0 km/h
1364 15-01-2021 17:35:00 1.9 C 4.58 g/m*3 1.9 C 0 km/h
1365 15-01-2021 17:40:00 1.9 C 4.58 g/m*3 1.9 C 1.6 km/h
1366 15-01-2021 17:45:00 1.8 C 4.55 g/m*3 1.8 C 1.6 km/h
1367 15-01-2021 17:50:00 1.8 C 4.55 g/m*3 1.8 C 0 km/h
1368 15-01-2021 17:55:00 1.8 C 4.55 g/m*3 1.8 C 1.6 km/h
1369 15-01-2021 18:00:00 1.7 C 4.52 g/m*3 1.7 C 4.8 km/h
1370 15-01-2021 18:05:00 1.7 C 4.52 g/m*3 1.7 C 0 km/h
1371 15-01-2021 18:10:00 1.7 C 4.52 g/m*3 1.7 C 4.8 km/h
1372 15-01-2021 18:15:00 1.6 C 4.49 g/m*3 1.6 C 0 km/h
1373 15-01-2021 18:20:00 1.6 C 4.49 g/m*3 -0.89 C 8.1 km/h
1374 15-01-2021 18:25:00 1.7 C 4.57 g/m*3 1.7 C 4.8 km/h
1375 15-01-2021 18:30:00 1.8 C 4.6 g/m*3 1.8 C 1.6 km/h
Sensor: Nr:Datum:Temp:Abs-Feuchte:Windchill:Wind:
Aussen-T/F 1376 15-01-2021 18:35:00 1.8 C 4.6 g/m*3 -0.1 C 6.4 km/h
1377 15-01-2021 18:40:00 1.8 C 4.66 g/m*3 -0.1 C 6.4 km/h
1378 15-01-2021 18:45:00 1.8 C 4.66 g/m*3 1.8 C 3.2 km/h
1379 15-01-2021 18:50:00 1.7 C 4.68 g/m*3 1.7 C 0 km/h
1380 15-01-2021 18:55:00 1.7 C 4.68 g/m*3 1.7 C 0 km/h
1381 15-01-2021 19:00:00 1.7 C 4.68 g/m*3 1.7 C 3.2 km/h
1382 15-01-2021 19:05:00 1.6 C 4.65 g/m*3 -0.33 C 6.4 km/h
1383 15-01-2021 19:10:00 1.6 C 4.65 g/m*3 1.6 C 4.8 km/h
1384 15-01-2021 19:15:00 1.6 C 4.7 g/m*3 1.6 C 0 km/h
1385 15-01-2021 19:20:00 1.6 C 4.7 g/m*3 1.6 C 1.6 km/h
1386 15-01-2021 19:25:00 1.5 C 4.67 g/m*3 1.5 C 3.2 km/h
1387 15-01-2021 19:30:00 1.5 C 4.67 g/m*3 -0.45 C 6.4 km/h
1388 15-01-2021 19:35:00 1.5 C 4.67 g/m*3 1.5 C 3.2 km/h
1389 15-01-2021 19:40:00 1.4 C 4.64 g/m*3 1.4 C 1.6 km/h
1390 15-01-2021 19:45:00 1.4 C 4.64 g/m*3 -0.56 C 6.4 km/h
1391 15-01-2021 19:50:00 1.4 C 4.64 g/m*3 1.4 C 4.8 km/h
1392 15-01-2021 19:55:00 1.4 C 4.64 g/m*3 1.4 C 3.2 km/h
1393 15-01-2021 20:00:00 1.4 C 4.64 g/m*3 1.4 C 4.8 km/h
1394 15-01-2021 20:05:00 1.4 C 4.64 g/m*3 1.4 C 1.6 km/h
1395 15-01-2021 20:10:00 1.4 C 4.64 g/m*3 1.4 C 0 km/h
1396 15-01-2021 20:15:00 1.4 C 4.64 g/m*3 1.4 C 4.8 km/h
1397 15-01-2021 20:20:00 1.4 C 4.59 g/m*3 1.4 C 4.8 km/h
1398 15-01-2021 20:25:00 1.4 C 4.59 g/m*3 1.4 C 3.2 km/h
1399 15-01-2021 20:30:00 1.4 C 4.59 g/m*3 1.4 C 4.8 km/h
1400 15-01-2021 20:35:00 1.4 C 4.59 g/m*3 -0.56 C 6.4 km/h
Sensor: Nr:Datum:Temp:Abs-Feuchte:Windchill:Wind:
Aussen-T/F 1401 15-01-2021 20:40:00 1.4 C 4.64 g/m*3 1.4 C 3.2 km/h
1402 15-01-2021 20:45:00 1.4 C 4.64 g/m*3 -0.56 C 6.4 km/h
1403 15-01-2021 20:50:00 1.4 C 4.64 g/m*3 1.4 C 4.8 km/h
1404 15-01-2021 20:55:00 1.3 C 4.61 g/m*3 1.3 C 3.2 km/h
1405 15-01-2021 21:00:00 1.3 C 4.61 g/m*3 1.3 C 1.6 km/h
1406 15-01-2021 21:05:00 1.3 C 4.61 g/m*3 1.3 C 3.2 km/h
1407 15-01-2021 21:10:00 1.3 C 4.61 g/m*3 1.3 C 0 km/h
1408 15-01-2021 21:15:00 1.3 C 4.61 g/m*3 -1.24 C 8.1 km/h
1409 15-01-2021 21:20:00 1.3 C 4.66 g/m*3 1.3 C 3.2 km/h
1410 15-01-2021 21:25:00 1.2 C 4.63 g/m*3 1.2 C 1.6 km/h
1411 15-01-2021 21:30:00 1.2 C 4.58 g/m*3 1.2 C 4.8 km/h
1412 15-01-2021 21:35:00 1.2 C 4.58 g/m*3 1.2 C 4.8 km/h
1413 15-01-2021 21:40:00 1.2 C 4.58 g/m*3 1.2 C 3.2 km/h
1414 15-01-2021 21:45:00 1.2 C 4.58 g/m*3 1.2 C 3.2 km/h
1415 15-01-2021 21:50:00 1.2 C 4.58 g/m*3 1.2 C 3.2 km/h
1416 15-01-2021 21:55:00 1.2 C 4.58 g/m*3 -1.36 C 8.1 km/h
1417 15-01-2021 22:00:00 1.2 C 4.58 g/m*3 -0.8 C 6.4 km/h
1418 15-01-2021 22:05:00 1.2 C 4.58 g/m*3 1.2 C 4.8 km/h
1419 15-01-2021 22:10:00 1.1 C 4.55 g/m*3 1.1 C 4.8 km/h
1420 15-01-2021 22:15:00 1.1 C 4.55 g/m*3 1.1 C 1.6 km/h
1421 15-01-2021 22:20:00 1.1 C 4.55 g/m*3 -1.48 C 8.1 km/h
1422 15-01-2021 22:25:00 1.1 C 4.55 g/m*3 1.1 C 1.6 km/h
1423 15-01-2021 22:30:00 1.1 C 4.55 g/m*3 1.1 C 3.2 km/h
1424 15-01-2021 22:35:00 1.1 C 4.55 g/m*3 1.1 C 0 km/h
1425 15-01-2021 22:40:00 1.1 C 4.55 g/m*3 1.1 C 1.6 km/h
Sensor: Nr:Datum:Temp:Abs-Feuchte:Windchill:Wind:
Aussen-T/F 1426 15-01-2021 22:45:00 1.1 C 4.55 g/m*3 1.1 C 4.8 km/h
1427 15-01-2021 22:50:00 1.1 C 4.55 g/m*3 1.1 C 3.2 km/h
1428 15-01-2021 22:55:00 1.1 C 4.55 g/m*3 1.1 C 4.8 km/h
1429 15-01-2021 23:00:00 1.1 C 4.6 g/m*3 1.1 C 3.2 km/h
1430 15-01-2021 23:05:00 1.1 C 4.6 g/m*3 1.1 C 3.2 km/h
1431 15-01-2021 23:10:00 1.1 C 4.6 g/m*3 -0.91 C 6.4 km/h
1432 15-01-2021 23:15:00 1.1 C 4.6 g/m*3 1.1 C 4.8 km/h
1433 15-01-2021 23:20:00 1.1 C 4.6 g/m*3 -0.91 C 6.4 km/h
1434 15-01-2021 23:25:00 1.1 C 4.6 g/m*3 1.1 C 4.8 km/h
1435 15-01-2021 23:30:00 1.1 C 4.6 g/m*3 1.1 C 3.2 km/h
1436 15-01-2021 23:35:00 1.1 C 4.6 g/m*3 1.1 C 3.2 km/h
1437 15-01-2021 23:40:00 1.1 C 4.6 g/m*3 -0.91 C 6.4 km/h
1438 15-01-2021 23:45:00 1 C 4.57 g/m*3 1 C 3.2 km/h
1439 15-01-2021 23:50:00 1 C 4.57 g/m*3 1 C 3.2 km/h
1440 15-01-2021 23:55:00 1 C 4.57 g/m*3 1 C 0 km/h
1441 16-01-2021 00:00:00 0.9 C 4.54 g/m*3 0.9 C 1.6 km/h
1442 16-01-2021 00:05:00 0.9 C 4.54 g/m*3 0.9 C 0 km/h
1443 16-01-2021 00:10:00 0.9 C 4.54 g/m*3 0.9 C 0 km/h
1444 16-01-2021 00:15:00 0.9 C 4.54 g/m*3 0.9 C 0 km/h
1445 16-01-2021 00:20:00 0.8 C 4.51 g/m*3 0.8 C 1.6 km/h
1446 16-01-2021 00:25:00 0.8 C 4.51 g/m*3 0.8 C 0 km/h
1447 16-01-2021 00:30:00 0.8 C 4.51 g/m*3 0.8 C 1.6 km/h
1448 16-01-2021 00:35:00 0.8 C 4.45 g/m*3 0.8 C 4.8 km/h
1449 16-01-2021 00:40:00 0.8 C 4.45 g/m*3 -1.83 C 8.1 km/h
1450 16-01-2021 00:45:00 0.9 C 4.48 g/m*3 0.9 C 1.6 km/h
Sensor: Nr:Datum:Temp:Abs-Feuchte:Windchill:Wind:
Aussen-T/F 1451 16-01-2021 00:50:00 0.9 C 4.43 g/m*3 0.9 C 3.2 km/h
1452 16-01-2021 00:55:00 0.9 C 4.43 g/m*3 -1.14 C 6.4 km/h
1453 16-01-2021 01:00:00 0.9 C 4.38 g/m*3 -1.71 C 8.1 km/h
1454 16-01-2021 01:05:00 0.9 C 4.38 g/m*3 0.9 C 4.8 km/h
1455 16-01-2021 01:10:00 0.9 C 4.28 g/m*3 -1.71 C 8.1 km/h
1456 16-01-2021 01:15:00 0.9 C 4.18 g/m*3 -1.71 C 8.1 km/h
1457 16-01-2021 01:20:00 0.9 C 4.12 g/m*3 -1.71 C 8.1 km/h
1458 16-01-2021 01:25:00 0.9 C 4.07 g/m*3 -1.71 C 8.1 km/h
1459 16-01-2021 01:30:00 0.9 C 4.07 g/m*3 -1.71 C 8.1 km/h
1460 16-01-2021 01:35:00 0.9 C 4.02 g/m*3 -1.14 C 6.4 km/h
1461 16-01-2021 01:40:00 0.9 C 4.07 g/m*3 0.9 C 4.8 km/h
1462 16-01-2021 01:45:00 0.9 C 4.07 g/m*3 0.9 C 4.8 km/h
1463 16-01-2021 01:50:00 0.9 C 4.02 g/m*3 -1.71 C 8.1 km/h
1464 16-01-2021 01:55:00 0.9 C 4.02 g/m*3 0.9 C 1.6 km/h
1465 16-01-2021 02:00:00 0.9 C 4.07 g/m*3 -1.14 C 6.4 km/h
1466 16-01-2021 02:05:00 0.8 C 3.99 g/m*3 0.8 C 1.6 km/h
1467 16-01-2021 02:10:00 0.8 C 4.04 g/m*3 0.8 C 1.6 km/h
1468 16-01-2021 02:15:00 0.8 C 4.1 g/m*3 0.8 C 1.6 km/h
1469 16-01-2021 02:20:00 0.8 C 4.04 g/m*3 -1.26 C 6.4 km/h
1470 16-01-2021 02:25:00 0.8 C 4.04 g/m*3 0.8 C 0 km/h
1471 16-01-2021 02:30:00 0.8 C 4.1 g/m*3 -1.26 C 6.4 km/h
1472 16-01-2021 02:35:00 0.8 C 4.1 g/m*3 -1.26 C 6.4 km/h
1473 16-01-2021 02:40:00 0.8 C 4.04 g/m*3 -1.26 C 6.4 km/h
1474 16-01-2021 02:45:00 0.8 C 4.04 g/m*3 -1.26 C 6.4 km/h
1475 16-01-2021 02:50:00 0.7 C 4.07 g/m*3 0.7 C 4.8 km/h
Sensor: Nr:Datum:Temp:Abs-Feuchte:Windchill:Wind:
Aussen-T/F 1476 16-01-2021 02:55:00 0.7 C 4.02 g/m*3 0.7 C 4.8 km/h
1477 16-01-2021 03:00:00 0.7 C 4.07 g/m*3 0.7 C 4.8 km/h
1478 16-01-2021 03:05:00 0.7 C 4.07 g/m*3 0.7 C 3.2 km/h
1479 16-01-2021 03:10:00 0.7 C 4.07 g/m*3 0.7 C 4.8 km/h
1480 16-01-2021 03:15:00 0.7 C 4.07 g/m*3 0.7 C 3.2 km/h
1481 16-01-2021 03:20:00 0.7 C 4.07 g/m*3 0.7 C 1.6 km/h
1482 16-01-2021 03:25:00 0.6 C 4.04 g/m*3 0.6 C 3.2 km/h
1483 16-01-2021 03:30:00 0.6 C 4.04 g/m*3 0.6 C 4.8 km/h
1484 16-01-2021 03:35:00 0.6 C 4.09 g/m*3 0.6 C 3.2 km/h
1485 16-01-2021 03:40:00 0.6 C 4.09 g/m*3 0.6 C 0 km/h
1486 16-01-2021 03:45:00 0.6 C 4.09 g/m*3 0.6 C 0 km/h
1487 16-01-2021 03:50:00 0.5 C 4.06 g/m*3 0.5 C 0 km/h
1488 16-01-2021 03:55:00 0.5 C 4.11 g/m*3 0.5 C 0 km/h
1489 16-01-2021 04:00:00 0.4 C 4.08 g/m*3 0.4 C 0 km/h
1490 16-01-2021 04:05:00 0.4 C 4.08 g/m*3 0.4 C 0 km/h
1491 16-01-2021 04:10:00 0.4 C 4.08 g/m*3 0.4 C 0 km/h
1492 16-01-2021 04:15:00 0.4 C 4.08 g/m*3 0.4 C 0 km/h
1493 16-01-2021 04:20:00 0.3 C 4.11 g/m*3 0.3 C 0 km/h
1494 16-01-2021 04:25:00 0.3 C 4.11 g/m*3 0.3 C 0 km/h
1495 16-01-2021 04:30:00 0.3 C 4.11 g/m*3 0.3 C 0 km/h
1496 16-01-2021 04:35:00 0.2 C 4.08 g/m*3 0.2 C 1.6 km/h
1497 16-01-2021 04:40:00 0.2 C 4.13 g/m*3 0.2 C 0 km/h
1498 16-01-2021 04:45:00 0.2 C 4.13 g/m*3 0.2 C 0 km/h
1499 16-01-2021 04:50:00 0.2 C 4.13 g/m*3 0.2 C 0 km/h
1500 16-01-2021 04:55:00 0.1 C 4.1 g/m*3 0.1 C 0 km/h
Sensor: Nr:Datum:Temp:Abs-Feuchte:Windchill:Wind:
Aussen-T/F 1501 16-01-2021 05:00:00 0.1 C 4.1 g/m*3 0.1 C 0 km/h
1502 16-01-2021 05:05:00 0.1 C 4.15 g/m*3 0.1 C 0 km/h
1503 16-01-2021 05:10:00 0.1 C 4.15 g/m*3 0.1 C 0 km/h
1504 16-01-2021 05:15:00 0.1 C 4.15 g/m*3 0.1 C 0 km/h
1505 16-01-2021 05:20:00 0.1 C 4.15 g/m*3 0.1 C 0 km/h
1506 16-01-2021 05:25:00 0.1 C 4.2 g/m*3 0.1 C 0 km/h
1507 16-01-2021 05:30:00 0.1 C 4.2 g/m*3 0.1 C 0 km/h
1508 16-01-2021 05:35:00 0.1 C 4.2 g/m*3 0.1 C 1.6 km/h
1509 16-01-2021 05:40:00 0.1 C 4.2 g/m*3 0.1 C 0 km/h
1510 16-01-2021 05:45:00 0.1 C 4.2 g/m*3 0.1 C 1.6 km/h
1511 16-01-2021 05:50:00 0.1 C 4.2 g/m*3 0.1 C 3.2 km/h
1512 16-01-2021 05:55:00 0 C 4.12 g/m*3 0 C 4.8 km/h
1513 16-01-2021 06:00:00 0.1 C 4.15 g/m*3 0.1 C 4.8 km/h
1514 16-01-2021 06:05:00 0.1 C 4.15 g/m*3 0.1 C 0 km/h
1515 16-01-2021 06:10:00 0.1 C 4.1 g/m*3 0.1 C 3.2 km/h
1516 16-01-2021 06:15:00 0.2 C 4.13 g/m*3 0.2 C 1.6 km/h
1517 16-01-2021 06:20:00 0.2 C 4.18 g/m*3 0.2 C 0 km/h
1518 16-01-2021 06:25:00 0.2 C 4.18 g/m*3 0.2 C 0 km/h
1519 16-01-2021 06:30:00 0.2 C 4.18 g/m*3 0.2 C 0 km/h
1520 16-01-2021 06:35:00 0.2 C 4.18 g/m*3 0.2 C 0 km/h
1521 16-01-2021 06:40:00 0.1 C 4.15 g/m*3 0.1 C 0 km/h
1522 16-01-2021 06:45:00 0.1 C 4.15 g/m*3 0.1 C 0 km/h
1523 16-01-2021 06:50:00 0.1 C 4.15 g/m*3 0.1 C 0 km/h
1524 16-01-2021 06:55:00 0.1 C 4.2 g/m*3 0.1 C 0 km/h
1525 16-01-2021 07:00:00 0.1 C 4.2 g/m*3 0.1 C 0 km/h
Sensor: Nr:Datum:Temp:Abs-Feuchte:Windchill:Wind:
Aussen-T/F 1526 16-01-2021 07:05:00 0 C 4.17 g/m*3 0 C 0 km/h
1527 16-01-2021 07:10:00 0 C 4.17 g/m*3 0 C 0 km/h
1528 16-01-2021 07:15:00 0 C 4.17 g/m*3 0 C 0 km/h
1529 16-01-2021 07:20:00 0 C 4.17 g/m*3 0 C 0 km/h
1530 16-01-2021 07:25:00 -0.1 C 4.14 g/m*3 -0.1 C 1.6 km/h
1531 16-01-2021 07:30:00 -0.1 C 4.14 g/m*3 -0.1 C 0 km/h
1532 16-01-2021 07:35:00 -0.1 C 4.14 g/m*3 -0.1 C 0 km/h
1533 16-01-2021 07:40:00 -0.1 C 4.14 g/m*3 -0.1 C 0 km/h
1534 16-01-2021 07:45:00 -0.1 C 4.14 g/m*3 -0.1 C 0 km/h
1535 16-01-2021 07:50:00 -0.1 C 4.19 g/m*3 -0.1 C 0 km/h
1536 16-01-2021 07:55:00 -0.1 C 4.19 g/m*3 -0.1 C 0 km/h
1537 16-01-2021 08:00:00 -0.1 C 4.19 g/m*3 -0.1 C 0 km/h
1538 16-01-2021 08:05:00 -0.1 C 4.19 g/m*3 -0.1 C 0 km/h
1539 16-01-2021 08:10:00 -0.1 C 4.19 g/m*3 -0.1 C 0 km/h
1540 16-01-2021 08:15:00 -0.1 C 4.19 g/m*3 -0.1 C 0 km/h
1541 16-01-2021 08:20:00 -0.2 C 4.16 g/m*3 -0.2 C 0 km/h
1542 16-01-2021 08:25:00 -0.2 C 4.16 g/m*3 -0.2 C 0 km/h
1543 16-01-2021 08:30:00 -0.2 C 4.16 g/m*3 -0.2 C 0 km/h
1544 16-01-2021 08:35:00 -0.2 C 4.21 g/m*3 -0.2 C 0 km/h
1545 16-01-2021 08:40:00 -0.2 C 4.21 g/m*3 -0.2 C 0 km/h
1546 16-01-2021 08:45:00 -0.2 C 4.21 g/m*3 -0.2 C 0 km/h
1547 16-01-2021 08:50:00 -0.1 C 4.23 g/m*3 -0.1 C 0 km/h
1548 16-01-2021 08:55:00 -0.1 C 4.23 g/m*3 -0.1 C 0 km/h
1549 16-01-2021 09:00:00 -0.1 C 4.23 g/m*3 -0.1 C 0 km/h
1550 16-01-2021 09:05:00 -0.1 C 4.23 g/m*3 -0.1 C 0 km/h
Sensor: Nr:Datum:Temp:Abs-Feuchte:Windchill:Wind:
Aussen-T/F 1551 16-01-2021 09:10:00 -0.1 C 4.23 g/m*3 -0.1 C 0 km/h
1552 16-01-2021 09:15:00 -0.1 C 4.23 g/m*3 -0.1 C 0 km/h
1553 16-01-2021 09:20:00 -0.1 C 4.23 g/m*3 -0.1 C 0 km/h
1554 16-01-2021 09:25:00 0 C 4.26 g/m*3 0 C 0 km/h
1555 16-01-2021 09:30:00 0 C 4.26 g/m*3 0 C 0 km/h
1556 16-01-2021 09:35:00 0.1 C 4.24 g/m*3 0.1 C 0 km/h
1557 16-01-2021 09:40:00 0.1 C 4.24 g/m*3 0.1 C 1.6 km/h
1558 16-01-2021 09:45:00 0.2 C 4.22 g/m*3 0.2 C 1.6 km/h
1559 16-01-2021 09:50:00 0.3 C 4.2 g/m*3 0.3 C 0 km/h
1560 16-01-2021 09:55:00 0.3 C 4.2 g/m*3 0.3 C 1.6 km/h
1561 16-01-2021 10:00:00 0.4 C 4.18 g/m*3 0.4 C 4.8 km/h
1562 16-01-2021 10:05:00 0.6 C 4.19 g/m*3 0.6 C 3.2 km/h
1563 16-01-2021 10:10:00 0.7 C 4.22 g/m*3 0.7 C 3.2 km/h
1564 16-01-2021 10:15:00 0.7 C 4.17 g/m*3 0.7 C 1.6 km/h
1565 16-01-2021 10:20:00 0.8 C 4.2 g/m*3 0.8 C 1.6 km/h
1566 16-01-2021 10:25:00 0.8 C 4.2 g/m*3 0.8 C 0 km/h
1567 16-01-2021 10:30:00 0.9 C 4.23 g/m*3 0.9 C 1.6 km/h
1568 16-01-2021 10:35:00 0.9 C 4.18 g/m*3 0.9 C 3.2 km/h
1569 16-01-2021 10:40:00 1 C 4.2 g/m*3 1 C 3.2 km/h
1570 16-01-2021 10:45:00 1 C 4.2 g/m*3 1 C 3.2 km/h
1571 16-01-2021 10:50:00 1.1 C 4.18 g/m*3 1.1 C 1.6 km/h
1572 16-01-2021 10:55:00 1.1 C 4.18 g/m*3 1.1 C 3.2 km/h
1573 16-01-2021 11:00:00 1.2 C 4.21 g/m*3 1.2 C 3.2 km/h
1574 16-01-2021 11:05:00 1.2 C 4.21 g/m*3 1.2 C 3.2 km/h
1575 16-01-2021 11:10:00 1.2 C 4.21 g/m*3 1.2 C 4.8 km/h
Sensor: Nr:Datum:Temp:Abs-Feuchte:Windchill:Wind:
Aussen-T/F 1576 16-01-2021 11:15:00 1.2 C 4.21 g/m*3 1.2 C 4.8 km/h
1577 16-01-2021 11:20:00 1.3 C 4.24 g/m*3 1.3 C 3.2 km/h
1578 16-01-2021 11:25:00 1.3 C 4.24 g/m*3 1.3 C 3.2 km/h
1579 16-01-2021 11:30:00 1.3 C 4.24 g/m*3 -0.68 C 6.4 km/h
1580 16-01-2021 11:35:00 1.3 C 4.19 g/m*3 -1.24 C 8.1 km/h
1581 16-01-2021 11:40:00 1.3 C 4.19 g/m*3 1.3 C 4.8 km/h
1582 16-01-2021 11:45:00 1.3 C 4.19 g/m*3 1.3 C 4.8 km/h
1583 16-01-2021 11:50:00 1.4 C 4.21 g/m*3 1.4 C 3.2 km/h
1584 16-01-2021 11:55:00 1.4 C 4.16 g/m*3 -0.56 C 6.4 km/h
1585 16-01-2021 12:00:00 1.4 C 4.16 g/m*3 1.4 C 4.8 km/h
1586 16-01-2021 12:05:00 1.4 C 4.16 g/m*3 1.4 C 4.8 km/h
1587 16-01-2021 12:10:00 1.4 C 4.11 g/m*3 -0.56 C 6.4 km/h
1588 16-01-2021 12:15:00 1.5 C 4.14 g/m*3 -0.45 C 6.4 km/h
1589 16-01-2021 12:20:00 1.6 C 4.16 g/m*3 -0.89 C 8.1 km/h
1590 16-01-2021 12:25:00 1.6 C 4.16 g/m*3 -0.33 C 6.4 km/h
1591 16-01-2021 12:30:00 1.6 C 4.11 g/m*3 -0.33 C 6.4 km/h
1592 16-01-2021 12:35:00 1.6 C 4.11 g/m*3 -0.89 C 8.1 km/h
1593 16-01-2021 12:40:00 1.6 C 4.11 g/m*3 -0.89 C 8.1 km/h
1594 16-01-2021 12:45:00 1.6 C 4.11 g/m*3 -0.33 C 6.4 km/h
1595 16-01-2021 12:50:00 1.6 C 4.11 g/m*3 -0.33 C 6.4 km/h
1596 16-01-2021 12:55:00 1.7 C 4.14 g/m*3 -0.22 C 6.4 km/h
1597 16-01-2021 13:00:00 1.7 C 4.19 g/m*3 -0.77 C 8.1 km/h
1598 16-01-2021 13:05:00 1.7 C 4.14 g/m*3 -0.77 C 8.1 km/h
1599 16-01-2021 13:10:00 1.7 C 4.14 g/m*3 -0.22 C 6.4 km/h
1600 16-01-2021 13:15:00 1.7 C 4.08 g/m*3 -0.77 C 8.1 km/h
Sensor: Nr:Datum:Temp:Abs-Feuchte:Windchill:Wind:
Aussen-T/F 1601 16-01-2021 13:20:00 1.6 C 4.06 g/m*3 -0.33 C 6.4 km/h
1602 16-01-2021 13:25:00 1.6 C 4 g/m*3 1.6 C 3.2 km/h
1603 16-01-2021 13:30:00 1.6 C 4 g/m*3 1.6 C 1.6 km/h
1604 16-01-2021 13:35:00 1.6 C 4.06 g/m*3 1.6 C 4.8 km/h
1605 16-01-2021 13:40:00 1.6 C 4 g/m*3 -0.33 C 6.4 km/h
1606 16-01-2021 13:45:00 1.5 C 3.97 g/m*3 1.5 C 3.2 km/h
1607 16-01-2021 13:50:00 1.5 C 3.97 g/m*3 1.5 C 1.6 km/h
1608 16-01-2021 13:55:00 1.4 C 3.95 g/m*3 1.4 C 3.2 km/h
1609 16-01-2021 14:00:00 1.4 C 3.89 g/m*3 1.4 C 3.2 km/h
1610 16-01-2021 14:05:00 1.4 C 3.89 g/m*3 -0.56 C 6.4 km/h
1611 16-01-2021 14:10:00 1.4 C 3.89 g/m*3 1.4 C 0 km/h
1612 16-01-2021 14:15:00 1.4 C 3.84 g/m*3 -0.56 C 6.4 km/h
1613 16-01-2021 14:20:00 1.4 C 3.89 g/m*3 -0.56 C 6.4 km/h
1614 16-01-2021 14:25:00 1.4 C 3.89 g/m*3 1.4 C 3.2 km/h
1615 16-01-2021 14:30:00 1.4 C 3.89 g/m*3 1.4 C 0 km/h
1616 16-01-2021 14:35:00 1.4 C 3.89 g/m*3 1.4 C 4.8 km/h
1617 16-01-2021 14:40:00 1.4 C 3.84 g/m*3 1.4 C 4.8 km/h
1618 16-01-2021 14:45:00 1.4 C 3.79 g/m*3 1.4 C 0 km/h
1619 16-01-2021 14:50:00 1.4 C 3.84 g/m*3 1.4 C 1.6 km/h
1620 16-01-2021 14:55:00 1.4 C 3.84 g/m*3 1.4 C 3.2 km/h
1621 16-01-2021 15:00:00 1.4 C 3.84 g/m*3 1.4 C 3.2 km/h
1622 16-01-2021 15:05:00 1.3 C 3.81 g/m*3 1.3 C 1.6 km/h
1623 16-01-2021 15:10:00 1.3 C 3.76 g/m*3 1.3 C 3.2 km/h
1624 16-01-2021 15:15:00 1.3 C 3.76 g/m*3 -1.69 C 9.7 km/h
1625 16-01-2021 15:20:00 1.3 C 3.76 g/m*3 1.3 C 4.8 km/h
Sensor: Nr:Datum:Temp:Abs-Feuchte:Windchill:Wind:
Aussen-T/F 1626 16-01-2021 15:25:00 1.3 C 3.76 g/m*3 1.3 C 3.2 km/h
1627 16-01-2021 15:30:00 1.2 C 3.79 g/m*3 1.2 C 1.6 km/h
1628 16-01-2021 15:35:00 1.2 C 3.79 g/m*3 1.2 C 0 km/h
1629 16-01-2021 15:40:00 1.2 C 3.79 g/m*3 1.2 C 1.6 km/h
1630 16-01-2021 15:45:00 1.2 C 3.79 g/m*3 -1.36 C 8.1 km/h
1631 16-01-2021 15:50:00 1.2 C 3.79 g/m*3 -0.8 C 6.4 km/h
1632 16-01-2021 15:55:00 1.2 C 3.79 g/m*3 1.2 C 4.8 km/h
1633 16-01-2021 16:00:00 1.2 C 3.79 g/m*3 1.2 C 3.2 km/h
1634 16-01-2021 16:05:00 1.1 C 3.76 g/m*3 1.1 C 0 km/h
1635 16-01-2021 16:10:00 1.1 C 3.81 g/m*3 1.1 C 4.8 km/h
1636 16-01-2021 16:15:00 1 C 3.79 g/m*3 1 C 1.6 km/h
1637 16-01-2021 16:20:00 0.9 C 3.76 g/m*3 0.9 C 3.2 km/h
1638 16-01-2021 16:25:00 0.9 C 3.81 g/m*3 0.9 C 0 km/h
1639 16-01-2021 16:30:00 0.8 C 3.74 g/m*3 0.8 C 0 km/h
1640 16-01-2021 16:35:00 0.8 C 3.79 g/m*3 0.8 C 0 km/h
1641 16-01-2021 16:40:00 0.7 C 3.81 g/m*3 0.7 C 0 km/h
1642 16-01-2021 16:45:00 0.6 C 3.79 g/m*3 0.6 C 0 km/h
1643 16-01-2021 16:50:00 0.6 C 3.84 g/m*3 0.6 C 0 km/h
1644 16-01-2021 16:55:00 0.4 C 3.84 g/m*3 0.4 C 0 km/h
1645 16-01-2021 17:00:00 0.4 C 3.88 g/m*3 0.4 C 0 km/h
1646 16-01-2021 17:05:00 0.3 C 3.91 g/m*3 0.3 C 0 km/h
1647 16-01-2021 17:10:00 0.2 C 3.93 g/m*3 0.2 C 0 km/h
1648 16-01-2021 17:15:00 0.1 C 3.9 g/m*3 0.1 C 0 km/h
1649 16-01-2021 17:20:00 0.1 C 3.95 g/m*3 0.1 C 0 km/h
1650 16-01-2021 17:25:00 -0.1 C 3.95 g/m*3 -0.1 C 0 km/h
Sensor: Nr:Datum:Temp:Abs-Feuchte:Windchill:Wind:
Aussen-T/F 1651 16-01-2021 17:30:00 -0.1 C 3.95 g/m*3 -0.1 C 0 km/h
1652 16-01-2021 17:35:00 -0.2 C 3.97 g/m*3 -0.2 C 0 km/h
1653 16-01-2021 17:40:00 -0.2 C 3.97 g/m*3 -0.2 C 0 km/h
1654 16-01-2021 17:45:00 -0.3 C 3.89 g/m*3 -0.3 C 0 km/h
1655 16-01-2021 17:50:00 -0.3 C 3.89 g/m*3 -0.3 C 0 km/h
1656 16-01-2021 17:55:00 -0.4 C 3.86 g/m*3 -0.4 C 0 km/h
1657 16-01-2021 18:00:00 -0.4 C 3.91 g/m*3 -0.4 C 0 km/h
1658 16-01-2021 18:05:00 -0.4 C 3.91 g/m*3 -0.4 C 0 km/h
1659 16-01-2021 18:10:00 -0.4 C 3.91 g/m*3 -0.4 C 0 km/h
1660 16-01-2021 18:15:00 -0.5 C 3.84 g/m*3 -0.5 C 0 km/h
1661 16-01-2021 18:20:00 -0.4 C 3.91 g/m*3 -0.4 C 0 km/h
1662 16-01-2021 18:25:00 -0.4 C 3.91 g/m*3 -0.4 C 0 km/h
1663 16-01-2021 18:30:00 -0.4 C 3.91 g/m*3 -0.4 C 0 km/h
1664 16-01-2021 18:35:00 -0.4 C 3.96 g/m*3 -0.4 C 0 km/h
1665 16-01-2021 18:40:00 -0.4 C 3.96 g/m*3 -0.4 C 0 km/h
1666 16-01-2021 18:45:00 -0.3 C 3.99 g/m*3 -0.3 C 0 km/h
1667 16-01-2021 18:50:00 -0.3 C 3.99 g/m*3 -0.3 C 0 km/h
1668 16-01-2021 18:55:00 -0.3 C 3.94 g/m*3 -0.3 C 0 km/h
1669 16-01-2021 19:00:00 -0.3 C 3.99 g/m*3 -0.3 C 0 km/h
1670 16-01-2021 19:05:00 -0.3 C 3.99 g/m*3 -0.3 C 0 km/h
1671 16-01-2021 19:10:00 -0.2 C 4.01 g/m*3 -0.2 C 0 km/h
1672 16-01-2021 19:15:00 -0.2 C 4.01 g/m*3 -0.2 C 0 km/h
1673 16-01-2021 19:20:00 -0.2 C 4.01 g/m*3 -0.2 C 0 km/h
1674 16-01-2021 19:25:00 -0.2 C 4.01 g/m*3 -0.2 C 0 km/h
1675 16-01-2021 19:30:00 -0.2 C 4.01 g/m*3 -0.2 C 0 km/h
Sensor: Nr:Datum:Temp:Abs-Feuchte:Windchill:Wind:
Aussen-T/F 1676 16-01-2021 19:35:00 -0.2 C 4.01 g/m*3 -0.2 C 0 km/h
1677 16-01-2021 19:40:00 -0.2 C 4.01 g/m*3 -0.2 C 0 km/h
1678 16-01-2021 19:45:00 -0.1 C 4.04 g/m*3 -0.1 C 0 km/h
1679 16-01-2021 19:50:00 -0.1 C 4.04 g/m*3 -0.1 C 1.6 km/h
1680 16-01-2021 19:55:00 0 C 4.07 g/m*3 0 C 3.2 km/h
1681 16-01-2021 20:00:00 0.1 C 4.15 g/m*3 0.1 C 1.6 km/h
1682 16-01-2021 20:05:00 0.1 C 4.15 g/m*3 0.1 C 1.6 km/h
1683 16-01-2021 20:10:00 0.1 C 4.2 g/m*3 0.1 C 1.6 km/h
1684 16-01-2021 20:15:00 0.1 C 4.2 g/m*3 0.1 C 0 km/h
1685 16-01-2021 20:20:00 0.1 C 4.24 g/m*3 0.1 C 3.2 km/h
1686 16-01-2021 20:25:00 0 C 4.26 g/m*3 0 C 0 km/h
1687 16-01-2021 20:30:00 0 C 4.31 g/m*3 0 C 1.6 km/h
1688 16-01-2021 20:35:00 -0.1 C 4.28 g/m*3 -0.1 C 0 km/h
1689 16-01-2021 20:40:00 -0.1 C 4.28 g/m*3 -0.1 C 0 km/h
1690 16-01-2021 20:45:00 -0.1 C 4.28 g/m*3 -0.1 C 0 km/h
1691 16-01-2021 20:50:00 -0.1 C 4.33 g/m*3 -0.1 C 1.6 km/h
1692 16-01-2021 20:55:00 -0.2 C 4.3 g/m*3 -0.2 C 0 km/h
1693 16-01-2021 21:00:00 -0.2 C 4.3 g/m*3 -0.2 C 0 km/h
1694 16-01-2021 21:05:00 -0.2 C 4.35 g/m*3 -0.2 C 0 km/h
1695 16-01-2021 21:10:00 -0.3 C 4.32 g/m*3 -0.3 C 0 km/h
1696 16-01-2021 21:15:00 -0.3 C 4.37 g/m*3 -0.3 C 1.6 km/h
1697 16-01-2021 21:20:00 -0.3 C 4.37 g/m*3 -0.3 C 1.6 km/h
1698 16-01-2021 21:25:00 -0.3 C 4.37 g/m*3 -0.3 C 0 km/h
1699 16-01-2021 21:30:00 -0.3 C 4.37 g/m*3 -0.3 C 0 km/h
1700 16-01-2021 21:35:00 -0.3 C 4.41 g/m*3 -0.3 C 0 km/h
Sensor: Nr:Datum:Temp:Abs-Feuchte:Windchill:Wind:
Aussen-T/F 1701 16-01-2021 21:40:00 -0.3 C 4.41 g/m*3 -0.3 C 1.6 km/h
1702 16-01-2021 21:45:00 -0.3 C 4.41 g/m*3 -0.3 C 0 km/h
1703 16-01-2021 21:50:00 -0.3 C 4.41 g/m*3 -0.3 C 0 km/h
1704 16-01-2021 21:55:00 -0.3 C 4.41 g/m*3 -0.3 C 0 km/h
1705 16-01-2021 22:00:00 -0.3 C 4.41 g/m*3 -0.3 C 1.6 km/h
1706 16-01-2021 22:05:00 -0.3 C 4.41 g/m*3 -0.3 C 0 km/h
1707 16-01-2021 22:10:00 -0.4 C 4.38 g/m*3 -0.4 C 0 km/h
1708 16-01-2021 22:15:00 -0.4 C 4.38 g/m*3 -0.4 C 1.6 km/h
1709 16-01-2021 22:20:00 -0.4 C 4.38 g/m*3 -0.4 C 0 km/h
1710 16-01-2021 22:25:00 -0.4 C 4.38 g/m*3 -0.4 C 0 km/h
1711 16-01-2021 22:30:00 -0.4 C 4.43 g/m*3 -0.4 C 0 km/h
1712 16-01-2021 22:35:00 -0.5 C 4.4 g/m*3 -0.5 C 0 km/h
1713 16-01-2021 22:40:00 -0.5 C 4.35 g/m*3 -0.5 C 0 km/h
1714 16-01-2021 22:45:00 -0.5 C 4.35 g/m*3 -0.5 C 0 km/h
1715 16-01-2021 22:50:00 -0.6 C 4.37 g/m*3 -0.6 C 1.6 km/h
1716 16-01-2021 22:55:00 -0.6 C 4.37 g/m*3 -0.6 C 1.6 km/h
1717 16-01-2021 23:00:00 -0.6 C 4.37 g/m*3 -0.6 C 1.6 km/h
1718 16-01-2021 23:05:00 -0.6 C 4.37 g/m*3 -0.6 C 0 km/h
1719 16-01-2021 23:10:00 -0.7 C 4.34 g/m*3 -0.7 C 1.6 km/h
1720 16-01-2021 23:15:00 -0.7 C 4.34 g/m*3 -0.7 C 0 km/h
1721 16-01-2021 23:20:00 -0.7 C 4.34 g/m*3 -0.7 C 0 km/h
1722 16-01-2021 23:25:00 -0.7 C 4.34 g/m*3 -0.7 C 0 km/h
1723 16-01-2021 23:30:00 -0.7 C 4.34 g/m*3 -0.7 C 0 km/h
1724 16-01-2021 23:35:00 -0.7 C 4.34 g/m*3 -0.7 C 0 km/h
1725 16-01-2021 23:40:00 -0.7 C 4.34 g/m*3 -0.7 C 0 km/h
Sensor: Nr:Datum:Temp:Abs-Feuchte:Windchill:Wind:
Aussen-T/F 1726 16-01-2021 23:45:00 -0.7 C 4.34 g/m*3 -0.7 C 0 km/h
1727 16-01-2021 23:50:00 -0.7 C 4.34 g/m*3 -0.7 C 0 km/h
1728 16-01-2021 23:55:00 -0.7 C 4.34 g/m*3 -0.7 C 0 km/h
1729 17-01-2021 00:00:00 -0.7 C 4.34 g/m*3 -0.7 C 0 km/h
1730 17-01-2021 00:05:00 -0.7 C 4.34 g/m*3 -0.7 C 0 km/h
1731 17-01-2021 00:10:00 -0.8 C 4.31 g/m*3 -0.8 C 0 km/h
1732 17-01-2021 00:15:00 -0.8 C 4.31 g/m*3 -0.8 C 0 km/h
1733 17-01-2021 00:20:00 -0.8 C 4.31 g/m*3 -0.8 C 0 km/h
1734 17-01-2021 00:25:00 -0.8 C 4.31 g/m*3 -0.8 C 0 km/h
1735 17-01-2021 00:30:00 -0.8 C 4.31 g/m*3 -0.8 C 0 km/h
1736 17-01-2021 00:35:00 -0.8 C 4.31 g/m*3 -0.8 C 0 km/h
1737 17-01-2021 00:40:00 -0.8 C 4.31 g/m*3 -0.8 C 0 km/h
1738 17-01-2021 00:45:00 -0.8 C 4.31 g/m*3 -0.8 C 0 km/h
1739 17-01-2021 00:50:00 -0.8 C 4.31 g/m*3 -0.8 C 0 km/h
1740 17-01-2021 00:55:00 -0.8 C 4.31 g/m*3 -0.8 C 0 km/h
1741 17-01-2021 01:00:00 -0.9 C 4.28 g/m*3 -0.9 C 0 km/h
1742 17-01-2021 01:05:00 -0.9 C 4.28 g/m*3 -0.9 C 0 km/h
1743 17-01-2021 01:10:00 -0.9 C 4.28 g/m*3 -0.9 C 0 km/h
1744 17-01-2021 01:15:00 -0.9 C 4.28 g/m*3 -0.9 C 0 km/h
1745 17-01-2021 01:20:00 -0.9 C 4.28 g/m*3 -0.9 C 0 km/h
1746 17-01-2021 01:25:00 -0.9 C 4.28 g/m*3 -0.9 C 0 km/h
1747 17-01-2021 01:30:00 -0.9 C 4.28 g/m*3 -0.9 C 0 km/h
1748 17-01-2021 01:35:00 -1 C 4.25 g/m*3 -1 C 0 km/h
1749 17-01-2021 01:40:00 -1.1 C 4.22 g/m*3 -1.1 C 0 km/h
1750 17-01-2021 01:45:00 -1.1 C 4.22 g/m*3 -1.1 C 0 km/h
Sensor: Nr:Datum:Temp:Abs-Feuchte:Windchill:Wind:
Aussen-T/F 1751 17-01-2021 01:50:00 -1.1 C 4.22 g/m*3 -1.1 C 0 km/h
1752 17-01-2021 01:55:00 -1.1 C 4.22 g/m*3 -1.1 C 0 km/h
1753 17-01-2021 02:00:00 -1.1 C 4.22 g/m*3 -1.1 C 0 km/h
1754 17-01-2021 02:05:00 -1.1 C 4.22 g/m*3 -1.1 C 0 km/h
1755 17-01-2021 02:10:00 -1.1 C 4.22 g/m*3 -1.1 C 0 km/h
1756 17-01-2021 02:15:00 -1.2 C 4.19 g/m*3 -1.2 C 0 km/h
1757 17-01-2021 02:20:00 -1.2 C 4.19 g/m*3 -1.2 C 0 km/h
1758 17-01-2021 02:25:00 -1.1 C 4.22 g/m*3 -1.1 C 0 km/h
1759 17-01-2021 02:30:00 -1.2 C 4.19 g/m*3 -1.2 C 0 km/h
1760 17-01-2021 02:35:00 -1.2 C 4.19 g/m*3 -1.2 C 0 km/h
1761 17-01-2021 02:40:00 -1.2 C 4.19 g/m*3 -1.2 C 0 km/h
1762 17-01-2021 02:45:00 -1.2 C 4.19 g/m*3 -1.2 C 0 km/h
1763 17-01-2021 02:50:00 -1.2 C 4.19 g/m*3 -1.2 C 0 km/h
1764 17-01-2021 02:55:00 -1.2 C 4.19 g/m*3 -1.2 C 0 km/h
1765 17-01-2021 03:00:00 -1.2 C 4.19 g/m*3 -1.2 C 0 km/h
1766 17-01-2021 03:05:00 -1.2 C 4.19 g/m*3 -1.2 C 0 km/h
1767 17-01-2021 03:10:00 -1.2 C 4.19 g/m*3 -1.2 C 0 km/h
1768 17-01-2021 03:15:00 -1.2 C 4.19 g/m*3 -1.2 C 0 km/h
1769 17-01-2021 03:20:00 -1.2 C 4.19 g/m*3 -1.2 C 0 km/h
1770 17-01-2021 03:25:00 -1.2 C 4.19 g/m*3 -1.2 C 0 km/h
1771 17-01-2021 03:30:00 -1.2 C 4.19 g/m*3 -1.2 C 0 km/h
1772 17-01-2021 03:35:00 -1.2 C 4.19 g/m*3 -1.2 C 0 km/h
1773 17-01-2021 03:40:00 -1.2 C 4.19 g/m*3 -1.2 C 0 km/h
1774 17-01-2021 03:45:00 -1.2 C 4.19 g/m*3 -1.2 C 0 km/h
1775 17-01-2021 03:50:00 -1.2 C 4.19 g/m*3 -1.2 C 0 km/h
Sensor: Nr:Datum:Temp:Abs-Feuchte:Windchill:Wind:
Aussen-T/F 1776 17-01-2021 03:55:00 -1.2 C 4.19 g/m*3 -1.2 C 0 km/h
1777 17-01-2021 04:00:00 -1.2 C 4.19 g/m*3 -1.2 C 0 km/h
1778 17-01-2021 04:05:00 -1.2 C 4.24 g/m*3 -1.2 C 0 km/h
1779 17-01-2021 04:10:00 -1.2 C 4.24 g/m*3 -1.2 C 0 km/h
1780 17-01-2021 04:15:00 -1.2 C 4.24 g/m*3 -1.2 C 0 km/h
1781 17-01-2021 04:20:00 -1.2 C 4.24 g/m*3 -1.2 C 0 km/h
1782 17-01-2021 04:25:00 -1.2 C 4.24 g/m*3 -1.2 C 0 km/h
1783 17-01-2021 04:30:00 -1.2 C 4.24 g/m*3 -1.2 C 0 km/h
1784 17-01-2021 04:35:00 -1.2 C 4.24 g/m*3 -1.2 C 0 km/h
1785 17-01-2021 04:40:00 -1.1 C 4.26 g/m*3 -1.1 C 0 km/h
1786 17-01-2021 04:45:00 -1.1 C 4.26 g/m*3 -1.1 C 0 km/h
1787 17-01-2021 04:50:00 -1.1 C 4.26 g/m*3 -1.1 C 0 km/h
1788 17-01-2021 04:55:00 -1.1 C 4.26 g/m*3 -1.1 C 0 km/h
1789 17-01-2021 05:00:00 -1.1 C 4.26 g/m*3 -1.1 C 0 km/h
1790 17-01-2021 05:05:00 -1.1 C 4.26 g/m*3 -1.1 C 0 km/h
1791 17-01-2021 05:10:00 -1.1 C 4.26 g/m*3 -1.1 C 0 km/h
1792 17-01-2021 05:15:00 -1.1 C 4.26 g/m*3 -1.1 C 0 km/h
1793 17-01-2021 05:20:00 -1.1 C 4.26 g/m*3 -1.1 C 0 km/h
1794 17-01-2021 05:25:00 -1.1 C 4.26 g/m*3 -1.1 C 0 km/h
1795 17-01-2021 05:30:00 -1 C 4.29 g/m*3 -1 C 0 km/h
1796 17-01-2021 05:35:00 -1 C 4.29 g/m*3 -1 C 0 km/h
1797 17-01-2021 05:40:00 -1 C 4.29 g/m*3 -1 C 0 km/h
1798 17-01-2021 05:45:00 -1 C 4.29 g/m*3 -1 C 0 km/h
1799 17-01-2021 05:50:00 -0.9 C 4.32 g/m*3 -0.9 C 0 km/h
1800 17-01-2021 05:55:00 -0.9 C 4.32 g/m*3 -0.9 C 0 km/h
Sensor: Nr:Datum:Temp:Abs-Feuchte:Windchill:Wind:
Aussen-T/F 1801 17-01-2021 06:00:00 -0.9 C 4.32 g/m*3 -0.9 C 1.6 km/h
1802 17-01-2021 06:05:00 -0.9 C 4.32 g/m*3 -0.9 C 0 km/h
1803 17-01-2021 06:10:00 -0.9 C 4.32 g/m*3 -0.9 C 0 km/h
1804 17-01-2021 06:15:00 -0.9 C 4.32 g/m*3 -0.9 C 0 km/h
1805 17-01-2021 06:20:00 -0.9 C 4.32 g/m*3 -0.9 C 0 km/h
1806 17-01-2021 06:25:00 -0.9 C 4.32 g/m*3 -0.9 C 0 km/h
1807 17-01-2021 06:30:00 -0.9 C 4.32 g/m*3 -0.9 C 0 km/h
1808 17-01-2021 06:35:00 -0.8 C 4.35 g/m*3 -0.8 C 0 km/h
1809 17-01-2021 06:40:00 -0.8 C 4.35 g/m*3 -0.8 C 0 km/h
1810 17-01-2021 06:45:00 -0.8 C 4.35 g/m*3 -0.8 C 0 km/h
1811 17-01-2021 06:50:00 -0.8 C 4.35 g/m*3 -0.8 C 0 km/h
1812 17-01-2021 06:55:00 -0.8 C 4.35 g/m*3 -0.8 C 0 km/h
1813 17-01-2021 07:00:00 -0.8 C 4.35 g/m*3 -0.8 C 0 km/h
1814 17-01-2021 07:05:00 -0.8 C 4.35 g/m*3 -0.8 C 0 km/h
1815 17-01-2021 07:10:00 -0.8 C 4.35 g/m*3 -0.8 C 0 km/h
1816 17-01-2021 07:15:00 -0.8 C 4.35 g/m*3 -0.8 C 0 km/h
1817 17-01-2021 07:20:00 -0.8 C 4.35 g/m*3 -0.8 C 0 km/h
1818 17-01-2021 07:25:00 -0.8 C 4.35 g/m*3 -0.8 C 0 km/h
1819 17-01-2021 07:30:00 -0.7 C 4.39 g/m*3 -0.7 C 0 km/h
1820 17-01-2021 07:35:00 -0.7 C 4.39 g/m*3 -0.7 C 0 km/h
1821 17-01-2021 07:40:00 -0.7 C 4.39 g/m*3 -0.7 C 0 km/h
1822 17-01-2021 07:45:00 -0.7 C 4.39 g/m*3 -0.7 C 0 km/h
1823 17-01-2021 07:50:00 -0.7 C 4.39 g/m*3 -0.7 C 0 km/h
1824 17-01-2021 07:55:00 -0.7 C 4.39 g/m*3 -0.7 C 0 km/h
1825 17-01-2021 08:00:00 -0.7 C 4.39 g/m*3 -0.7 C 0 km/h
Sensor: Nr:Datum:Temp:Abs-Feuchte:Windchill:Wind:
Aussen-T/F 1826 17-01-2021 08:05:00 -0.7 C 4.39 g/m*3 -0.7 C 0 km/h
1827 17-01-2021 08:10:00 -0.7 C 4.39 g/m*3 -0.7 C 0 km/h
1828 17-01-2021 08:15:00 -0.7 C 4.39 g/m*3 -0.7 C 0 km/h
1829 17-01-2021 08:20:00 -0.7 C 4.39 g/m*3 -0.7 C 0 km/h
1830 17-01-2021 08:25:00 -0.7 C 4.39 g/m*3 -0.7 C 0 km/h
1831 17-01-2021 08:30:00 -0.7 C 4.39 g/m*3 -0.7 C 0 km/h
1832 17-01-2021 08:35:00 -0.6 C 4.42 g/m*3 -0.6 C 0 km/h
1833 17-01-2021 08:40:00 -0.6 C 4.42 g/m*3 -0.6 C 0 km/h
1834 17-01-2021 08:45:00 -0.6 C 4.42 g/m*3 -0.6 C 0 km/h
1835 17-01-2021 08:50:00 -0.6 C 4.42 g/m*3 -0.6 C 0 km/h
1836 17-01-2021 08:55:00 -0.6 C 4.42 g/m*3 -0.6 C 0 km/h
1837 17-01-2021 09:00:00 -0.5 C 4.45 g/m*3 -0.5 C 0 km/h
1838 17-01-2021 09:05:00 -0.5 C 4.45 g/m*3 -0.5 C 0 km/h
1839 17-01-2021 09:10:00 -0.4 C 4.48 g/m*3 -0.4 C 0 km/h
1840 17-01-2021 09:15:00 -0.4 C 4.48 g/m*3 -0.4 C 0 km/h
1841 17-01-2021 09:20:00 -0.4 C 4.48 g/m*3 -0.4 C 0 km/h
1842 17-01-2021 09:25:00 -0.3 C 4.51 g/m*3 -0.3 C 0 km/h
1843 17-01-2021 09:30:00 -0.2 C 4.54 g/m*3 -0.2 C 0 km/h
1844 17-01-2021 09:35:00 -0.2 C 4.54 g/m*3 -0.2 C 3.2 km/h
1845 17-01-2021 09:40:00 -0.1 C 4.57 g/m*3 -0.1 C 0 km/h
1846 17-01-2021 09:45:00 -0.1 C 4.62 g/m*3 -0.1 C 0 km/h
1847 17-01-2021 09:50:00 0 C 4.65 g/m*3 0 C 0 km/h
1848 17-01-2021 09:55:00 0.1 C 4.63 g/m*3 0.1 C 3.2 km/h
1849 17-01-2021 10:00:00 0.1 C 4.63 g/m*3 0.1 C 0 km/h
1850 17-01-2021 10:05:00 0.2 C 4.67 g/m*3 0.2 C 0 km/h
Sensor: Nr:Datum:Temp:Abs-Feuchte:Windchill:Wind:
Aussen-T/F 1851 17-01-2021 10:10:00 0.2 C 4.67 g/m*3 0.2 C 1.6 km/h
1852 17-01-2021 10:15:00 0.2 C 4.67 g/m*3 0.2 C 3.2 km/h
1853 17-01-2021 10:20:00 0.2 C 4.67 g/m*3 0.2 C 0 km/h
1854 17-01-2021 10:25:00 0.2 C 4.67 g/m*3 0.2 C 0 km/h
1855 17-01-2021 10:30:00 0.2 C 4.67 g/m*3 0.2 C 0 km/h
1856 17-01-2021 10:35:00 0.2 C 4.67 g/m*3 0.2 C 0 km/h
1857 17-01-2021 10:40:00 0.3 C 4.7 g/m*3 0.3 C 0 km/h
1858 17-01-2021 10:45:00 0.3 C 4.7 g/m*3 0.3 C 0 km/h
1859 17-01-2021 10:50:00 0.3 C 4.7 g/m*3 0.3 C 0 km/h
1860 17-01-2021 10:55:00 0.4 C 4.73 g/m*3 0.4 C 0 km/h
1861 17-01-2021 11:00:00 0.4 C 4.73 g/m*3 0.4 C 0 km/h
1862 17-01-2021 11:05:00 0.5 C 4.76 g/m*3 0.5 C 0 km/h
1863 17-01-2021 11:10:00 0.6 C 4.8 g/m*3 0.6 C 0 km/h
1864 17-01-2021 11:15:00 0.7 C 4.83 g/m*3 0.7 C 0 km/h
1865 17-01-2021 11:20:00 0.7 C 4.83 g/m*3 0.7 C 0 km/h
1866 17-01-2021 11:25:00 0.8 C 4.86 g/m*3 0.8 C 0 km/h
1867 17-01-2021 11:30:00 0.8 C 4.86 g/m*3 0.8 C 0 km/h
1868 17-01-2021 11:35:00 0.8 C 4.86 g/m*3 0.8 C 0 km/h
1869 17-01-2021 11:40:00 0.7 C 4.83 g/m*3 0.7 C 0 km/h
1870 17-01-2021 11:45:00 0.7 C 4.83 g/m*3 0.7 C 0 km/h
1871 17-01-2021 11:50:00 0.7 C 4.83 g/m*3 0.7 C 0 km/h
1872 17-01-2021 11:55:00 0.8 C 4.86 g/m*3 0.8 C 0 km/h
1873 17-01-2021 12:00:00 0.8 C 4.86 g/m*3 0.8 C 0 km/h
1874 17-01-2021 12:05:00 0.9 C 4.9 g/m*3 0.9 C 0 km/h
1875 17-01-2021 12:10:00 0.9 C 4.9 g/m*3 0.9 C 0 km/h
Sensor: Nr:Datum:Temp:Abs-Feuchte:Windchill:Wind:
Aussen-T/F 1876 17-01-2021 12:15:00 1 C 4.93 g/m*3 1 C 0 km/h
1877 17-01-2021 12:20:00 1.1 C 4.96 g/m*3 1.1 C 0 km/h
1878 17-01-2021 12:25:00 1.1 C 4.96 g/m*3 1.1 C 0 km/h
1879 17-01-2021 12:30:00 1.1 C 4.96 g/m*3 1.1 C 0 km/h
1880 17-01-2021 12:35:00 1.2 C 5 g/m*3 1.2 C 0 km/h
1881 17-01-2021 12:40:00 1.2 C 5 g/m*3 1.2 C 0 km/h
1882 17-01-2021 12:45:00 1.2 C 4.95 g/m*3 1.2 C 0 km/h
1883 17-01-2021 12:50:00 1.2 C 4.95 g/m*3 1.2 C 0 km/h
1884 17-01-2021 12:55:00 1.2 C 4.95 g/m*3 1.2 C 0 km/h
1885 17-01-2021 13:00:00 1.2 C 5 g/m*3 1.2 C 1.6 km/h
1886 17-01-2021 13:05:00 1.3 C 4.98 g/m*3 1.3 C 3.2 km/h
1887 17-01-2021 13:10:00 1.3 C 4.98 g/m*3 1.3 C 3.2 km/h
1888 17-01-2021 13:15:00 1.3 C 4.98 g/m*3 1.3 C 1.6 km/h
1889 17-01-2021 13:20:00 1.3 C 5.03 g/m*3 1.3 C 0 km/h
1890 17-01-2021 13:25:00 1.4 C 5.01 g/m*3 1.4 C 0 km/h
1891 17-01-2021 13:30:00 1.4 C 5.01 g/m*3 1.4 C 0 km/h
1892 17-01-2021 13:35:00 1.4 C 5.01 g/m*3 1.4 C 1.6 km/h
1893 17-01-2021 13:40:00 1.4 C 5.01 g/m*3 1.4 C 3.2 km/h
1894 17-01-2021 13:45:00 1.4 C 5.01 g/m*3 1.4 C 3.2 km/h
1895 17-01-2021 13:50:00 1.4 C 5.01 g/m*3 1.4 C 4.8 km/h
1896 17-01-2021 13:55:00 1.3 C 4.98 g/m*3 1.3 C 4.8 km/h
1897 17-01-2021 14:00:00 1.3 C 5.03 g/m*3 1.3 C 3.2 km/h
1898 17-01-2021 14:05:00 1.3 C 5.03 g/m*3 1.3 C 0 km/h
1899 17-01-2021 14:10:00 1.4 C 5.07 g/m*3 1.4 C 3.2 km/h
1900 17-01-2021 14:15:00 1.4 C 5.07 g/m*3 -0.56 C 6.4 km/h
Sensor: Nr:Datum:Temp:Abs-Feuchte:Windchill:Wind:
Aussen-T/F 1901 17-01-2021 14:20:00 1.4 C 5.07 g/m*3 1.4 C 4.8 km/h
1902 17-01-2021 14:25:00 1.4 C 5.07 g/m*3 -0.56 C 6.4 km/h
1903 17-01-2021 14:30:00 1.4 C 5.07 g/m*3 1.4 C 3.2 km/h
1904 17-01-2021 14:35:00 1.4 C 5.07 g/m*3 1.4 C 1.6 km/h
1905 17-01-2021 14:40:00 1.4 C 5.07 g/m*3 1.4 C 0 km/h
1906 17-01-2021 14:45:00 1.4 C 5.07 g/m*3 1.4 C 0 km/h
1907 17-01-2021 14:50:00 1.4 C 5.07 g/m*3 1.4 C 0 km/h
1908 17-01-2021 14:55:00 1.5 C 5.1 g/m*3 1.5 C 0 km/h
1909 17-01-2021 15:00:00 1.5 C 5.1 g/m*3 1.5 C 0 km/h
1910 17-01-2021 15:05:00 1.6 C 5.14 g/m*3 1.6 C 0 km/h
1911 17-01-2021 15:10:00 1.6 C 5.14 g/m*3 1.6 C 0 km/h
1912 17-01-2021 15:15:00 1.6 C 5.14 g/m*3 1.6 C 0 km/h
1913 17-01-2021 15:20:00 1.6 C 5.14 g/m*3 1.6 C 0 km/h
1914 17-01-2021 15:25:00 1.7 C 5.17 g/m*3 1.7 C 0 km/h
1915 17-01-2021 15:30:00 1.7 C 5.17 g/m*3 1.7 C 0 km/h
1916 17-01-2021 15:35:00 1.6 C 5.14 g/m*3 1.6 C 0 km/h
1917 17-01-2021 15:40:00 1.6 C 5.14 g/m*3 1.6 C 0 km/h
1918 17-01-2021 15:45:00 1.6 C 5.14 g/m*3 1.6 C 1.6 km/h
1919 17-01-2021 15:50:00 1.6 C 5.14 g/m*3 1.6 C 0 km/h
1920 17-01-2021 15:55:00 1.5 C 5.1 g/m*3 1.5 C 0 km/h
1921 17-01-2021 16:00:00 1.5 C 5.1 g/m*3 1.5 C 3.2 km/h
1922 17-01-2021 16:05:00 1.5 C 5.1 g/m*3 1.5 C 0 km/h
1923 17-01-2021 16:10:00 1.5 C 5.1 g/m*3 1.5 C 0 km/h
1924 17-01-2021 16:15:00 1.5 C 5.1 g/m*3 1.5 C 0 km/h
1925 17-01-2021 16:20:00 1.5 C 5.1 g/m*3 1.5 C 1.6 km/h
Sensor: Nr:Datum:Temp:Abs-Feuchte:Windchill:Wind:
Aussen-T/F 1926 17-01-2021 16:25:00 1.5 C 5.1 g/m*3 1.5 C 0 km/h
1927 17-01-2021 16:30:00 1.5 C 5.1 g/m*3 1.5 C 0 km/h
1928 17-01-2021 16:35:00 1.5 C 5.1 g/m*3 1.5 C 0 km/h
1929 17-01-2021 16:40:00 1.5 C 5.1 g/m*3 1.5 C 0 km/h
1930 17-01-2021 16:45:00 1.6 C 5.14 g/m*3 1.6 C 0 km/h
1931 17-01-2021 16:50:00 1.5 C 5.1 g/m*3 1.5 C 0 km/h
1932 17-01-2021 16:55:00 1.5 C 5.1 g/m*3 1.5 C 0 km/h
1933 17-01-2021 17:00:00 1.5 C 5.1 g/m*3 1.5 C 4.8 km/h
1934 17-01-2021 17:05:00 1.5 C 5.1 g/m*3 1.5 C 1.6 km/h
1935 17-01-2021 17:10:00 1.6 C 5.19 g/m*3 1.6 C 3.2 km/h
1936 17-01-2021 17:15:00 1.6 C 5.19 g/m*3 1.6 C 1.6 km/h
1937 17-01-2021 17:20:00 1.6 C 5.19 g/m*3 1.6 C 3.2 km/h
1938 17-01-2021 17:25:00 1.6 C 5.19 g/m*3 1.6 C 1.6 km/h
1939 17-01-2021 17:30:00 1.6 C 5.19 g/m*3 1.6 C 0 km/h
1940 17-01-2021 17:35:00 1.6 C 5.19 g/m*3 1.6 C 0 km/h
1941 17-01-2021 17:40:00 1.6 C 5.19 g/m*3 1.6 C 0 km/h
1942 17-01-2021 17:45:00 1.6 C 5.19 g/m*3 1.6 C 0 km/h
1943 17-01-2021 17:50:00 1.6 C 5.19 g/m*3 1.6 C 0 km/h
1944 17-01-2021 17:55:00 1.6 C 5.19 g/m*3 1.6 C 1.6 km/h
1945 17-01-2021 18:00:00 1.7 C 5.23 g/m*3 1.7 C 1.6 km/h
1946 17-01-2021 18:05:00 1.7 C 5.23 g/m*3 1.7 C 3.2 km/h
1947 17-01-2021 18:10:00 1.7 C 5.23 g/m*3 1.7 C 0 km/h
1948 17-01-2021 18:15:00 1.7 C 5.23 g/m*3 1.7 C 1.6 km/h
1949 17-01-2021 18:20:00 1.7 C 5.23 g/m*3 1.7 C 3.2 km/h
1950 17-01-2021 18:25:00 1.7 C 5.23 g/m*3 1.7 C 4.8 km/h
Sensor: Nr:Datum:Temp:Abs-Feuchte:Windchill:Wind:
Aussen-T/F 1951 17-01-2021 18:30:00 1.7 C 5.23 g/m*3 1.7 C 0 km/h
1952 17-01-2021 18:35:00 1.6 C 5.19 g/m*3 1.6 C 4.8 km/h
1953 17-01-2021 18:40:00 1.6 C 5.19 g/m*3 1.6 C 0 km/h
1954 17-01-2021 18:45:00 1.7 C 5.23 g/m*3 1.7 C 4.8 km/h
1955 17-01-2021 18:50:00 1.7 C 5.23 g/m*3 1.7 C 3.2 km/h
1956 17-01-2021 18:55:00 1.8 C 5.26 g/m*3 1.8 C 1.6 km/h
1957 17-01-2021 19:00:00 1.8 C 5.26 g/m*3 1.8 C 1.6 km/h
1958 17-01-2021 19:05:00 1.8 C 5.26 g/m*3 1.8 C 3.2 km/h
1959 17-01-2021 19:10:00 1.9 C 5.3 g/m*3 1.9 C 3.2 km/h
1960 17-01-2021 19:15:00 1.8 C 5.26 g/m*3 1.8 C 0 km/h
1961 17-01-2021 19:20:00 1.8 C 5.26 g/m*3 1.8 C 3.2 km/h
1962 17-01-2021 19:25:00 1.8 C 5.26 g/m*3 1.8 C 0 km/h
1963 17-01-2021 19:30:00 1.8 C 5.26 g/m*3 1.8 C 3.2 km/h
1964 17-01-2021 19:35:00 1.7 C 5.23 g/m*3 1.7 C 3.2 km/h
1965 17-01-2021 19:40:00 1.7 C 5.23 g/m*3 1.7 C 1.6 km/h
1966 17-01-2021 19:45:00 1.8 C 5.26 g/m*3 -0.1 C 6.4 km/h
1967 17-01-2021 19:50:00 1.8 C 5.26 g/m*3 1.8 C 0 km/h
1968 17-01-2021 19:55:00 1.9 C 5.3 g/m*3 1.9 C 0 km/h
1969 17-01-2021 20:00:00 2 C 5.33 g/m*3 2 C 0 km/h
1970 17-01-2021 20:05:00 1.9 C 5.3 g/m*3 1.9 C 4.8 km/h
1971 17-01-2021 20:10:00 1.9 C 5.3 g/m*3 1.9 C 3.2 km/h
1972 17-01-2021 20:15:00 1.8 C 5.26 g/m*3 1.8 C 3.2 km/h
1973 17-01-2021 20:20:00 1.8 C 5.26 g/m*3 1.8 C 4.8 km/h
1974 17-01-2021 20:25:00 1.8 C 5.26 g/m*3 1.8 C 3.2 km/h
1975 17-01-2021 20:30:00 1.8 C 5.26 g/m*3 1.8 C 3.2 km/h
Sensor: Nr:Datum:Temp:Abs-Feuchte:Windchill:Wind:
Aussen-T/F 1976 17-01-2021 20:35:00 1.8 C 5.26 g/m*3 1.8 C 3.2 km/h
1977 17-01-2021 20:40:00 1.9 C 5.3 g/m*3 1.9 C 1.6 km/h
1978 17-01-2021 20:45:00 1.9 C 5.3 g/m*3 1.9 C 3.2 km/h
1979 17-01-2021 20:50:00 1.9 C 5.3 g/m*3 1.9 C 1.6 km/h
1980 17-01-2021 20:55:00 1.9 C 5.3 g/m*3 1.9 C 0 km/h
1981 17-01-2021 21:00:00 1.9 C 5.3 g/m*3 1.9 C 1.6 km/h
1982 17-01-2021 21:05:00 1.9 C 5.3 g/m*3 1.9 C 1.6 km/h
1983 17-01-2021 21:10:00 1.9 C 5.3 g/m*3 1.9 C 3.2 km/h
1984 17-01-2021 21:15:00 1.9 C 5.3 g/m*3 1.9 C 3.2 km/h
1985 17-01-2021 21:20:00 1.9 C 5.3 g/m*3 1.9 C 1.6 km/h
1986 17-01-2021 21:25:00 1.9 C 5.3 g/m*3 1.9 C 3.2 km/h
1987 17-01-2021 21:30:00 2 C 5.33 g/m*3 2 C 3.2 km/h
1988 17-01-2021 21:35:00 2 C 5.33 g/m*3 2 C 4.8 km/h
1989 17-01-2021 21:40:00 2 C 5.33 g/m*3 2 C 3.2 km/h
1990 17-01-2021 21:45:00 2.1 C 5.37 g/m*3 2.1 C 0 km/h
1991 17-01-2021 21:50:00 2 C 5.33 g/m*3 2 C 0 km/h
1992 17-01-2021 21:55:00 2 C 5.33 g/m*3 2 C 0 km/h
1993 17-01-2021 22:00:00 2 C 5.33 g/m*3 2 C 4.8 km/h
1994 17-01-2021 22:05:00 2 C 5.33 g/m*3 2 C 0 km/h
1995 17-01-2021 22:10:00 2.1 C 5.43 g/m*3 2.1 C 0 km/h
1996 17-01-2021 22:15:00 2.1 C 5.37 g/m*3 2.1 C 1.6 km/h
1997 17-01-2021 22:20:00 2.1 C 5.37 g/m*3 2.1 C 4.8 km/h
1998 17-01-2021 22:25:00 2.1 C 5.43 g/m*3 2.1 C 1.6 km/h
1999 17-01-2021 22:30:00 2.1 C 5.43 g/m*3 2.1 C 0 km/h
2000 17-01-2021 22:35:00 2.2 C 5.46 g/m*3 2.2 C 0 km/h
Sensor: Nr:Datum:Temp:Abs-Feuchte:Windchill:Wind:
Aussen-T/F 2001 17-01-2021 22:40:00 2.2 C 5.46 g/m*3 2.2 C 0 km/h
2002 17-01-2021 22:45:00 2.1 C 5.43 g/m*3 2.1 C 0 km/h
2003 17-01-2021 22:50:00 2.2 C 5.46 g/m*3 2.2 C 0 km/h
2004 17-01-2021 22:55:00 2.2 C 5.46 g/m*3 2.2 C 0 km/h
2005 17-01-2021 23:00:00 2.2 C 5.46 g/m*3 2.2 C 0 km/h
2006 17-01-2021 23:05:00 2.2 C 5.46 g/m*3 2.2 C 0 km/h
2007 17-01-2021 23:10:00 2.2 C 5.46 g/m*3 2.2 C 0 km/h
2008 17-01-2021 23:15:00 2.2 C 5.46 g/m*3 2.2 C 0 km/h
2009 17-01-2021 23:20:00 2.2 C 5.46 g/m*3 2.2 C 4.8 km/h
2010 17-01-2021 23:25:00 2.3 C 5.5 g/m*3 2.3 C 3.2 km/h
2011 17-01-2021 23:30:00 2.3 C 5.5 g/m*3 2.3 C 4.8 km/h
2012 17-01-2021 23:35:00 2.3 C 5.5 g/m*3 2.3 C 1.6 km/h
2013 17-01-2021 23:40:00 2.3 C 5.5 g/m*3 2.3 C 0 km/h
2014 17-01-2021 23:45:00 2.3 C 5.5 g/m*3 2.3 C 4.8 km/h
2015 17-01-2021 23:50:00 2.4 C 5.54 g/m*3 2.4 C 0 km/h
2016 17-01-2021 23:55:00 2.4 C 5.54 g/m*3 2.4 C 4.8 km/h

Legende:
   Min
   Max


Maximal/Minimal-Werte vom 23.03.2019 - 25.04.2019

Sensor Min Max Avg
Temp
(Aussen-T/F)
0.3 °C
14-04-2019  00:50:00
26.6 °C
24-04-2019  17:05:00
9.96 °C

Die Daten stammen von einer Davis Vantage Pro 2 Wetter-Station und werden unter Linux mit der Software wview2wettercgi und aufbereitet. Alle Angaben erfolgen ohne Gewähr für ihre Vollständigkeit oder Richtigkeit.
Kontakt: Rainer Krienke krienke@uni-koblenz.de . Meine Webseiten an der Uni Koblenz oder privat.
Version: $Revision: 0.78 $